<?xml version="1.0" encoding="UTF-8" standalone="no" ?>
<gpx xmlns="http://www.topografix.com/GPX/1/1" xmlns:xsi="http://www.w3.org/2001/XMLSchema-instance" xsi:schemaLocation="http://www.topografix.com/GPX/1/1 http://www.topografix.com/GPX/1/1/gpx.xsd" version="1.1" creator="VisuGPX - https://www.visugpx.com">
  <metadata>
    <name>La vallée de la Cance</name>
    <desc><![CDATA[Tour regroupant un max de belles petites descentes dans la vallée de la Cance]]></desc>
  </metadata>
  <trk>
    <name><![CDATA[20190122155830-YHm8v]]></name>
    <trkseg>
      <trkpt lat="45.20325" lon="4.7913">
        <ele>148</ele>
        <time>2019-01-20T19:01:18Z</time>
      </trkpt>
      <trkpt lat="45.20361" lon="4.79149">
        <ele>144</ele>
        <time>2019-01-20T19:01:48Z</time>
      </trkpt>
      <trkpt lat="45.20395" lon="4.79156">
        <ele>139.9</ele>
        <time>2019-01-20T19:02:16Z</time>
      </trkpt>
      <trkpt lat="45.2043" lon="4.79186">
        <ele>137.5</ele>
        <time>2019-01-20T19:02:48Z</time>
      </trkpt>
      <trkpt lat="45.20445" lon="4.79189">
        <ele>140.4</ele>
        <time>2019-01-20T19:03:00Z</time>
      </trkpt>
      <trkpt lat="45.20437" lon="4.79227">
        <ele>137.9</ele>
        <time>2019-01-20T19:03:23Z</time>
      </trkpt>
      <trkpt lat="45.20429" lon="4.79265">
        <ele>135.3</ele>
        <time>2019-01-20T19:03:45Z</time>
      </trkpt>
      <trkpt lat="45.20446" lon="4.79336">
        <ele>133.8</ele>
        <time>2019-01-20T19:04:27Z</time>
      </trkpt>
      <trkpt lat="45.20461" lon="4.79382">
        <ele>133.5</ele>
        <time>2019-01-20T19:04:56Z</time>
      </trkpt>
      <trkpt lat="45.20455" lon="4.79418">
        <ele>131.7</ele>
        <time>2019-01-20T19:05:17Z</time>
      </trkpt>
      <trkpt lat="45.20448" lon="4.79459">
        <ele>130.4</ele>
        <time>2019-01-20T19:05:41Z</time>
      </trkpt>
      <trkpt lat="45.20453" lon="4.79538">
        <ele>130.2</ele>
        <time>2019-01-20T19:06:26Z</time>
      </trkpt>
      <trkpt lat="45.20457" lon="4.79572">
        <ele>130.5</ele>
        <time>2019-01-20T19:06:45Z</time>
      </trkpt>
      <trkpt lat="45.20467" lon="4.79603">
        <ele>130.3</ele>
        <time>2019-01-20T19:07:04Z</time>
      </trkpt>
      <trkpt lat="45.20462" lon="4.79655">
        <ele>129.5</ele>
        <time>2019-01-20T19:07:33Z</time>
      </trkpt>
      <trkpt lat="45.20448" lon="4.79722">
        <ele>130.4</ele>
        <time>2019-01-20T19:08:13Z</time>
      </trkpt>
      <trkpt lat="45.20434" lon="4.79771">
        <ele>130.8</ele>
        <time>2019-01-20T19:08:43Z</time>
      </trkpt>
      <trkpt lat="45.20413" lon="4.79829">
        <ele>131.3</ele>
        <time>2019-01-20T19:09:19Z</time>
      </trkpt>
      <trkpt lat="45.20404" lon="4.7987">
        <ele>131.6</ele>
        <time>2019-01-20T19:09:44Z</time>
      </trkpt>
      <trkpt lat="45.20422" lon="4.79864">
        <ele>130.9</ele>
        <time>2019-01-20T19:09:58Z</time>
      </trkpt>
      <trkpt lat="45.20431" lon="4.79844">
        <ele>130.8</ele>
        <time>2019-01-20T19:10:11Z</time>
      </trkpt>
      <trkpt lat="45.2044" lon="4.79829">
        <ele>130.7</ele>
        <time>2019-01-20T19:10:23Z</time>
      </trkpt>
      <trkpt lat="45.20458" lon="4.79825">
        <ele>130.5</ele>
        <time>2019-01-20T19:10:37Z</time>
      </trkpt>
      <trkpt lat="45.20488" lon="4.79832">
        <ele>130.1</ele>
        <time>2019-01-20T19:11:01Z</time>
      </trkpt>
      <trkpt lat="45.205" lon="4.79818">
        <ele>130</ele>
        <time>2019-01-20T19:11:14Z</time>
      </trkpt>
      <trkpt lat="45.20516" lon="4.79802">
        <ele>130.6</ele>
        <time>2019-01-20T19:11:29Z</time>
      </trkpt>
      <trkpt lat="45.20531" lon="4.79801">
        <ele>131.3</ele>
        <time>2019-01-20T19:11:41Z</time>
      </trkpt>
      <trkpt lat="45.20542" lon="4.79818">
        <ele>131.6</ele>
        <time>2019-01-20T19:11:55Z</time>
      </trkpt>
      <trkpt lat="45.20562" lon="4.7988">
        <ele>131</ele>
        <time>2019-01-20T19:12:33Z</time>
      </trkpt>
      <trkpt lat="45.20585" lon="4.79936">
        <ele>130.8</ele>
        <time>2019-01-20T19:13:10Z</time>
      </trkpt>
      <trkpt lat="45.20609" lon="4.80002">
        <ele>139.7</ele>
        <time>2019-01-20T19:13:52Z</time>
      </trkpt>
      <trkpt lat="45.20622" lon="4.80041">
        <ele>144.5</ele>
        <time>2019-01-20T19:14:16Z</time>
      </trkpt>
      <trkpt lat="45.20627" lon="4.80058">
        <ele>146.1</ele>
        <time>2019-01-20T19:14:27Z</time>
      </trkpt>
      <trkpt lat="45.20626" lon="4.80116">
        <ele>144.8</ele>
        <time>2019-01-20T19:14:59Z</time>
      </trkpt>
      <trkpt lat="45.20625" lon="4.8017">
        <ele>141.8</ele>
        <time>2019-01-20T19:15:30Z</time>
      </trkpt>
      <trkpt lat="45.20621" lon="4.80198">
        <ele>138.4</ele>
        <time>2019-01-20T19:15:46Z</time>
      </trkpt>
      <trkpt lat="45.2059" lon="4.8021">
        <ele>133.8</ele>
        <time>2019-01-20T19:16:11Z</time>
      </trkpt>
      <trkpt lat="45.20611" lon="4.80226">
        <ele>135.1</ele>
        <time>2019-01-20T19:16:30Z</time>
      </trkpt>
      <trkpt lat="45.20709" lon="4.80257">
        <ele>136.5</ele>
        <time>2019-01-20T19:17:51Z</time>
      </trkpt>
      <trkpt lat="45.20807" lon="4.80282">
        <ele>134.8</ele>
        <time>2019-01-20T19:19:10Z</time>
      </trkpt>
      <trkpt lat="45.20813" lon="4.80238">
        <ele>138.4</ele>
        <time>2019-01-20T19:19:36Z</time>
      </trkpt>
      <trkpt lat="45.20841" lon="4.8021">
        <ele>141.2</ele>
        <time>2019-01-20T19:20:04Z</time>
      </trkpt>
      <trkpt lat="45.20888" lon="4.80164">
        <ele>142.6</ele>
        <time>2019-01-20T19:20:49Z</time>
      </trkpt>
      <trkpt lat="45.20921" lon="4.80144">
        <ele>144.4</ele>
        <time>2019-01-20T19:21:18Z</time>
      </trkpt>
      <trkpt lat="45.20949" lon="4.80122">
        <ele>146.9</ele>
        <time>2019-01-20T19:21:44Z</time>
      </trkpt>
      <trkpt lat="45.20975" lon="4.80102">
        <ele>146.5</ele>
        <time>2019-01-20T19:22:07Z</time>
      </trkpt>
      <trkpt lat="45.20968" lon="4.80087">
        <ele>150.4</ele>
        <time>2019-01-20T19:22:17Z</time>
      </trkpt>
      <trkpt lat="45.20921" lon="4.80109">
        <ele>154.1</ele>
        <time>2019-01-20T19:22:57Z</time>
      </trkpt>
      <trkpt lat="45.20861" lon="4.80136">
        <ele>154.9</ele>
        <time>2019-01-20T19:23:48Z</time>
      </trkpt>
      <trkpt lat="45.20824" lon="4.80148">
        <ele>155.5</ele>
        <time>2019-01-20T19:24:18Z</time>
      </trkpt>
      <trkpt lat="45.20803" lon="4.80141">
        <ele>159.2</ele>
        <time>2019-01-20T19:24:36Z</time>
      </trkpt>
      <trkpt lat="45.20794" lon="4.80116">
        <ele>167.5</ele>
        <time>2019-01-20T19:24:51Z</time>
      </trkpt>
      <trkpt lat="45.20784" lon="4.80072">
        <ele>180.4</ele>
        <time>2019-01-20T19:25:17Z</time>
      </trkpt>
      <trkpt lat="45.20768" lon="4.80044">
        <ele>186</ele>
        <time>2019-01-20T19:25:38Z</time>
      </trkpt>
      <trkpt lat="45.20766" lon="4.80016">
        <ele>191.9</ele>
        <time>2019-01-20T19:25:53Z</time>
      </trkpt>
      <trkpt lat="45.20785" lon="4.79983">
        <ele>198.9</ele>
        <time>2019-01-20T19:26:17Z</time>
      </trkpt>
      <trkpt lat="45.20795" lon="4.79952">
        <ele>204.2</ele>
        <time>2019-01-20T19:26:37Z</time>
      </trkpt>
      <trkpt lat="45.20804" lon="4.79917">
        <ele>211.2</ele>
        <time>2019-01-20T19:26:58Z</time>
      </trkpt>
      <trkpt lat="45.20817" lon="4.79886">
        <ele>215.6</ele>
        <time>2019-01-20T19:27:18Z</time>
      </trkpt>
      <trkpt lat="45.20834" lon="4.79861">
        <ele>222.9</ele>
        <time>2019-01-20T19:27:38Z</time>
      </trkpt>
      <trkpt lat="45.20845" lon="4.79835">
        <ele>226.4</ele>
        <time>2019-01-20T19:27:55Z</time>
      </trkpt>
      <trkpt lat="45.20855" lon="4.7981">
        <ele>232.2</ele>
        <time>2019-01-20T19:28:11Z</time>
      </trkpt>
      <trkpt lat="45.20855" lon="4.79778">
        <ele>235.7</ele>
        <time>2019-01-20T19:28:29Z</time>
      </trkpt>
      <trkpt lat="45.20839" lon="4.7976">
        <ele>229.9</ele>
        <time>2019-01-20T19:28:46Z</time>
      </trkpt>
      <trkpt lat="45.20832" lon="4.79729">
        <ele>229</ele>
        <time>2019-01-20T19:29:04Z</time>
      </trkpt>
      <trkpt lat="45.20833" lon="4.7971">
        <ele>231.2</ele>
        <time>2019-01-20T19:29:15Z</time>
      </trkpt>
      <trkpt lat="45.20841" lon="4.79696">
        <ele>236.2</ele>
        <time>2019-01-20T19:29:26Z</time>
      </trkpt>
      <trkpt lat="45.20842" lon="4.79678">
        <ele>237.9</ele>
        <time>2019-01-20T19:29:36Z</time>
      </trkpt>
      <trkpt lat="45.20826" lon="4.79659">
        <ele>231.8</ele>
        <time>2019-01-20T19:29:53Z</time>
      </trkpt>
      <trkpt lat="45.20822" lon="4.79633">
        <ele>231.4</ele>
        <time>2019-01-20T19:30:08Z</time>
      </trkpt>
      <trkpt lat="45.20817" lon="4.79618">
        <ele>229.9</ele>
        <time>2019-01-20T19:30:17Z</time>
      </trkpt>
      <trkpt lat="45.20804" lon="4.79602">
        <ele>225.3</ele>
        <time>2019-01-20T19:30:31Z</time>
      </trkpt>
      <trkpt lat="45.20794" lon="4.7958">
        <ele>222.5</ele>
        <time>2019-01-20T19:30:45Z</time>
      </trkpt>
      <trkpt lat="45.20806" lon="4.79558">
        <ele>229.8</ele>
        <time>2019-01-20T19:31:01Z</time>
      </trkpt>
      <trkpt lat="45.20814" lon="4.79534">
        <ele>235.9</ele>
        <time>2019-01-20T19:31:16Z</time>
      </trkpt>
      <trkpt lat="45.20814" lon="4.7951">
        <ele>238.5</ele>
        <time>2019-01-20T19:31:29Z</time>
      </trkpt>
      <trkpt lat="45.20799" lon="4.79495">
        <ele>232.9</ele>
        <time>2019-01-20T19:31:44Z</time>
      </trkpt>
      <trkpt lat="45.2078" lon="4.79455">
        <ele>228.5</ele>
        <time>2019-01-20T19:32:12Z</time>
      </trkpt>
      <trkpt lat="45.20778" lon="4.79396">
        <ele>231.6</ele>
        <time>2019-01-20T19:32:45Z</time>
      </trkpt>
      <trkpt lat="45.20787" lon="4.79353">
        <ele>237</ele>
        <time>2019-01-20T19:33:10Z</time>
      </trkpt>
      <trkpt lat="45.20802" lon="4.79311">
        <ele>246</ele>
        <time>2019-01-20T19:33:37Z</time>
      </trkpt>
      <trkpt lat="45.20808" lon="4.79296">
        <ele>250</ele>
        <time>2019-01-20T19:33:46Z</time>
      </trkpt>
      <trkpt lat="45.20792" lon="4.79284">
        <ele>244.5</ele>
        <time>2019-01-20T19:34:00Z</time>
      </trkpt>
      <trkpt lat="45.20773" lon="4.79271">
        <ele>237.8</ele>
        <time>2019-01-20T19:34:17Z</time>
      </trkpt>
      <trkpt lat="45.2075" lon="4.79266">
        <ele>228.6</ele>
        <time>2019-01-20T19:34:36Z</time>
      </trkpt>
      <trkpt lat="45.20746" lon="4.79243">
        <ele>231.1</ele>
        <time>2019-01-20T19:34:49Z</time>
      </trkpt>
      <trkpt lat="45.20733" lon="4.79222">
        <ele>234.6</ele>
        <time>2019-01-20T19:35:05Z</time>
      </trkpt>
      <trkpt lat="45.20707" lon="4.79209">
        <ele>231.6</ele>
        <time>2019-01-20T19:35:27Z</time>
      </trkpt>
      <trkpt lat="45.20682" lon="4.79191">
        <ele>230.3</ele>
        <time>2019-01-20T19:35:50Z</time>
      </trkpt>
      <trkpt lat="45.20667" lon="4.79149">
        <ele>237.6</ele>
        <time>2019-01-20T19:36:16Z</time>
      </trkpt>
      <trkpt lat="45.20643" lon="4.79087">
        <ele>242.4</ele>
        <time>2019-01-20T19:36:56Z</time>
      </trkpt>
      <trkpt lat="45.20628" lon="4.79015">
        <ele>248.3</ele>
        <time>2019-01-20T19:37:38Z</time>
      </trkpt>
      <trkpt lat="45.20618" lon="4.78967">
        <ele>250.8</ele>
        <time>2019-01-20T19:38:06Z</time>
      </trkpt>
      <trkpt lat="45.20593" lon="4.7896">
        <ele>240.1</ele>
        <time>2019-01-20T19:38:26Z</time>
      </trkpt>
      <trkpt lat="45.20578" lon="4.78952">
        <ele>233.6</ele>
        <time>2019-01-20T19:38:39Z</time>
      </trkpt>
      <trkpt lat="45.20584" lon="4.78937">
        <ele>238.2</ele>
        <time>2019-01-20T19:38:50Z</time>
      </trkpt>
      <trkpt lat="45.20587" lon="4.78927">
        <ele>240.9</ele>
        <time>2019-01-20T19:38:56Z</time>
      </trkpt>
      <trkpt lat="45.20587" lon="4.78917">
        <ele>241.9</ele>
        <time>2019-01-20T19:39:01Z</time>
      </trkpt>
      <trkpt lat="45.20585" lon="4.78912">
        <ele>240.1</ele>
        <time>2019-01-20T19:39:04Z</time>
      </trkpt>
      <trkpt lat="45.2059" lon="4.78912">
        <ele>243</ele>
        <time>2019-01-20T19:39:09Z</time>
      </trkpt>
      <trkpt lat="45.2059" lon="4.78909">
        <ele>242.5</ele>
        <time>2019-01-20T19:39:11Z</time>
      </trkpt>
      <trkpt lat="45.20587" lon="4.78905">
        <ele>240.1</ele>
        <time>2019-01-20T19:39:14Z</time>
      </trkpt>
      <trkpt lat="45.20586" lon="4.78901">
        <ele>238.8</ele>
        <time>2019-01-20T19:39:17Z</time>
      </trkpt>
      <trkpt lat="45.20591" lon="4.78897">
        <ele>241.5</ele>
        <time>2019-01-20T19:39:22Z</time>
      </trkpt>
      <trkpt lat="45.206" lon="4.78887">
        <ele>245.1</ele>
        <time>2019-01-20T19:39:30Z</time>
      </trkpt>
      <trkpt lat="45.2059" lon="4.78888">
        <ele>239.5</ele>
        <time>2019-01-20T19:39:39Z</time>
      </trkpt>
      <trkpt lat="45.20586" lon="4.78882">
        <ele>236.4</ele>
        <time>2019-01-20T19:39:43Z</time>
      </trkpt>
      <trkpt lat="45.20586" lon="4.78877">
        <ele>235.5</ele>
        <time>2019-01-20T19:39:46Z</time>
      </trkpt>
      <trkpt lat="45.20597" lon="4.7887">
        <ele>241.2</ele>
        <time>2019-01-20T19:39:56Z</time>
      </trkpt>
      <trkpt lat="45.20605" lon="4.78858">
        <ele>244.4</ele>
        <time>2019-01-20T19:40:05Z</time>
      </trkpt>
      <trkpt lat="45.2061" lon="4.78851">
        <ele>246.6</ele>
        <time>2019-01-20T19:40:11Z</time>
      </trkpt>
      <trkpt lat="45.2061" lon="4.78834">
        <ele>244.7</ele>
        <time>2019-01-20T19:40:20Z</time>
      </trkpt>
      <trkpt lat="45.20616" lon="4.78827">
        <ele>248.3</ele>
        <time>2019-01-20T19:40:26Z</time>
      </trkpt>
      <trkpt lat="45.20627" lon="4.78806">
        <ele>251.8</ele>
        <time>2019-01-20T19:40:41Z</time>
      </trkpt>
      <trkpt lat="45.20643" lon="4.78793">
        <ele>261.3</ele>
        <time>2019-01-20T19:40:56Z</time>
      </trkpt>
      <trkpt lat="45.20647" lon="4.78775">
        <ele>262.3</ele>
        <time>2019-01-20T19:41:07Z</time>
      </trkpt>
      <trkpt lat="45.20652" lon="4.78755">
        <ele>262.5</ele>
        <time>2019-01-20T19:41:19Z</time>
      </trkpt>
      <trkpt lat="45.2065" lon="4.78734">
        <ele>258.4</ele>
        <time>2019-01-20T19:41:30Z</time>
      </trkpt>
      <trkpt lat="45.20653" lon="4.78713">
        <ele>257.8</ele>
        <time>2019-01-20T19:41:42Z</time>
      </trkpt>
      <trkpt lat="45.20658" lon="4.78689">
        <ele>258.5</ele>
        <time>2019-01-20T19:41:56Z</time>
      </trkpt>
      <trkpt lat="45.20665" lon="4.78673">
        <ele>261.9</ele>
        <time>2019-01-20T19:42:07Z</time>
      </trkpt>
      <trkpt lat="45.20669" lon="4.78664">
        <ele>260.7</ele>
        <time>2019-01-20T19:42:13Z</time>
      </trkpt>
      <trkpt lat="45.20673" lon="4.78654">
        <ele>257.5</ele>
        <time>2019-01-20T19:42:20Z</time>
      </trkpt>
      <trkpt lat="45.20674" lon="4.78649">
        <ele>255.6</ele>
        <time>2019-01-20T19:42:23Z</time>
      </trkpt>
      <trkpt lat="45.20665" lon="4.78625">
        <ele>246.1</ele>
        <time>2019-01-20T19:42:38Z</time>
      </trkpt>
      <trkpt lat="45.20666" lon="4.78614">
        <ele>242.4</ele>
        <time>2019-01-20T19:42:44Z</time>
      </trkpt>
      <trkpt lat="45.20667" lon="4.78604">
        <ele>239</ele>
        <time>2019-01-20T19:42:50Z</time>
      </trkpt>
      <trkpt lat="45.20662" lon="4.78575">
        <ele>225.8</ele>
        <time>2019-01-20T19:43:06Z</time>
      </trkpt>
      <trkpt lat="45.20656" lon="4.78564">
        <ele>219.4</ele>
        <time>2019-01-20T19:43:14Z</time>
      </trkpt>
      <trkpt lat="45.20642" lon="4.78543">
        <ele>207.5</ele>
        <time>2019-01-20T19:43:31Z</time>
      </trkpt>
      <trkpt lat="45.20635" lon="4.78532">
        <ele>202.1</ele>
        <time>2019-01-20T19:43:39Z</time>
      </trkpt>
      <trkpt lat="45.20625" lon="4.78521">
        <ele>197.6</ele>
        <time>2019-01-20T19:43:49Z</time>
      </trkpt>
      <trkpt lat="45.20616" lon="4.78512">
        <ele>194.4</ele>
        <time>2019-01-20T19:43:58Z</time>
      </trkpt>
      <trkpt lat="45.20609" lon="4.78507">
        <ele>192.7</ele>
        <time>2019-01-20T19:44:04Z</time>
      </trkpt>
      <trkpt lat="45.206" lon="4.78506">
        <ele>192.1</ele>
        <time>2019-01-20T19:44:12Z</time>
      </trkpt>
      <trkpt lat="45.20575" lon="4.78505">
        <ele>189.7</ele>
        <time>2019-01-20T19:44:31Z</time>
      </trkpt>
      <trkpt lat="45.20557" lon="4.78503">
        <ele>185.5</ele>
        <time>2019-01-20T19:44:46Z</time>
      </trkpt>
      <trkpt lat="45.20542" lon="4.78501">
        <ele>182</ele>
        <time>2019-01-20T19:44:58Z</time>
      </trkpt>
      <trkpt lat="45.20529" lon="4.78505">
        <ele>178.9</ele>
        <time>2019-01-20T19:45:09Z</time>
      </trkpt>
      <trkpt lat="45.20518" lon="4.78508">
        <ele>176.3</ele>
        <time>2019-01-20T19:45:17Z</time>
      </trkpt>
      <trkpt lat="45.20506" lon="4.78494">
        <ele>173.2</ele>
        <time>2019-01-20T19:45:30Z</time>
      </trkpt>
      <trkpt lat="45.2051" lon="4.78478">
        <ele>170.7</ele>
        <time>2019-01-20T19:45:39Z</time>
      </trkpt>
      <trkpt lat="45.20521" lon="4.78464">
        <ele>169.5</ele>
        <time>2019-01-20T19:45:51Z</time>
      </trkpt>
      <trkpt lat="45.20549" lon="4.78442">
        <ele>167.7</ele>
        <time>2019-01-20T19:46:17Z</time>
      </trkpt>
      <trkpt lat="45.20573" lon="4.78433">
        <ele>167.3</ele>
        <time>2019-01-20T19:46:37Z</time>
      </trkpt>
      <trkpt lat="45.20615" lon="4.78422">
        <ele>160.8</ele>
        <time>2019-01-20T19:47:11Z</time>
      </trkpt>
      <trkpt lat="45.20647" lon="4.78417">
        <ele>155.3</ele>
        <time>2019-01-20T19:47:37Z</time>
      </trkpt>
      <trkpt lat="45.20681" lon="4.78424">
        <ele>155.2</ele>
        <time>2019-01-20T19:48:04Z</time>
      </trkpt>
      <trkpt lat="45.20726" lon="4.78441">
        <ele>159.6</ele>
        <time>2019-01-20T19:48:42Z</time>
      </trkpt>
      <trkpt lat="45.2077" lon="4.78459">
        <ele>163.7</ele>
        <time>2019-01-20T19:49:18Z</time>
      </trkpt>
      <trkpt lat="45.20852" lon="4.78496">
        <ele>175.3</ele>
        <time>2019-01-20T19:50:27Z</time>
      </trkpt>
      <trkpt lat="45.20919" lon="4.78504">
        <ele>178.8</ele>
        <time>2019-01-20T19:51:21Z</time>
      </trkpt>
      <trkpt lat="45.20981" lon="4.78483">
        <ele>189.8</ele>
        <time>2019-01-20T19:52:12Z</time>
      </trkpt>
      <trkpt lat="45.21016" lon="4.7845">
        <ele>205.1</ele>
        <time>2019-01-20T19:52:46Z</time>
      </trkpt>
      <trkpt lat="45.21019" lon="4.78443">
        <ele>207.5</ele>
        <time>2019-01-20T19:52:50Z</time>
      </trkpt>
      <trkpt lat="45.2101" lon="4.78415">
        <ele>205.1</ele>
        <time>2019-01-20T19:53:07Z</time>
      </trkpt>
      <trkpt lat="45.20998" lon="4.78404">
        <ele>197.8</ele>
        <time>2019-01-20T19:53:19Z</time>
      </trkpt>
      <trkpt lat="45.20983" lon="4.78406">
        <ele>191.8</ele>
        <time>2019-01-20T19:53:31Z</time>
      </trkpt>
      <trkpt lat="45.20972" lon="4.78406">
        <ele>186.9</ele>
        <time>2019-01-20T19:53:40Z</time>
      </trkpt>
      <trkpt lat="45.20958" lon="4.78382">
        <ele>179.1</ele>
        <time>2019-01-20T19:53:57Z</time>
      </trkpt>
      <trkpt lat="45.20951" lon="4.78378">
        <ele>176</ele>
        <time>2019-01-20T19:54:03Z</time>
      </trkpt>
      <trkpt lat="45.2093" lon="4.78367">
        <ele>166.3</ele>
        <time>2019-01-20T19:54:21Z</time>
      </trkpt>
      <trkpt lat="45.2092" lon="4.78357">
        <ele>161.1</ele>
        <time>2019-01-20T19:54:31Z</time>
      </trkpt>
      <trkpt lat="45.20913" lon="4.78338">
        <ele>158.1</ele>
        <time>2019-01-20T19:54:43Z</time>
      </trkpt>
      <trkpt lat="45.2092" lon="4.78324">
        <ele>159.1</ele>
        <time>2019-01-20T19:54:53Z</time>
      </trkpt>
      <trkpt lat="45.20929" lon="4.78319">
        <ele>162.4</ele>
        <time>2019-01-20T19:55:00Z</time>
      </trkpt>
      <trkpt lat="45.20943" lon="4.78314">
        <ele>167.3</ele>
        <time>2019-01-20T19:55:12Z</time>
      </trkpt>
      <trkpt lat="45.20958" lon="4.78299">
        <ele>171.5</ele>
        <time>2019-01-20T19:55:26Z</time>
      </trkpt>
      <trkpt lat="45.20968" lon="4.78279">
        <ele>173.3</ele>
        <time>2019-01-20T19:55:40Z</time>
      </trkpt>
      <trkpt lat="45.20978" lon="4.78265">
        <ele>174.6</ele>
        <time>2019-01-20T19:55:51Z</time>
      </trkpt>
      <trkpt lat="45.20985" lon="4.7824">
        <ele>175.3</ele>
        <time>2019-01-20T19:56:07Z</time>
      </trkpt>
      <trkpt lat="45.20989" lon="4.78225">
        <ele>176.5</ele>
        <time>2019-01-20T19:56:16Z</time>
      </trkpt>
      <trkpt lat="45.20991" lon="4.78212">
        <ele>177.1</ele>
        <time>2019-01-20T19:56:23Z</time>
      </trkpt>
      <trkpt lat="45.20987" lon="4.78196">
        <ele>176.2</ele>
        <time>2019-01-20T19:56:33Z</time>
      </trkpt>
      <trkpt lat="45.20985" lon="4.78181">
        <ele>175.8</ele>
        <time>2019-01-20T19:56:42Z</time>
      </trkpt>
      <trkpt lat="45.20982" lon="4.78178">
        <ele>175.1</ele>
        <time>2019-01-20T19:56:44Z</time>
      </trkpt>
      <trkpt lat="45.20974" lon="4.78177">
        <ele>173</ele>
        <time>2019-01-20T19:56:51Z</time>
      </trkpt>
      <trkpt lat="45.2097" lon="4.78184">
        <ele>172</ele>
        <time>2019-01-20T19:56:55Z</time>
      </trkpt>
      <trkpt lat="45.20977" lon="4.78208">
        <ele>173.4</ele>
        <time>2019-01-20T19:57:10Z</time>
      </trkpt>
      <trkpt lat="45.20971" lon="4.78233">
        <ele>171.6</ele>
        <time>2019-01-20T19:57:25Z</time>
      </trkpt>
      <trkpt lat="45.20959" lon="4.7825">
        <ele>168.2</ele>
        <time>2019-01-20T19:57:39Z</time>
      </trkpt>
      <trkpt lat="45.20947" lon="4.78259">
        <ele>165.6</ele>
        <time>2019-01-20T19:57:49Z</time>
      </trkpt>
      <trkpt lat="45.20928" lon="4.78258">
        <ele>160.3</ele>
        <time>2019-01-20T19:58:04Z</time>
      </trkpt>
      <trkpt lat="45.20911" lon="4.78257">
        <ele>158.5</ele>
        <time>2019-01-20T19:58:19Z</time>
      </trkpt>
      <trkpt lat="45.20911" lon="4.7825">
        <ele>158.5</ele>
        <time>2019-01-20T19:58:23Z</time>
      </trkpt>
      <trkpt lat="45.20923" lon="4.78242">
        <ele>158.7</ele>
        <time>2019-01-20T19:58:34Z</time>
      </trkpt>
      <trkpt lat="45.20938" lon="4.78232">
        <ele>162.8</ele>
        <time>2019-01-20T19:58:47Z</time>
      </trkpt>
      <trkpt lat="45.20936" lon="4.78219">
        <ele>162.5</ele>
        <time>2019-01-20T19:58:54Z</time>
      </trkpt>
      <trkpt lat="45.20932" lon="4.78195">
        <ele>161.6</ele>
        <time>2019-01-20T19:59:08Z</time>
      </trkpt>
      <trkpt lat="45.20928" lon="4.78173">
        <ele>160.9</ele>
        <time>2019-01-20T19:59:21Z</time>
      </trkpt>
      <trkpt lat="45.20921" lon="4.78157">
        <ele>158.9</ele>
        <time>2019-01-20T19:59:31Z</time>
      </trkpt>
      <trkpt lat="45.20913" lon="4.7814">
        <ele>158.1</ele>
        <time>2019-01-20T19:59:43Z</time>
      </trkpt>
      <trkpt lat="45.20899" lon="4.78119">
        <ele>161.2</ele>
        <time>2019-01-20T19:59:59Z</time>
      </trkpt>
      <trkpt lat="45.20891" lon="4.78104">
        <ele>162.5</ele>
        <time>2019-01-20T20:00:10Z</time>
      </trkpt>
      <trkpt lat="45.20888" lon="4.78087">
        <ele>162</ele>
        <time>2019-01-20T20:00:20Z</time>
      </trkpt>
      <trkpt lat="45.20879" lon="4.78076">
        <ele>163.9</ele>
        <time>2019-01-20T20:00:29Z</time>
      </trkpt>
      <trkpt lat="45.20868" lon="4.78063">
        <ele>166</ele>
        <time>2019-01-20T20:00:40Z</time>
      </trkpt>
      <trkpt lat="45.20862" lon="4.78051">
        <ele>166.5</ele>
        <time>2019-01-20T20:00:49Z</time>
      </trkpt>
      <trkpt lat="45.20855" lon="4.78041">
        <ele>166.9</ele>
        <time>2019-01-20T20:00:56Z</time>
      </trkpt>
      <trkpt lat="45.2085" lon="4.78033">
        <ele>166.9</ele>
        <time>2019-01-20T20:01:03Z</time>
      </trkpt>
      <trkpt lat="45.20843" lon="4.78021">
        <ele>166.2</ele>
        <time>2019-01-20T20:01:11Z</time>
      </trkpt>
      <trkpt lat="45.20838" lon="4.78009">
        <ele>165.1</ele>
        <time>2019-01-20T20:01:19Z</time>
      </trkpt>
      <trkpt lat="45.20832" lon="4.77998">
        <ele>164.6</ele>
        <time>2019-01-20T20:01:27Z</time>
      </trkpt>
      <trkpt lat="45.20826" lon="4.77986">
        <ele>167.5</ele>
        <time>2019-01-20T20:01:36Z</time>
      </trkpt>
      <trkpt lat="45.20822" lon="4.77984">
        <ele>169.9</ele>
        <time>2019-01-20T20:01:39Z</time>
      </trkpt>
      <trkpt lat="45.20817" lon="4.77998">
        <ele>174.1</ele>
        <time>2019-01-20T20:01:48Z</time>
      </trkpt>
      <trkpt lat="45.20813" lon="4.78011">
        <ele>178</ele>
        <time>2019-01-20T20:01:56Z</time>
      </trkpt>
      <trkpt lat="45.20811" lon="4.78025">
        <ele>179.9</ele>
        <time>2019-01-20T20:02:04Z</time>
      </trkpt>
      <trkpt lat="45.20807" lon="4.7803">
        <ele>182.6</ele>
        <time>2019-01-20T20:02:08Z</time>
      </trkpt>
      <trkpt lat="45.20804" lon="4.78025">
        <ele>184.4</ele>
        <time>2019-01-20T20:02:13Z</time>
      </trkpt>
      <trkpt lat="45.208" lon="4.78021">
        <ele>186.3</ele>
        <time>2019-01-20T20:02:17Z</time>
      </trkpt>
      <trkpt lat="45.20799" lon="4.78015">
        <ele>186.5</ele>
        <time>2019-01-20T20:02:20Z</time>
      </trkpt>
      <trkpt lat="45.20794" lon="4.7801">
        <ele>189.3</ele>
        <time>2019-01-20T20:02:25Z</time>
      </trkpt>
      <trkpt lat="45.20781" lon="4.78007">
        <ele>196.9</ele>
        <time>2019-01-20T20:02:35Z</time>
      </trkpt>
      <trkpt lat="45.20773" lon="4.78">
        <ele>201.6</ele>
        <time>2019-01-20T20:02:43Z</time>
      </trkpt>
      <trkpt lat="45.20765" lon="4.7799">
        <ele>205.4</ele>
        <time>2019-01-20T20:02:52Z</time>
      </trkpt>
      <trkpt lat="45.20768" lon="4.77972">
        <ele>201.1</ele>
        <time>2019-01-20T20:03:02Z</time>
      </trkpt>
      <trkpt lat="45.20772" lon="4.77957">
        <ele>196.6</ele>
        <time>2019-01-20T20:03:11Z</time>
      </trkpt>
      <trkpt lat="45.20768" lon="4.77948">
        <ele>197.1</ele>
        <time>2019-01-20T20:03:17Z</time>
      </trkpt>
      <trkpt lat="45.2076" lon="4.77948">
        <ele>202.1</ele>
        <time>2019-01-20T20:03:23Z</time>
      </trkpt>
      <trkpt lat="45.20753" lon="4.77942">
        <ele>205.2</ele>
        <time>2019-01-20T20:03:30Z</time>
      </trkpt>
      <trkpt lat="45.20751" lon="4.77934">
        <ele>205.3</ele>
        <time>2019-01-20T20:03:35Z</time>
      </trkpt>
      <trkpt lat="45.20742" lon="4.77915">
        <ele>206.8</ele>
        <time>2019-01-20T20:03:48Z</time>
      </trkpt>
      <trkpt lat="45.20734" lon="4.77903">
        <ele>208.5</ele>
        <time>2019-01-20T20:03:57Z</time>
      </trkpt>
      <trkpt lat="45.20727" lon="4.77879">
        <ele>208.7</ele>
        <time>2019-01-20T20:04:11Z</time>
      </trkpt>
      <trkpt lat="45.20723" lon="4.77862">
        <ele>208.4</ele>
        <time>2019-01-20T20:04:22Z</time>
      </trkpt>
      <trkpt lat="45.20714" lon="4.77848">
        <ele>212</ele>
        <time>2019-01-20T20:04:32Z</time>
      </trkpt>
      <trkpt lat="45.20703" lon="4.77831">
        <ele>218</ele>
        <time>2019-01-20T20:04:45Z</time>
      </trkpt>
      <trkpt lat="45.20695" lon="4.77812">
        <ele>221.1</ele>
        <time>2019-01-20T20:04:58Z</time>
      </trkpt>
      <trkpt lat="45.20689" lon="4.77797">
        <ele>223.6</ele>
        <time>2019-01-20T20:05:07Z</time>
      </trkpt>
      <trkpt lat="45.20658" lon="4.77764">
        <ele>240.3</ele>
        <time>2019-01-20T20:05:39Z</time>
      </trkpt>
      <trkpt lat="45.20621" lon="4.77724">
        <ele>254.3</ele>
        <time>2019-01-20T20:06:16Z</time>
      </trkpt>
      <trkpt lat="45.20588" lon="4.77681">
        <ele>271.2</ele>
        <time>2019-01-20T20:06:52Z</time>
      </trkpt>
      <trkpt lat="45.20565" lon="4.7765">
        <ele>274.2</ele>
        <time>2019-01-20T20:07:17Z</time>
      </trkpt>
      <trkpt lat="45.20548" lon="4.77627">
        <ele>274.9</ele>
        <time>2019-01-20T20:07:36Z</time>
      </trkpt>
      <trkpt lat="45.20532" lon="4.77623">
        <ele>276.4</ele>
        <time>2019-01-20T20:07:49Z</time>
      </trkpt>
      <trkpt lat="45.20512" lon="4.77615">
        <ele>278.6</ele>
        <time>2019-01-20T20:08:06Z</time>
      </trkpt>
      <trkpt lat="45.20491" lon="4.776">
        <ele>281.3</ele>
        <time>2019-01-20T20:08:24Z</time>
      </trkpt>
      <trkpt lat="45.20474" lon="4.77592">
        <ele>283.5</ele>
        <time>2019-01-20T20:08:39Z</time>
      </trkpt>
      <trkpt lat="45.2046" lon="4.77573">
        <ele>286.6</ele>
        <time>2019-01-20T20:08:54Z</time>
      </trkpt>
      <trkpt lat="45.2044" lon="4.77552">
        <ele>290.8</ele>
        <time>2019-01-20T20:09:14Z</time>
      </trkpt>
      <trkpt lat="45.20415" lon="4.7753">
        <ele>296.4</ele>
        <time>2019-01-20T20:09:38Z</time>
      </trkpt>
      <trkpt lat="45.20379" lon="4.77483">
        <ele>307.4</ele>
        <time>2019-01-20T20:10:17Z</time>
      </trkpt>
      <trkpt lat="45.20358" lon="4.77466">
        <ele>313.4</ele>
        <time>2019-01-20T20:10:37Z</time>
      </trkpt>
      <trkpt lat="45.20332" lon="4.77462">
        <ele>318.1</ele>
        <time>2019-01-20T20:10:57Z</time>
      </trkpt>
      <trkpt lat="45.20305" lon="4.77466">
        <ele>320</ele>
        <time>2019-01-20T20:11:19Z</time>
      </trkpt>
      <trkpt lat="45.20251" lon="4.77439">
        <ele>328</ele>
        <time>2019-01-20T14:19:14Z</time>
      </trkpt>
      <trkpt lat="45.20227" lon="4.77409">
        <ele>332.1</ele>
        <time>2019-01-16T06:28:58Z</time>
      </trkpt>
      <trkpt lat="45.20207" lon="4.77365">
        <ele>335.2</ele>
        <time>2018-10-28T12:10:47Z</time>
      </trkpt>
      <trkpt lat="45.20183" lon="4.77339">
        <ele>337.3</ele>
        <time>2014-07-27T18:04:13Z</time>
      </trkpt>
      <trkpt lat="45.20084" lon="4.77287">
        <ele>342.1</ele>
        <time>2014-09-01T18:26:31Z</time>
      </trkpt>
      <trkpt lat="45.19942" lon="4.77234">
        <ele>351.9</ele>
        <time>2014-10-21T16:36:46Z</time>
      </trkpt>
      <trkpt lat="45.199" lon="4.77182">
        <ele>357.6</ele>
        <time>2014-11-09T19:55:34Z</time>
      </trkpt>
      <trkpt lat="45.19851" lon="4.77085">
        <ele>359.2</ele>
        <time>2014-12-08T11:36:37Z</time>
      </trkpt>
      <trkpt lat="45.19829" lon="4.77058">
        <ele>358.5</ele>
        <time>2014-12-18T04:18:26Z</time>
      </trkpt>
      <trkpt lat="45.19764" lon="4.77019">
        <ele>356.2</ele>
        <time>2015-01-11T03:00:02Z</time>
      </trkpt>
      <trkpt lat="45.19763" lon="4.77121">
        <ele>354.4</ele>
        <time>2015-02-04T14:27:27Z</time>
      </trkpt>
      <trkpt lat="45.1977" lon="4.77239">
        <ele>347.9</ele>
        <time>2015-03-04T21:56:01Z</time>
      </trkpt>
      <trkpt lat="45.19726" lon="4.77354">
        <ele>335.1</ele>
        <time>2015-04-05T17:18:13Z</time>
      </trkpt>
      <trkpt lat="45.19718" lon="4.77405">
        <ele>335.1</ele>
        <time>2015-04-18T07:20:39Z</time>
      </trkpt>
      <trkpt lat="45.19676" lon="4.77465">
        <ele>340.7</ele>
        <time>2015-05-08T15:28:54Z</time>
      </trkpt>
      <trkpt lat="45.19647" lon="4.77524">
        <ele>340.6</ele>
        <time>2015-05-25T19:19:13Z</time>
      </trkpt>
      <trkpt lat="45.19615" lon="4.77602">
        <ele>337.8</ele>
        <time>2015-06-16T12:04:27Z</time>
      </trkpt>
      <trkpt lat="45.19591" lon="4.77683">
        <ele>333.9</ele>
        <time>2015-07-07T12:12:54Z</time>
      </trkpt>
      <trkpt lat="45.19576" lon="4.77776">
        <ele>331.1</ele>
        <time>2015-07-30T08:55:18Z</time>
      </trkpt>
      <trkpt lat="45.19562" lon="4.77859">
        <ele>329.6</ele>
        <time>2015-08-19T20:47:37Z</time>
      </trkpt>
      <trkpt lat="45.19558" lon="4.7792">
        <ele>327.2</ele>
        <time>2015-09-03T13:42:49Z</time>
      </trkpt>
      <trkpt lat="45.19548" lon="4.77943">
        <ele>323.8</ele>
        <time>2015-09-10T08:58:51Z</time>
      </trkpt>
      <trkpt lat="45.19519" lon="4.77946">
        <ele>321.5</ele>
        <time>2015-09-20T07:00:44Z</time>
      </trkpt>
      <trkpt lat="45.19483" lon="4.77969">
        <ele>313.6</ele>
        <time>2015-10-03T17:48:33Z</time>
      </trkpt>
      <trkpt lat="45.19485" lon="4.77997">
        <ele>310.6</ele>
        <time>2015-10-10T12:38:33Z</time>
      </trkpt>
      <trkpt lat="45.19465" lon="4.78008">
        <ele>304.8</ele>
        <time>2015-10-18T00:39:33Z</time>
      </trkpt>
      <trkpt lat="45.19463" lon="4.78048">
        <ele>296.8</ele>
        <time>2015-10-27T21:41:49Z</time>
      </trkpt>
      <trkpt lat="45.1948" lon="4.78073">
        <ele>295.6</ele>
        <time>2015-11-05T06:12:04Z</time>
      </trkpt>
      <trkpt lat="45.19498" lon="4.78105">
        <ele>295.4</ele>
        <time>2015-11-14T23:58:01Z</time>
      </trkpt>
      <trkpt lat="45.19507" lon="4.78128">
        <ele>294.8</ele>
        <time>2015-11-21T06:32:59Z</time>
      </trkpt>
      <trkpt lat="45.19515" lon="4.78145">
        <ele>294.1</ele>
        <time>2015-11-26T03:38:26Z</time>
      </trkpt>
      <trkpt lat="45.19503" lon="4.78164">
        <ele>290.7</ele>
        <time>2015-12-02T08:01:40Z</time>
      </trkpt>
      <trkpt lat="45.19486" lon="4.78181">
        <ele>283.7</ele>
        <time>2015-12-09T16:53:16Z</time>
      </trkpt>
      <trkpt lat="45.19476" lon="4.78211">
        <ele>276.2</ele>
        <time>2015-12-18T03:19:31Z</time>
      </trkpt>
      <trkpt lat="45.19491" lon="4.78239">
        <ele>275.3</ele>
        <time>2015-12-26T18:01:16Z</time>
      </trkpt>
      <trkpt lat="45.19505" lon="4.78265">
        <ele>272.4</ele>
        <time>2016-01-03T07:29:53Z</time>
      </trkpt>
      <trkpt lat="45.19506" lon="4.78283">
        <ele>268.9</ele>
        <time>2016-01-07T22:45:48Z</time>
      </trkpt>
      <trkpt lat="45.19493" lon="4.78298">
        <ele>264.5</ele>
        <time>2016-01-13T18:41:29Z</time>
      </trkpt>
      <trkpt lat="45.19499" lon="4.78324">
        <ele>259.7</ele>
        <time>2016-01-20T13:44:50Z</time>
      </trkpt>
      <trkpt lat="45.19517" lon="4.78357">
        <ele>259.2</ele>
        <time>2016-01-30T13:29:36Z</time>
      </trkpt>
      <trkpt lat="45.1951" lon="4.78384">
        <ele>256.7</ele>
        <time>2016-02-06T08:06:02Z</time>
      </trkpt>
      <trkpt lat="45.19484" lon="4.78412">
        <ele>250.5</ele>
        <time>2016-02-17T15:32:53Z</time>
      </trkpt>
      <trkpt lat="45.19448" lon="4.78433">
        <ele>245</ele>
        <time>2016-03-02T03:28:56Z</time>
      </trkpt>
      <trkpt lat="45.19409" lon="4.78473">
        <ele>236.2</ele>
        <time>2016-03-18T11:00:32Z</time>
      </trkpt>
      <trkpt lat="45.19418" lon="4.78519">
        <ele>232.5</ele>
        <time>2016-03-29T23:35:37Z</time>
      </trkpt>
      <trkpt lat="45.19413" lon="4.78543">
        <ele>229.8</ele>
        <time>2016-04-04T23:44:13Z</time>
      </trkpt>
      <trkpt lat="45.19405" lon="4.78586">
        <ele>224.6</ele>
        <time>2016-04-15T22:45:15Z</time>
      </trkpt>
      <trkpt lat="45.19392" lon="4.7861">
        <ele>221.5</ele>
        <time>2016-04-23T05:39:58Z</time>
      </trkpt>
      <trkpt lat="45.19378" lon="4.78653">
        <ele>217.2</ele>
        <time>2016-05-04T13:02:43Z</time>
      </trkpt>
      <trkpt lat="45.19377" lon="4.7869">
        <ele>213.5</ele>
        <time>2016-05-13T12:27:56Z</time>
      </trkpt>
      <trkpt lat="45.19387" lon="4.78719">
        <ele>211.1</ele>
        <time>2016-05-21T08:23:20Z</time>
      </trkpt>
      <trkpt lat="45.19381" lon="4.78739">
        <ele>208.3</ele>
        <time>2016-05-26T12:54:47Z</time>
      </trkpt>
      <trkpt lat="45.19373" lon="4.7875">
        <ele>205.7</ele>
        <time>2016-05-30T15:44:40Z</time>
      </trkpt>
      <trkpt lat="45.19371" lon="4.78769">
        <ele>203.6</ele>
        <time>2016-06-04T04:23:27Z</time>
      </trkpt>
      <trkpt lat="45.19366" lon="4.78774">
        <ele>202.1</ele>
        <time>2016-06-06T12:27:40Z</time>
      </trkpt>
      <trkpt lat="45.19352" lon="4.78774">
        <ele>199.3</ele>
        <time>2016-06-11T08:47:04Z</time>
      </trkpt>
      <trkpt lat="45.19338" lon="4.78782">
        <ele>195.3</ele>
        <time>2016-06-16T15:30:40Z</time>
      </trkpt>
      <trkpt lat="45.19329" lon="4.7879">
        <ele>192.1</ele>
        <time>2016-06-20T05:06:19Z</time>
      </trkpt>
      <trkpt lat="45.19355" lon="4.78814">
        <ele>194.9</ele>
        <time>2016-06-30T19:10:33Z</time>
      </trkpt>
      <trkpt lat="45.19379" lon="4.78829">
        <ele>200.3</ele>
        <time>2016-07-09T20:47:55Z</time>
      </trkpt>
      <trkpt lat="45.19396" lon="4.78841">
        <ele>204.9</ele>
        <time>2016-07-16T13:29:26Z</time>
      </trkpt>
      <trkpt lat="45.19417" lon="4.78791">
        <ele>212.3</ele>
        <time>2016-07-30T17:01:07Z</time>
      </trkpt>
      <trkpt lat="45.19425" lon="4.78741">
        <ele>215.7</ele>
        <time>2016-08-12T00:34:23Z</time>
      </trkpt>
      <trkpt lat="45.19423" lon="4.78688">
        <ele>218.6</ele>
        <time>2016-08-24T21:39:33Z</time>
      </trkpt>
      <trkpt lat="45.19424" lon="4.7864">
        <ele>223.2</ele>
        <time>2016-09-05T11:41:09Z</time>
      </trkpt>
      <trkpt lat="45.19439" lon="4.78589">
        <ele>233.9</ele>
        <time>2016-09-19T03:22:33Z</time>
      </trkpt>
      <trkpt lat="45.19451" lon="4.78544">
        <ele>241.1</ele>
        <time>2016-09-30T20:28:50Z</time>
      </trkpt>
      <trkpt lat="45.19464" lon="4.78506">
        <ele>246.2</ele>
        <time>2016-10-10T23:54:39Z</time>
      </trkpt>
      <trkpt lat="45.19482" lon="4.78476">
        <ele>250.8</ele>
        <time>2016-10-20T15:30:10Z</time>
      </trkpt>
      <trkpt lat="45.19499" lon="4.78459">
        <ele>253.8</ele>
        <time>2016-10-27T19:08:35Z</time>
      </trkpt>
      <trkpt lat="45.19517" lon="4.78431">
        <ele>258.1</ele>
        <time>2016-11-05T22:58:33Z</time>
      </trkpt>
      <trkpt lat="45.19555" lon="4.78417">
        <ele>269.3</ele>
        <time>2016-11-19T23:01:02Z</time>
      </trkpt>
      <trkpt lat="45.19552" lon="4.78442">
        <ele>270.2</ele>
        <time>2016-11-26T01:39:39Z</time>
      </trkpt>
      <trkpt lat="45.19548" lon="4.78458">
        <ele>270.1</ele>
        <time>2016-11-30T04:11:53Z</time>
      </trkpt>
      <trkpt lat="45.19569" lon="4.78431">
        <ele>274.9</ele>
        <time>2016-12-09T22:25:24Z</time>
      </trkpt>
      <trkpt lat="45.1957" lon="4.78437">
        <ele>275.5</ele>
        <time>2016-12-11T10:04:02Z</time>
      </trkpt>
      <trkpt lat="45.19562" lon="4.7847">
        <ele>275.5</ele>
        <time>2016-12-19T16:02:19Z</time>
      </trkpt>
      <trkpt lat="45.19547" lon="4.78502">
        <ele>273.1</ele>
        <time>2016-12-28T21:20:06Z</time>
      </trkpt>
      <trkpt lat="45.19557" lon="4.785">
        <ele>276.6</ele>
        <time>2017-01-01T11:53:52Z</time>
      </trkpt>
      <trkpt lat="45.19571" lon="4.78486">
        <ele>280.2</ele>
        <time>2017-01-07T04:01:24Z</time>
      </trkpt>
      <trkpt lat="45.19598" lon="4.78442">
        <ele>283.3</ele>
        <time>2017-01-21T08:20:53Z</time>
      </trkpt>
      <trkpt lat="45.19595" lon="4.78468">
        <ele>285.1</ele>
        <time>2017-01-27T14:45:30Z</time>
      </trkpt>
      <trkpt lat="45.19587" lon="4.78499">
        <ele>286.6</ele>
        <time>2017-02-04T16:25:04Z</time>
      </trkpt>
      <trkpt lat="45.1958" lon="4.78521">
        <ele>283.2</ele>
        <time>2017-02-10T11:48:28Z</time>
      </trkpt>
      <trkpt lat="45.19574" lon="4.78534">
        <ele>280.1</ele>
        <time>2017-02-14T13:33:21Z</time>
      </trkpt>
      <trkpt lat="45.19571" lon="4.78565">
        <ele>277.3</ele>
        <time>2017-02-21T22:54:26Z</time>
      </trkpt>
      <trkpt lat="45.19575" lon="4.7858">
        <ele>277.3</ele>
        <time>2017-02-25T23:18:49Z</time>
      </trkpt>
      <trkpt lat="45.19584" lon="4.7856">
        <ele>281</ele>
        <time>2017-03-03T16:19:44Z</time>
      </trkpt>
      <trkpt lat="45.19602" lon="4.78535">
        <ele>286.7</ele>
        <time>2017-03-12T10:47:29Z</time>
      </trkpt>
      <trkpt lat="45.19607" lon="4.78537">
        <ele>287.6</ele>
        <time>2017-03-14T07:23:48Z</time>
      </trkpt>
      <trkpt lat="45.19607" lon="4.78552">
        <ele>286.7</ele>
        <time>2017-03-17T21:32:09Z</time>
      </trkpt>
      <trkpt lat="45.19611" lon="4.78561">
        <ele>286.8</ele>
        <time>2017-03-20T07:16:15Z</time>
      </trkpt>
      <trkpt lat="45.19619" lon="4.78536">
        <ele>290.1</ele>
        <time>2017-03-26T21:46:53Z</time>
      </trkpt>
      <trkpt lat="45.19631" lon="4.78504">
        <ele>294.3</ele>
        <time>2017-04-04T16:54:40Z</time>
      </trkpt>
      <trkpt lat="45.19646" lon="4.78476">
        <ele>295.3</ele>
        <time>2017-04-13T03:09:06Z</time>
      </trkpt>
      <trkpt lat="45.1967" lon="4.78459">
        <ele>298.3</ele>
        <time>2017-04-22T05:45:01Z</time>
      </trkpt>
      <trkpt lat="45.19691" lon="4.78434">
        <ele>298.3</ele>
        <time>2017-05-01T18:42:59Z</time>
      </trkpt>
      <trkpt lat="45.1971" lon="4.78405">
        <ele>297.4</ele>
        <time>2017-05-11T05:01:40Z</time>
      </trkpt>
      <trkpt lat="45.1972" lon="4.78386">
        <ele>296.9</ele>
        <time>2017-05-16T23:33:51Z</time>
      </trkpt>
      <trkpt lat="45.19758" lon="4.78326">
        <ele>299.5</ele>
        <time>2017-06-05T08:55:20Z</time>
      </trkpt>
      <trkpt lat="45.19735" lon="4.78326">
        <ele>295.5</ele>
        <time>2017-06-13T08:43:24Z</time>
      </trkpt>
      <trkpt lat="45.19679" lon="4.78351">
        <ele>287.4</ele>
        <time>2017-07-03T15:01:28Z</time>
      </trkpt>
      <trkpt lat="45.19671" lon="4.78319">
        <ele>283.7</ele>
        <time>2017-07-11T16:07:01Z</time>
      </trkpt>
      <trkpt lat="45.19661" lon="4.78311">
        <ele>281.9</ele>
        <time>2017-07-15T15:53:57Z</time>
      </trkpt>
      <trkpt lat="45.19628" lon="4.78311">
        <ele>277.2</ele>
        <time>2017-07-27T02:11:42Z</time>
      </trkpt>
      <trkpt lat="45.19577" lon="4.78301">
        <ele>271.7</ele>
        <time>2017-08-13T16:16:57Z</time>
      </trkpt>
      <trkpt lat="45.19559" lon="4.78268">
        <ele>275.3</ele>
        <time>2017-08-23T14:38:00Z</time>
      </trkpt>
      <trkpt lat="45.19555" lon="4.78234">
        <ele>281.5</ele>
        <time>2017-09-01T04:18:37Z</time>
      </trkpt>
      <trkpt lat="45.19559" lon="4.78166">
        <ele>297.3</ele>
        <time>2017-09-18T07:29:58Z</time>
      </trkpt>
      <trkpt lat="45.19579" lon="4.78113">
        <ele>306.6</ele>
        <time>2017-10-02T19:32:38Z</time>
      </trkpt>
      <trkpt lat="45.19613" lon="4.7808">
        <ele>311.8</ele>
        <time>2017-10-16T23:02:11Z</time>
      </trkpt>
      <trkpt lat="45.19611" lon="4.78059">
        <ele>314.2</ele>
        <time>2017-10-22T02:36:22Z</time>
      </trkpt>
      <trkpt lat="45.19592" lon="4.78038">
        <ele>316.1</ele>
        <time>2017-10-30T11:04:02Z</time>
      </trkpt>
      <trkpt lat="45.19577" lon="4.78015">
        <ele>317.9</ele>
        <time>2017-11-07T01:26:27Z</time>
      </trkpt>
      <trkpt lat="45.19595" lon="4.77999">
        <ele>320.5</ele>
        <time>2017-11-14T04:19:40Z</time>
      </trkpt>
      <trkpt lat="45.19573" lon="4.77958">
        <ele>323.8</ele>
        <time>2017-11-26T09:13:40Z</time>
      </trkpt>
      <trkpt lat="45.19563" lon="4.77889">
        <ele>328.7</ele>
        <time>2017-12-13T11:54:01Z</time>
      </trkpt>
      <trkpt lat="45.19575" lon="4.77794">
        <ele>331</ele>
        <time>2018-01-05T12:55:59Z</time>
      </trkpt>
      <trkpt lat="45.19579" lon="4.77751">
        <ele>331.1</ele>
        <time>2018-01-16T00:36:00Z</time>
      </trkpt>
      <trkpt lat="45.19597" lon="4.77664">
        <ele>334.7</ele>
        <time>2018-02-06T18:14:37Z</time>
      </trkpt>
      <trkpt lat="45.19634" lon="4.77549">
        <ele>339.6</ele>
        <time>2018-03-09T05:31:54Z</time>
      </trkpt>
      <trkpt lat="45.19677" lon="4.77461">
        <ele>340.5</ele>
        <time>2018-04-03T20:08:16Z</time>
      </trkpt>
      <trkpt lat="45.19714" lon="4.77406">
        <ele>335.6</ele>
        <time>2018-04-22T03:45:37Z</time>
      </trkpt>
      <trkpt lat="45.19733" lon="4.77333">
        <ele>334.8</ele>
        <time>2018-05-10T16:40:14Z</time>
      </trkpt>
      <trkpt lat="45.1977" lon="4.77241">
        <ele>347.7</ele>
        <time>2018-06-05T09:17:08Z</time>
      </trkpt>
      <trkpt lat="45.19764" lon="4.77115">
        <ele>354.7</ele>
        <time>2018-07-05T18:21:50Z</time>
      </trkpt>
      <trkpt lat="45.19773" lon="4.77013">
        <ele>356.5</ele>
        <time>2018-07-30T12:49:25Z</time>
      </trkpt>
      <trkpt lat="45.19781" lon="4.76926">
        <ele>358.8</ele>
        <time>2018-08-20T12:20:38Z</time>
      </trkpt>
      <trkpt lat="45.19811" lon="4.76821">
        <ele>362.1</ele>
        <time>2018-09-16T16:19:23Z</time>
      </trkpt>
      <trkpt lat="45.19822" lon="4.76766">
        <ele>363.5</ele>
        <time>2018-09-30T09:09:39Z</time>
      </trkpt>
      <trkpt lat="45.19813" lon="4.76677">
        <ele>365.8</ele>
        <time>2018-10-22T02:00:29Z</time>
      </trkpt>
      <trkpt lat="45.19793" lon="4.76575">
        <ele>370.5</ele>
        <time>2018-11-16T12:04:48Z</time>
      </trkpt>
      <trkpt lat="45.19833" lon="4.76546">
        <ele>371.7</ele>
        <time>2018-12-01T19:32:47Z</time>
      </trkpt>
      <trkpt lat="45.19874" lon="4.76548">
        <ele>369.9</ele>
        <time>2018-12-15T12:26:30Z</time>
      </trkpt>
      <trkpt lat="45.19885" lon="4.7652">
        <ele>371.3</ele>
        <time>2018-12-23T10:16:11Z</time>
      </trkpt>
      <trkpt lat="45.19908" lon="4.76512">
        <ele>370.7</ele>
        <time>2018-12-31T11:54:54Z</time>
      </trkpt>
      <trkpt lat="45.19968" lon="4.76512">
        <ele>369.1</ele>
        <time>2019-01-20T20:33:44Z</time>
      </trkpt>
      <trkpt lat="45.19988" lon="4.76479">
        <ele>370.6</ele>
        <time>2019-01-20T20:34:09Z</time>
      </trkpt>
      <trkpt lat="45.19994" lon="4.76299">
        <ele>379.4</ele>
        <time>2019-01-20T20:35:50Z</time>
      </trkpt>
      <trkpt lat="45.19988" lon="4.76252">
        <ele>380</ele>
        <time>2019-01-20T20:36:17Z</time>
      </trkpt>
      <trkpt lat="45.19982" lon="4.76193">
        <ele>378.8</ele>
        <time>2019-01-20T20:36:51Z</time>
      </trkpt>
      <trkpt lat="45.19988" lon="4.76162">
        <ele>378.1</ele>
        <time>2019-01-20T20:37:09Z</time>
      </trkpt>
      <trkpt lat="45.20026" lon="4.76135">
        <ele>376.7</ele>
        <time>2019-01-20T20:37:43Z</time>
      </trkpt>
      <trkpt lat="45.20071" lon="4.76104">
        <ele>374.2</ele>
        <time>2019-01-20T20:38:23Z</time>
      </trkpt>
      <trkpt lat="45.20099" lon="4.76085">
        <ele>371.9</ele>
        <time>2019-01-20T20:38:48Z</time>
      </trkpt>
      <trkpt lat="45.20108" lon="4.76079">
        <ele>371</ele>
        <time>2019-01-20T20:38:56Z</time>
      </trkpt>
      <trkpt lat="45.2011" lon="4.76019">
        <ele>368</ele>
        <time>2019-01-20T20:39:30Z</time>
      </trkpt>
      <trkpt lat="45.20126" lon="4.76012">
        <ele>366</ele>
        <time>2019-01-20T20:39:43Z</time>
      </trkpt>
      <trkpt lat="45.20134" lon="4.75992">
        <ele>364</ele>
        <time>2019-01-20T20:39:56Z</time>
      </trkpt>
      <trkpt lat="45.20111" lon="4.75928">
        <ele>363</ele>
        <time>2019-01-20T20:40:37Z</time>
      </trkpt>
      <trkpt lat="45.20131" lon="4.75916">
        <ele>359.5</ele>
        <time>2019-01-20T20:40:54Z</time>
      </trkpt>
      <trkpt lat="45.20162" lon="4.75898">
        <ele>353.1</ele>
        <time>2019-01-20T20:41:21Z</time>
      </trkpt>
      <trkpt lat="45.20181" lon="4.75863">
        <ele>342.5</ele>
        <time>2019-01-20T20:41:46Z</time>
      </trkpt>
      <trkpt lat="45.20146" lon="4.75835">
        <ele>347.3</ele>
        <time>2019-01-20T20:42:18Z</time>
      </trkpt>
      <trkpt lat="45.20113" lon="4.75819">
        <ele>349.9</ele>
        <time>2019-01-20T20:42:46Z</time>
      </trkpt>
      <trkpt lat="45.20062" lon="4.75792">
        <ele>351</ele>
        <time>2019-01-20T20:43:30Z</time>
      </trkpt>
      <trkpt lat="45.20014" lon="4.75755">
        <ele>349.3</ele>
        <time>2019-01-20T20:44:14Z</time>
      </trkpt>
      <trkpt lat="45.19966" lon="4.75705">
        <ele>349.7</ele>
        <time>2019-01-20T20:45:02Z</time>
      </trkpt>
      <trkpt lat="45.19926" lon="4.75673">
        <ele>352.2</ele>
        <time>2019-01-20T20:45:38Z</time>
      </trkpt>
      <trkpt lat="45.19914" lon="4.75657">
        <ele>353</ele>
        <time>2019-01-20T20:45:51Z</time>
      </trkpt>
      <trkpt lat="45.19908" lon="4.75625">
        <ele>352.7</ele>
        <time>2019-01-20T20:46:10Z</time>
      </trkpt>
      <trkpt lat="45.19896" lon="4.75604">
        <ele>353.2</ele>
        <time>2019-01-20T20:46:25Z</time>
      </trkpt>
      <trkpt lat="45.19883" lon="4.7558">
        <ele>353.5</ele>
        <time>2019-01-20T20:46:42Z</time>
      </trkpt>
      <trkpt lat="45.19796" lon="4.75581">
        <ele>359.2</ele>
        <time>2019-01-20T20:47:52Z</time>
      </trkpt>
      <trkpt lat="45.197" lon="4.75609">
        <ele>365</ele>
        <time>2019-01-20T20:49:10Z</time>
      </trkpt>
      <trkpt lat="45.19711" lon="4.75559">
        <ele>362.8</ele>
        <time>2019-01-20T20:49:40Z</time>
      </trkpt>
      <trkpt lat="45.19722" lon="4.7549">
        <ele>361.2</ele>
        <time>2019-01-20T20:50:19Z</time>
      </trkpt>
      <trkpt lat="45.19721" lon="4.75463">
        <ele>361.6</ele>
        <time>2019-01-20T20:50:35Z</time>
      </trkpt>
      <trkpt lat="45.19708" lon="4.75429">
        <ele>362.4</ele>
        <time>2019-01-20T20:50:57Z</time>
      </trkpt>
      <trkpt lat="45.19696" lon="4.75397">
        <ele>362.9</ele>
        <time>2019-01-20T20:51:17Z</time>
      </trkpt>
      <trkpt lat="45.19694" lon="4.75361">
        <ele>363.3</ele>
        <time>2019-01-20T20:51:37Z</time>
      </trkpt>
      <trkpt lat="45.19696" lon="4.75326">
        <ele>363.3</ele>
        <time>2019-01-20T20:51:57Z</time>
      </trkpt>
      <trkpt lat="45.19687" lon="4.75272">
        <ele>362.2</ele>
        <time>2019-01-20T20:52:28Z</time>
      </trkpt>
      <trkpt lat="45.1965" lon="4.75189">
        <ele>363.1</ele>
        <time>2019-01-20T20:53:24Z</time>
      </trkpt>
      <trkpt lat="45.19626" lon="4.75045">
        <ele>359</ele>
        <time>2019-01-20T20:54:47Z</time>
      </trkpt>
      <trkpt lat="45.19614" lon="4.74988">
        <ele>358.6</ele>
        <time>2019-01-20T20:55:21Z</time>
      </trkpt>
      <trkpt lat="45.19598" lon="4.74947">
        <ele>359.9</ele>
        <time>2019-01-20T20:55:48Z</time>
      </trkpt>
      <trkpt lat="45.19577" lon="4.74888">
        <ele>361.3</ele>
        <time>2019-01-20T20:56:25Z</time>
      </trkpt>
      <trkpt lat="45.19545" lon="4.74828">
        <ele>362.8</ele>
        <time>2019-01-20T20:57:07Z</time>
      </trkpt>
      <trkpt lat="45.195" lon="4.74758">
        <ele>365.3</ele>
        <time>2019-01-20T20:58:00Z</time>
      </trkpt>
      <trkpt lat="45.19475" lon="4.74718">
        <ele>364.2</ele>
        <time>2019-01-20T20:58:30Z</time>
      </trkpt>
      <trkpt lat="45.1945" lon="4.7466">
        <ele>362.9</ele>
        <time>2019-01-20T20:59:09Z</time>
      </trkpt>
      <trkpt lat="45.19415" lon="4.7458">
        <ele>362.9</ele>
        <time>2019-01-20T21:00:02Z</time>
      </trkpt>
      <trkpt lat="45.19393" lon="4.7446">
        <ele>358.1</ele>
        <time>2019-01-20T21:01:12Z</time>
      </trkpt>
      <trkpt lat="45.19365" lon="4.74372">
        <ele>358.3</ele>
        <time>2019-01-20T21:02:07Z</time>
      </trkpt>
      <trkpt lat="45.19306" lon="4.74238">
        <ele>360.6</ele>
        <time>2019-01-20T21:03:36Z</time>
      </trkpt>
      <trkpt lat="45.1929" lon="4.74183">
        <ele>361.1</ele>
        <time>2019-01-20T21:04:09Z</time>
      </trkpt>
      <trkpt lat="45.19325" lon="4.74109">
        <ele>360.5</ele>
        <time>2019-01-20T21:05:00Z</time>
      </trkpt>
      <trkpt lat="45.19397" lon="4.74041">
        <ele>359.9</ele>
        <time>2019-01-20T21:06:09Z</time>
      </trkpt>
      <trkpt lat="45.19408" lon="4.74012">
        <ele>360.2</ele>
        <time>2019-01-20T21:06:27Z</time>
      </trkpt>
      <trkpt lat="45.19395" lon="4.73961">
        <ele>360.2</ele>
        <time>2019-01-20T21:06:57Z</time>
      </trkpt>
      <trkpt lat="45.19398" lon="4.73931">
        <ele>358.7</ele>
        <time>2019-01-20T21:07:15Z</time>
      </trkpt>
      <trkpt lat="45.19358" lon="4.73856">
        <ele>360.3</ele>
        <time>2019-01-20T21:08:08Z</time>
      </trkpt>
      <trkpt lat="45.1933" lon="4.73792">
        <ele>359.8</ele>
        <time>2019-01-20T21:08:50Z</time>
      </trkpt>
      <trkpt lat="45.19325" lon="4.7375">
        <ele>357.8</ele>
        <time>2019-01-20T21:09:14Z</time>
      </trkpt>
      <trkpt lat="45.19305" lon="4.73651">
        <ele>354.2</ele>
        <time>2019-01-20T21:10:12Z</time>
      </trkpt>
      <trkpt lat="45.19304" lon="4.73607">
        <ele>352.8</ele>
        <time>2019-01-20T21:10:37Z</time>
      </trkpt>
      <trkpt lat="45.19324" lon="4.73567">
        <ele>350.7</ele>
        <time>2019-01-20T21:11:05Z</time>
      </trkpt>
      <trkpt lat="45.1933" lon="4.73545">
        <ele>349.7</ele>
        <time>2019-01-20T21:11:18Z</time>
      </trkpt>
      <trkpt lat="45.19325" lon="4.73523">
        <ele>349.1</ele>
        <time>2019-01-20T21:11:31Z</time>
      </trkpt>
      <trkpt lat="45.19338" lon="4.73451">
        <ele>347.6</ele>
        <time>2019-01-20T21:12:13Z</time>
      </trkpt>
      <trkpt lat="45.19343" lon="4.73413">
        <ele>347.2</ele>
        <time>2019-01-20T21:12:35Z</time>
      </trkpt>
      <trkpt lat="45.19333" lon="4.73371">
        <ele>347.5</ele>
        <time>2019-01-20T21:12:59Z</time>
      </trkpt>
      <trkpt lat="45.19282" lon="4.73308">
        <ele>350</ele>
        <time>2019-01-20T21:13:54Z</time>
      </trkpt>
      <trkpt lat="45.19223" lon="4.73244">
        <ele>350.1</ele>
        <time>2019-01-20T21:14:53Z</time>
      </trkpt>
      <trkpt lat="45.19175" lon="4.73233">
        <ele>352</ele>
        <time>2019-01-20T21:15:32Z</time>
      </trkpt>
      <trkpt lat="45.19122" lon="4.73277">
        <ele>359</ele>
        <time>2019-01-20T21:16:21Z</time>
      </trkpt>
      <trkpt lat="45.19065" lon="4.73316">
        <ele>362.3</ele>
        <time>2019-01-20T21:17:12Z</time>
      </trkpt>
      <trkpt lat="45.18914" lon="4.73312">
        <ele>365.8</ele>
        <time>2019-01-20T21:19:13Z</time>
      </trkpt>
      <trkpt lat="45.18904" lon="4.73257">
        <ele>365.7</ele>
        <time>2019-01-20T21:19:45Z</time>
      </trkpt>
      <trkpt lat="45.18887" lon="4.73191">
        <ele>364.5</ele>
        <time>2019-01-20T21:20:25Z</time>
      </trkpt>
      <trkpt lat="45.18849" lon="4.7311">
        <ele>363.4</ele>
        <time>2019-01-20T21:21:20Z</time>
      </trkpt>
      <trkpt lat="45.18797" lon="4.73044">
        <ele>360.4</ele>
        <time>2019-01-20T21:22:16Z</time>
      </trkpt>
      <trkpt lat="45.18772" lon="4.73017">
        <ele>358.8</ele>
        <time>2019-01-20T21:22:41Z</time>
      </trkpt>
      <trkpt lat="45.1877" lon="4.7298">
        <ele>356.2</ele>
        <time>2019-01-20T21:23:02Z</time>
      </trkpt>
      <trkpt lat="45.18786" lon="4.72929">
        <ele>351.9</ele>
        <time>2019-01-20T21:23:33Z</time>
      </trkpt>
      <trkpt lat="45.18859" lon="4.72859">
        <ele>342.1</ele>
        <time>2019-01-20T21:24:44Z</time>
      </trkpt>
      <trkpt lat="45.18919" lon="4.72788">
        <ele>331.6</ele>
        <time>2019-01-20T21:25:46Z</time>
      </trkpt>
      <trkpt lat="45.18969" lon="4.72755">
        <ele>324</ele>
        <time>2019-01-20T21:26:30Z</time>
      </trkpt>
      <trkpt lat="45.19003" lon="4.72713">
        <ele>316.1</ele>
        <time>2019-01-20T21:27:06Z</time>
      </trkpt>
      <trkpt lat="45.19028" lon="4.72663">
        <ele>312.5</ele>
        <time>2019-01-20T21:27:41Z</time>
      </trkpt>
      <trkpt lat="45.19011" lon="4.72637">
        <ele>315.4</ele>
        <time>2019-01-20T21:28:01Z</time>
      </trkpt>
      <trkpt lat="45.19027" lon="4.726">
        <ele>320.4</ele>
        <time>2019-01-20T21:28:25Z</time>
      </trkpt>
      <trkpt lat="45.19042" lon="4.72583">
        <ele>323.2</ele>
        <time>2019-01-20T21:28:40Z</time>
      </trkpt>
      <trkpt lat="45.19077" lon="4.72568">
        <ele>327.3</ele>
        <time>2019-01-20T21:29:10Z</time>
      </trkpt>
      <trkpt lat="45.19103" lon="4.72594">
        <ele>326.8</ele>
        <time>2019-01-20T21:29:35Z</time>
      </trkpt>
      <trkpt lat="45.1913" lon="4.72646">
        <ele>323</ele>
        <time>2019-01-20T21:30:12Z</time>
      </trkpt>
      <trkpt lat="45.19155" lon="4.72678">
        <ele>321.2</ele>
        <time>2019-01-20T21:30:39Z</time>
      </trkpt>
      <trkpt lat="45.19178" lon="4.72704">
        <ele>318.1</ele>
        <time>2019-01-20T21:31:02Z</time>
      </trkpt>
      <trkpt lat="45.19202" lon="4.72708">
        <ele>319</ele>
        <time>2019-01-20T21:31:22Z</time>
      </trkpt>
      <trkpt lat="45.19222" lon="4.72678">
        <ele>327.4</ele>
        <time>2019-01-20T21:31:45Z</time>
      </trkpt>
      <trkpt lat="45.19237" lon="4.72654">
        <ele>333.4</ele>
        <time>2019-01-20T21:32:03Z</time>
      </trkpt>
      <trkpt lat="45.19245" lon="4.72624">
        <ele>339.8</ele>
        <time>2019-01-20T21:32:22Z</time>
      </trkpt>
      <trkpt lat="45.19292" lon="4.72596">
        <ele>350.5</ele>
        <time>2019-01-20T21:33:03Z</time>
      </trkpt>
      <trkpt lat="45.19355" lon="4.72598">
        <ele>356.8</ele>
        <time>2019-01-20T21:33:53Z</time>
      </trkpt>
      <trkpt lat="45.19405" lon="4.72617">
        <ele>358.6</ele>
        <time>2019-01-20T21:34:35Z</time>
      </trkpt>
      <trkpt lat="45.19468" lon="4.72628">
        <ele>356.7</ele>
        <time>2019-01-20T21:35:25Z</time>
      </trkpt>
      <trkpt lat="45.19508" lon="4.7262">
        <ele>355.4</ele>
        <time>2019-01-20T21:35:57Z</time>
      </trkpt>
      <trkpt lat="45.19543" lon="4.7257">
        <ele>350.3</ele>
        <time>2019-01-20T21:36:37Z</time>
      </trkpt>
      <trkpt lat="45.19527" lon="4.72533">
        <ele>352.6</ele>
        <time>2019-01-20T21:37:01Z</time>
      </trkpt>
      <trkpt lat="45.19494" lon="4.72492">
        <ele>358.7</ele>
        <time>2019-01-20T21:37:37Z</time>
      </trkpt>
      <trkpt lat="45.19524" lon="4.7247">
        <ele>350.3</ele>
        <time>2019-01-20T21:38:04Z</time>
      </trkpt>
      <trkpt lat="45.19598" lon="4.72451">
        <ele>330.5</ele>
        <time>2019-01-20T21:39:04Z</time>
      </trkpt>
      <trkpt lat="45.19653" lon="4.72451">
        <ele>310.2</ele>
        <time>2019-01-20T21:39:48Z</time>
      </trkpt>
      <trkpt lat="45.19654" lon="4.7249">
        <ele>309.8</ele>
        <time>2019-01-20T21:40:10Z</time>
      </trkpt>
      <trkpt lat="45.19659" lon="4.72513">
        <ele>308.5</ele>
        <time>2019-01-20T21:40:24Z</time>
      </trkpt>
      <trkpt lat="45.19688" lon="4.72531">
        <ele>304.2</ele>
        <time>2019-01-20T21:40:49Z</time>
      </trkpt>
      <trkpt lat="45.197" lon="4.7256">
        <ele>302.5</ele>
        <time>2019-01-20T21:41:08Z</time>
      </trkpt>
      <trkpt lat="45.19718" lon="4.72575">
        <ele>299.5</ele>
        <time>2019-01-20T21:41:25Z</time>
      </trkpt>
      <trkpt lat="45.19729" lon="4.72602">
        <ele>299.1</ele>
        <time>2019-01-20T21:41:43Z</time>
      </trkpt>
      <trkpt lat="45.19732" lon="4.72587">
        <ele>297.2</ele>
        <time>2019-01-20T21:41:52Z</time>
      </trkpt>
      <trkpt lat="45.19727" lon="4.7256">
        <ele>299.3</ele>
        <time>2019-01-20T21:42:08Z</time>
      </trkpt>
      <trkpt lat="45.19735" lon="4.72529">
        <ele>300.9</ele>
        <time>2019-01-20T21:42:26Z</time>
      </trkpt>
      <trkpt lat="45.19726" lon="4.72513">
        <ele>302.7</ele>
        <time>2019-01-20T21:42:37Z</time>
      </trkpt>
      <trkpt lat="45.19726" lon="4.72491">
        <ele>303.7</ele>
        <time>2019-01-20T21:42:50Z</time>
      </trkpt>
      <trkpt lat="45.19726" lon="4.72466">
        <ele>304.2</ele>
        <time>2019-01-20T21:43:04Z</time>
      </trkpt>
      <trkpt lat="45.1972" lon="4.72405">
        <ele>304.8</ele>
        <time>2019-01-20T21:43:38Z</time>
      </trkpt>
      <trkpt lat="45.19717" lon="4.72381">
        <ele>304.4</ele>
        <time>2019-01-20T21:43:53Z</time>
      </trkpt>
      <trkpt lat="45.19702" lon="4.72349">
        <ele>304.4</ele>
        <time>2019-01-20T21:44:14Z</time>
      </trkpt>
      <trkpt lat="45.19705" lon="4.72328">
        <ele>304.3</ele>
        <time>2019-01-20T21:44:26Z</time>
      </trkpt>
      <trkpt lat="45.19725" lon="4.7231">
        <ele>303.6</ele>
        <time>2019-01-20T21:44:45Z</time>
      </trkpt>
      <trkpt lat="45.19728" lon="4.72288">
        <ele>303.8</ele>
        <time>2019-01-20T21:44:58Z</time>
      </trkpt>
      <trkpt lat="45.19732" lon="4.72269">
        <ele>303.7</ele>
        <time>2019-01-20T21:45:09Z</time>
      </trkpt>
      <trkpt lat="45.19745" lon="4.72248">
        <ele>302.6</ele>
        <time>2019-01-20T21:45:25Z</time>
      </trkpt>
      <trkpt lat="45.19751" lon="4.72228">
        <ele>302.9</ele>
        <time>2019-01-20T21:45:37Z</time>
      </trkpt>
      <trkpt lat="45.19757" lon="4.72207">
        <ele>304.5</ele>
        <time>2019-01-20T21:45:50Z</time>
      </trkpt>
      <trkpt lat="45.1977" lon="4.72173">
        <ele>308.3</ele>
        <time>2019-01-20T21:46:12Z</time>
      </trkpt>
      <trkpt lat="45.1977" lon="4.72145">
        <ele>309.4</ele>
        <time>2019-01-20T21:46:27Z</time>
      </trkpt>
      <trkpt lat="45.19764" lon="4.72113">
        <ele>309</ele>
        <time>2019-01-20T21:46:46Z</time>
      </trkpt>
      <trkpt lat="45.19783" lon="4.72046">
        <ele>315.7</ele>
        <time>2019-01-20T21:47:27Z</time>
      </trkpt>
      <trkpt lat="45.19787" lon="4.71962">
        <ele>317.8</ele>
        <time>2019-01-20T21:48:14Z</time>
      </trkpt>
      <trkpt lat="45.19786" lon="4.71875">
        <ele>319</ele>
        <time>2019-01-20T21:49:03Z</time>
      </trkpt>
      <trkpt lat="45.19781" lon="4.71755">
        <ele>320.1</ele>
        <time>2019-01-20T21:50:11Z</time>
      </trkpt>
      <trkpt lat="45.19796" lon="4.71736">
        <ele>326.1</ele>
        <time>2019-01-20T21:50:28Z</time>
      </trkpt>
      <trkpt lat="45.19816" lon="4.71774">
        <ele>330.1</ele>
        <time>2019-01-20T21:50:55Z</time>
      </trkpt>
      <trkpt lat="45.19815" lon="4.7185">
        <ele>327.5</ele>
        <time>2019-01-20T21:51:38Z</time>
      </trkpt>
      <trkpt lat="45.19834" lon="4.719">
        <ele>331.7</ele>
        <time>2019-01-20T21:52:10Z</time>
      </trkpt>
      <trkpt lat="45.19845" lon="4.71861">
        <ele>335.9</ele>
        <time>2019-01-20T21:52:34Z</time>
      </trkpt>
      <trkpt lat="45.19874" lon="4.7188">
        <ele>344</ele>
        <time>2019-01-20T21:53:00Z</time>
      </trkpt>
      <trkpt lat="45.19885" lon="4.71943">
        <ele>345.3</ele>
        <time>2019-01-20T21:53:37Z</time>
      </trkpt>
      <trkpt lat="45.19892" lon="4.71978">
        <ele>345.4</ele>
        <time>2019-01-20T21:53:57Z</time>
      </trkpt>
      <trkpt lat="45.19882" lon="4.72054">
        <ele>340.1</ele>
        <time>2019-01-20T21:54:41Z</time>
      </trkpt>
      <trkpt lat="45.19885" lon="4.72099">
        <ele>338.5</ele>
        <time>2019-01-20T21:55:06Z</time>
      </trkpt>
      <trkpt lat="45.19891" lon="4.7212">
        <ele>337.1</ele>
        <time>2019-01-20T21:55:19Z</time>
      </trkpt>
      <trkpt lat="45.19878" lon="4.72143">
        <ele>332.6</ele>
        <time>2019-01-20T21:55:35Z</time>
      </trkpt>
      <trkpt lat="45.19889" lon="4.72209">
        <ele>328.6</ele>
        <time>2019-01-20T21:56:14Z</time>
      </trkpt>
      <trkpt lat="45.19882" lon="4.72229">
        <ele>326.2</ele>
        <time>2019-01-20T21:56:26Z</time>
      </trkpt>
      <trkpt lat="45.19889" lon="4.72273">
        <ele>324.6</ele>
        <time>2019-01-20T21:56:52Z</time>
      </trkpt>
      <trkpt lat="45.1992" lon="4.72295">
        <ele>327</ele>
        <time>2019-01-20T21:57:20Z</time>
      </trkpt>
      <trkpt lat="45.19962" lon="4.72298">
        <ele>329.8</ele>
        <time>2019-01-20T21:57:53Z</time>
      </trkpt>
      <trkpt lat="45.19989" lon="4.72315">
        <ele>330</ele>
        <time>2019-01-20T21:58:17Z</time>
      </trkpt>
      <trkpt lat="45.20019" lon="4.7233">
        <ele>330.3</ele>
        <time>2019-01-20T21:58:42Z</time>
      </trkpt>
      <trkpt lat="45.20066" lon="4.72303">
        <ele>335.7</ele>
        <time>2019-01-20T21:59:23Z</time>
      </trkpt>
      <trkpt lat="45.20127" lon="4.7239">
        <ele>324.9</ele>
        <time>2019-01-20T22:00:32Z</time>
      </trkpt>
      <trkpt lat="45.20168" lon="4.72422">
        <ele>320.3</ele>
        <time>2019-01-20T22:01:10Z</time>
      </trkpt>
      <trkpt lat="45.20197" lon="4.7246">
        <ele>312.3</ele>
        <time>2019-01-20T22:01:42Z</time>
      </trkpt>
      <trkpt lat="45.20193" lon="4.72511">
        <ele>307.5</ele>
        <time>2019-01-20T22:02:10Z</time>
      </trkpt>
      <trkpt lat="45.20205" lon="4.72554">
        <ele>303.6</ele>
        <time>2019-01-20T22:02:36Z</time>
      </trkpt>
      <trkpt lat="45.20208" lon="4.72595">
        <ele>299.7</ele>
        <time>2019-01-20T22:03:00Z</time>
      </trkpt>
      <trkpt lat="45.20198" lon="4.72667">
        <ele>291.3</ele>
        <time>2019-01-20T22:03:41Z</time>
      </trkpt>
      <trkpt lat="45.20163" lon="4.72689">
        <ele>300.1</ele>
        <time>2019-01-20T22:04:12Z</time>
      </trkpt>
      <trkpt lat="45.20154" lon="4.72729">
        <ele>295.5</ele>
        <time>2019-01-20T22:04:35Z</time>
      </trkpt>
      <trkpt lat="45.20167" lon="4.72798">
        <ele>284.4</ele>
        <time>2019-01-20T22:05:15Z</time>
      </trkpt>
      <trkpt lat="45.20183" lon="4.72857">
        <ele>264.3</ele>
        <time>2019-01-20T22:05:51Z</time>
      </trkpt>
      <trkpt lat="45.20184" lon="4.72883">
        <ele>259.9</ele>
        <time>2019-01-20T22:06:06Z</time>
      </trkpt>
      <trkpt lat="45.20197" lon="4.72928">
        <ele>248.4</ele>
        <time>2019-01-20T22:06:33Z</time>
      </trkpt>
      <trkpt lat="45.20194" lon="4.72969">
        <ele>246.4</ele>
        <time>2019-01-20T22:06:56Z</time>
      </trkpt>
      <trkpt lat="45.20173" lon="4.73013">
        <ele>251.2</ele>
        <time>2019-01-20T22:07:27Z</time>
      </trkpt>
      <trkpt lat="45.20164" lon="4.73051">
        <ele>251.8</ele>
        <time>2019-01-20T22:07:49Z</time>
      </trkpt>
      <trkpt lat="45.20184" lon="4.73093">
        <ele>244.6</ele>
        <time>2019-01-20T22:08:18Z</time>
      </trkpt>
      <trkpt lat="45.20209" lon="4.73137">
        <ele>236.6</ele>
        <time>2019-01-20T22:08:49Z</time>
      </trkpt>
      <trkpt lat="45.20234" lon="4.73151">
        <ele>229</ele>
        <time>2019-01-20T22:09:11Z</time>
      </trkpt>
      <trkpt lat="45.20229" lon="4.73102">
        <ele>231.6</ele>
        <time>2019-01-20T22:09:39Z</time>
      </trkpt>
      <trkpt lat="45.20228" lon="4.73051">
        <ele>232.1</ele>
        <time>2019-01-20T22:10:07Z</time>
      </trkpt>
      <trkpt lat="45.20243" lon="4.72954">
        <ele>227.5</ele>
        <time>2019-01-20T22:11:04Z</time>
      </trkpt>
      <trkpt lat="45.20267" lon="4.72877">
        <ele>230.1</ele>
        <time>2019-01-20T22:11:51Z</time>
      </trkpt>
      <trkpt lat="45.20285" lon="4.72815">
        <ele>231.1</ele>
        <time>2019-01-20T22:12:29Z</time>
      </trkpt>
      <trkpt lat="45.20285" lon="4.72815">
        <ele>231.1</ele>
        <time>2019-01-20T22:12:29Z</time>
      </trkpt>
      <trkpt lat="45.20303" lon="4.72754">
        <ele>227.6</ele>
        <time>2019-01-20T22:13:06Z</time>
      </trkpt>
      <trkpt lat="45.20326" lon="4.72702">
        <ele>236.9</ele>
        <time>2019-01-20T22:13:41Z</time>
      </trkpt>
      <trkpt lat="45.20357" lon="4.72671">
        <ele>239.4</ele>
        <time>2019-01-20T22:14:11Z</time>
      </trkpt>
      <trkpt lat="45.20397" lon="4.72656">
        <ele>233.7</ele>
        <time>2019-01-20T22:14:44Z</time>
      </trkpt>
      <trkpt lat="45.20436" lon="4.72649">
        <ele>228.6</ele>
        <time>2019-01-20T22:15:16Z</time>
      </trkpt>
      <trkpt lat="45.20472" lon="4.72657">
        <ele>226.1</ele>
        <time>2019-01-20T22:15:45Z</time>
      </trkpt>
      <trkpt lat="45.20506" lon="4.72656">
        <ele>227.3</ele>
        <time>2019-01-20T22:16:12Z</time>
      </trkpt>
      <trkpt lat="45.20514" lon="4.72638">
        <ele>231.5</ele>
        <time>2019-01-20T22:16:24Z</time>
      </trkpt>
      <trkpt lat="45.20502" lon="4.72606">
        <ele>227.7</ele>
        <time>2019-01-20T22:16:44Z</time>
      </trkpt>
      <trkpt lat="45.20481" lon="4.72561">
        <ele>231.1</ele>
        <time>2019-01-20T22:17:14Z</time>
      </trkpt>
      <trkpt lat="45.20475" lon="4.72521">
        <ele>234.6</ele>
        <time>2019-01-20T22:17:38Z</time>
      </trkpt>
      <trkpt lat="45.20481" lon="4.72481">
        <ele>240.6</ele>
        <time>2019-01-20T22:18:01Z</time>
      </trkpt>
      <trkpt lat="45.20486" lon="4.72452">
        <ele>247</ele>
        <time>2019-01-20T22:18:18Z</time>
      </trkpt>
      <trkpt lat="45.20528" lon="4.72455">
        <ele>260.7</ele>
        <time>2019-01-20T22:18:51Z</time>
      </trkpt>
      <trkpt lat="45.20551" lon="4.72496">
        <ele>261.7</ele>
        <time>2019-01-20T22:19:21Z</time>
      </trkpt>
      <trkpt lat="45.20551" lon="4.72496">
        <ele>261.7</ele>
        <time>2019-01-20T22:19:21Z</time>
      </trkpt>
      <trkpt lat="45.2057" lon="4.72522">
        <ele>265</ele>
        <time>2019-01-20T22:19:42Z</time>
      </trkpt>
      <trkpt lat="45.2059" lon="4.7255">
        <ele>268</ele>
        <time>2019-01-20T22:20:04Z</time>
      </trkpt>
      <trkpt lat="45.20608" lon="4.72555">
        <ele>273.5</ele>
        <time>2019-01-20T22:20:19Z</time>
      </trkpt>
      <trkpt lat="45.20598" lon="4.72517">
        <ele>276</ele>
        <time>2019-01-20T22:20:42Z</time>
      </trkpt>
      <trkpt lat="45.20577" lon="4.72492">
        <ele>273</ele>
        <time>2019-01-20T22:21:05Z</time>
      </trkpt>
      <trkpt lat="45.2057" lon="4.72464">
        <ele>275.5</ele>
        <time>2019-01-20T22:21:21Z</time>
      </trkpt>
      <trkpt lat="45.2056" lon="4.72443">
        <ele>275.6</ele>
        <time>2019-01-20T22:21:35Z</time>
      </trkpt>
      <trkpt lat="45.20548" lon="4.7239">
        <ele>275.9</ele>
        <time>2019-01-20T22:22:07Z</time>
      </trkpt>
      <trkpt lat="45.20553" lon="4.72352">
        <ele>277.8</ele>
        <time>2019-01-20T22:22:29Z</time>
      </trkpt>
      <trkpt lat="45.20548" lon="4.72321">
        <ele>274</ele>
        <time>2019-01-20T22:22:47Z</time>
      </trkpt>
      <trkpt lat="45.20557" lon="4.72294">
        <ele>271</ele>
        <time>2019-01-20T22:23:04Z</time>
      </trkpt>
      <trkpt lat="45.20559" lon="4.72275">
        <ele>267.7</ele>
        <time>2019-01-20T22:23:14Z</time>
      </trkpt>
      <trkpt lat="45.20559" lon="4.72256">
        <ele>263.9</ele>
        <time>2019-01-20T22:23:25Z</time>
      </trkpt>
      <trkpt lat="45.20548" lon="4.72217">
        <ele>254.3</ele>
        <time>2019-01-20T22:23:49Z</time>
      </trkpt>
      <trkpt lat="45.20547" lon="4.72192">
        <ele>249.2</ele>
        <time>2019-01-20T22:24:03Z</time>
      </trkpt>
      <trkpt lat="45.20557" lon="4.72186">
        <ele>249.5</ele>
        <time>2019-01-20T22:24:11Z</time>
      </trkpt>
      <trkpt lat="45.20577" lon="4.72188">
        <ele>252.6</ele>
        <time>2019-01-20T22:24:28Z</time>
      </trkpt>
      <trkpt lat="45.20603" lon="4.72206">
        <ele>262.8</ele>
        <time>2019-01-20T22:24:50Z</time>
      </trkpt>
      <trkpt lat="45.20628" lon="4.72222">
        <ele>273.8</ele>
        <time>2019-01-20T22:25:13Z</time>
      </trkpt>
      <trkpt lat="45.20656" lon="4.72228">
        <ele>283.2</ele>
        <time>2019-01-20T22:25:35Z</time>
      </trkpt>
      <trkpt lat="45.20686" lon="4.72205">
        <ele>283.4</ele>
        <time>2019-01-20T22:26:02Z</time>
      </trkpt>
      <trkpt lat="45.20709" lon="4.7218">
        <ele>279.9</ele>
        <time>2019-01-20T22:26:26Z</time>
      </trkpt>
      <trkpt lat="45.20722" lon="4.7216">
        <ele>275.9</ele>
        <time>2019-01-20T22:26:41Z</time>
      </trkpt>
      <trkpt lat="45.20742" lon="4.72121">
        <ele>269.7</ele>
        <time>2019-01-20T22:27:08Z</time>
      </trkpt>
      <trkpt lat="45.2076" lon="4.721">
        <ele>268.5</ele>
        <time>2019-01-20T22:27:27Z</time>
      </trkpt>
      <trkpt lat="45.20774" lon="4.72096">
        <ele>270.5</ele>
        <time>2019-01-20T22:27:39Z</time>
      </trkpt>
      <trkpt lat="45.20798" lon="4.72102">
        <ele>275.8</ele>
        <time>2019-01-20T22:27:58Z</time>
      </trkpt>
      <trkpt lat="45.20813" lon="4.72104">
        <ele>278.9</ele>
        <time>2019-01-20T22:28:10Z</time>
      </trkpt>
      <trkpt lat="45.20826" lon="4.72093">
        <ele>281.2</ele>
        <time>2019-01-20T22:28:22Z</time>
      </trkpt>
      <trkpt lat="45.20832" lon="4.72073">
        <ele>283.9</ele>
        <time>2019-01-20T22:28:35Z</time>
      </trkpt>
      <trkpt lat="45.2083" lon="4.72063">
        <ele>284.4</ele>
        <time>2019-01-20T22:28:41Z</time>
      </trkpt>
      <trkpt lat="45.20814" lon="4.72049">
        <ele>282</ele>
        <time>2019-01-20T22:28:55Z</time>
      </trkpt>
      <trkpt lat="45.20797" lon="4.72024">
        <ele>279.8</ele>
        <time>2019-01-20T22:29:15Z</time>
      </trkpt>
      <trkpt lat="45.20787" lon="4.72009">
        <ele>278.6</ele>
        <time>2019-01-20T22:29:27Z</time>
      </trkpt>
      <trkpt lat="45.20804" lon="4.72007">
        <ele>283.3</ele>
        <time>2019-01-20T22:29:40Z</time>
      </trkpt>
      <trkpt lat="45.20815" lon="4.72022">
        <ele>284.9</ele>
        <time>2019-01-20T22:29:52Z</time>
      </trkpt>
      <trkpt lat="45.2083" lon="4.72026">
        <ele>288.5</ele>
        <time>2019-01-20T22:30:05Z</time>
      </trkpt>
      <trkpt lat="45.20842" lon="4.72029">
        <ele>291</ele>
        <time>2019-01-20T22:30:14Z</time>
      </trkpt>
      <trkpt lat="45.20866" lon="4.72033">
        <ele>296.3</ele>
        <time>2019-01-20T22:30:33Z</time>
      </trkpt>
      <trkpt lat="45.20887" lon="4.72037">
        <ele>301.2</ele>
        <time>2019-01-20T22:30:51Z</time>
      </trkpt>
      <trkpt lat="45.20897" lon="4.72039">
        <ele>303.5</ele>
        <time>2019-01-20T22:30:59Z</time>
      </trkpt>
      <trkpt lat="45.20913" lon="4.7205">
        <ele>306.4</ele>
        <time>2019-01-20T22:31:13Z</time>
      </trkpt>
      <trkpt lat="45.20908" lon="4.72026">
        <ele>307.3</ele>
        <time>2019-01-20T22:31:26Z</time>
      </trkpt>
      <trkpt lat="45.20896" lon="4.72011">
        <ele>305.5</ele>
        <time>2019-01-20T22:31:39Z</time>
      </trkpt>
      <trkpt lat="45.20897" lon="4.71988">
        <ele>306.1</ele>
        <time>2019-01-20T22:31:52Z</time>
      </trkpt>
      <trkpt lat="45.20914" lon="4.71972">
        <ele>309.2</ele>
        <time>2019-01-20T22:32:09Z</time>
      </trkpt>
      <trkpt lat="45.20917" lon="4.71963">
        <ele>309.2</ele>
        <time>2019-01-20T22:32:15Z</time>
      </trkpt>
      <trkpt lat="45.20915" lon="4.71943">
        <ele>307.9</ele>
        <time>2019-01-20T22:32:26Z</time>
      </trkpt>
      <trkpt lat="45.20913" lon="4.71913">
        <ele>305.8</ele>
        <time>2019-01-20T22:32:43Z</time>
      </trkpt>
      <trkpt lat="45.20914" lon="4.71891">
        <ele>303</ele>
        <time>2019-01-20T22:32:55Z</time>
      </trkpt>
      <trkpt lat="45.20921" lon="4.71878">
        <ele>301.5</ele>
        <time>2019-01-20T22:33:04Z</time>
      </trkpt>
      <trkpt lat="45.20947" lon="4.71885">
        <ele>303</ele>
        <time>2019-01-20T22:33:25Z</time>
      </trkpt>
      <trkpt lat="45.20959" lon="4.71893">
        <ele>304.5</ele>
        <time>2019-01-20T22:33:36Z</time>
      </trkpt>
      <trkpt lat="45.20982" lon="4.71893">
        <ele>305.3</ele>
        <time>2019-01-20T22:33:55Z</time>
      </trkpt>
      <trkpt lat="45.21008" lon="4.71914">
        <ele>309.3</ele>
        <time>2019-01-20T22:34:18Z</time>
      </trkpt>
      <trkpt lat="45.21035" lon="4.7193">
        <ele>311.9</ele>
        <time>2019-01-20T22:34:42Z</time>
      </trkpt>
      <trkpt lat="45.21063" lon="4.71943">
        <ele>313.8</ele>
        <time>2019-01-20T22:35:05Z</time>
      </trkpt>
      <trkpt lat="45.21089" lon="4.71962">
        <ele>317.7</ele>
        <time>2019-01-20T22:35:29Z</time>
      </trkpt>
      <trkpt lat="45.21108" lon="4.71981">
        <ele>324.6</ele>
        <time>2019-01-20T22:35:47Z</time>
      </trkpt>
      <trkpt lat="45.21127" lon="4.71998">
        <ele>331</ele>
        <time>2019-01-20T22:36:05Z</time>
      </trkpt>
      <trkpt lat="45.21144" lon="4.72027">
        <ele>338.2</ele>
        <time>2019-01-20T22:36:26Z</time>
      </trkpt>
      <trkpt lat="45.2116" lon="4.72039">
        <ele>343.2</ele>
        <time>2019-01-20T22:36:41Z</time>
      </trkpt>
      <trkpt lat="45.21188" lon="4.72055">
        <ele>349.4</ele>
        <time>2019-01-20T22:37:05Z</time>
      </trkpt>
      <trkpt lat="45.21209" lon="4.7207">
        <ele>353.7</ele>
        <time>2019-01-20T22:37:24Z</time>
      </trkpt>
      <trkpt lat="45.21205" lon="4.72104">
        <ele>354.7</ele>
        <time>2019-01-20T22:37:43Z</time>
      </trkpt>
      <trkpt lat="45.21207" lon="4.72146">
        <ele>355.2</ele>
        <time>2019-01-20T22:38:07Z</time>
      </trkpt>
      <trkpt lat="45.21213" lon="4.72174">
        <ele>356.1</ele>
        <time>2019-01-20T22:38:23Z</time>
      </trkpt>
      <trkpt lat="45.21228" lon="4.72192">
        <ele>357.8</ele>
        <time>2019-01-20T22:38:39Z</time>
      </trkpt>
      <trkpt lat="45.21238" lon="4.72221">
        <ele>359.2</ele>
        <time>2019-01-20T22:38:57Z</time>
      </trkpt>
      <trkpt lat="45.21243" lon="4.72233">
        <ele>360</ele>
        <time>2019-01-20T22:39:05Z</time>
      </trkpt>
      <trkpt lat="45.21243" lon="4.72251">
        <ele>360.2</ele>
        <time>2019-01-20T22:39:15Z</time>
      </trkpt>
      <trkpt lat="45.21252" lon="4.72252">
        <ele>361.1</ele>
        <time>2019-01-20T22:39:22Z</time>
      </trkpt>
      <trkpt lat="45.21265" lon="4.72233">
        <ele>361.1</ele>
        <time>2019-01-20T22:39:37Z</time>
      </trkpt>
      <trkpt lat="45.21268" lon="4.72214">
        <ele>361.1</ele>
        <time>2019-01-20T22:39:48Z</time>
      </trkpt>
      <trkpt lat="45.21262" lon="4.72191">
        <ele>360.8</ele>
        <time>2019-01-20T22:40:02Z</time>
      </trkpt>
      <trkpt lat="45.21271" lon="4.72178">
        <ele>361.2</ele>
        <time>2019-01-20T22:40:12Z</time>
      </trkpt>
      <trkpt lat="45.21281" lon="4.72182">
        <ele>361.8</ele>
        <time>2019-01-20T22:40:21Z</time>
      </trkpt>
      <trkpt lat="45.21304" lon="4.72194">
        <ele>362.7</ele>
        <time>2019-01-20T22:40:40Z</time>
      </trkpt>
      <trkpt lat="45.2133" lon="4.72194">
        <ele>363.8</ele>
        <time>2019-01-20T22:41:01Z</time>
      </trkpt>
      <trkpt lat="45.21353" lon="4.72196">
        <ele>364.1</ele>
        <time>2019-01-20T22:41:19Z</time>
      </trkpt>
      <trkpt lat="45.21365" lon="4.72184">
        <ele>364.4</ele>
        <time>2019-01-20T22:41:31Z</time>
      </trkpt>
      <trkpt lat="45.21371" lon="4.72165">
        <ele>364.5</ele>
        <time>2019-01-20T22:41:43Z</time>
      </trkpt>
      <trkpt lat="45.2139" lon="4.72156">
        <ele>364.1</ele>
        <time>2019-01-20T22:41:59Z</time>
      </trkpt>
      <trkpt lat="45.21412" lon="4.72154">
        <ele>363.8</ele>
        <time>2019-01-20T22:42:17Z</time>
      </trkpt>
      <trkpt lat="45.2143" lon="4.72155">
        <ele>364.3</ele>
        <time>2019-01-20T22:42:31Z</time>
      </trkpt>
      <trkpt lat="45.21467" lon="4.72156">
        <ele>366.1</ele>
        <time>2019-01-20T22:43:01Z</time>
      </trkpt>
      <trkpt lat="45.21495" lon="4.72096">
        <ele>366</ele>
        <time>2019-01-20T22:43:42Z</time>
      </trkpt>
      <trkpt lat="45.21516" lon="4.72062">
        <ele>367.2</ele>
        <time>2019-01-20T22:44:07Z</time>
      </trkpt>
      <trkpt lat="45.21544" lon="4.72036">
        <ele>369</ele>
        <time>2019-01-20T22:44:34Z</time>
      </trkpt>
      <trkpt lat="45.21564" lon="4.72001">
        <ele>369.7</ele>
        <time>2019-01-20T22:44:59Z</time>
      </trkpt>
      <trkpt lat="45.21587" lon="4.71958">
        <ele>373.7</ele>
        <time>2019-01-20T22:45:29Z</time>
      </trkpt>
      <trkpt lat="45.21599" lon="4.71928">
        <ele>375.9</ele>
        <time>2019-01-20T22:45:49Z</time>
      </trkpt>
      <trkpt lat="45.21598" lon="4.71891">
        <ele>378.4</ele>
        <time>2019-01-20T22:46:10Z</time>
      </trkpt>
      <trkpt lat="45.21599" lon="4.71875">
        <ele>379.6</ele>
        <time>2019-01-20T22:46:19Z</time>
      </trkpt>
      <trkpt lat="45.21597" lon="4.71827">
        <ele>382.6</ele>
        <time>2019-01-20T22:46:46Z</time>
      </trkpt>
      <trkpt lat="45.21603" lon="4.71803">
        <ele>383.1</ele>
        <time>2019-01-20T22:47:01Z</time>
      </trkpt>
      <trkpt lat="45.21596" lon="4.71771">
        <ele>382.9</ele>
        <time>2019-01-20T22:47:20Z</time>
      </trkpt>
      <trkpt lat="45.21598" lon="4.71747">
        <ele>383.4</ele>
        <time>2019-01-20T22:47:33Z</time>
      </trkpt>
      <trkpt lat="45.2161" lon="4.71714">
        <ele>385.3</ele>
        <time>2019-01-20T22:47:54Z</time>
      </trkpt>
      <trkpt lat="45.2162" lon="4.7168">
        <ele>386.8</ele>
        <time>2019-01-20T22:48:15Z</time>
      </trkpt>
      <trkpt lat="45.21637" lon="4.71606">
        <ele>388.7</ele>
        <time>2019-01-20T22:48:59Z</time>
      </trkpt>
      <trkpt lat="45.21643" lon="4.71578">
        <ele>389.1</ele>
        <time>2019-01-20T22:49:15Z</time>
      </trkpt>
      <trkpt lat="45.21638" lon="4.71556">
        <ele>388.9</ele>
        <time>2019-01-20T22:49:28Z</time>
      </trkpt>
      <trkpt lat="45.21643" lon="4.71525">
        <ele>388.8</ele>
        <time>2019-01-20T22:49:46Z</time>
      </trkpt>
      <trkpt lat="45.21643" lon="4.71505">
        <ele>388.7</ele>
        <time>2019-01-20T22:49:57Z</time>
      </trkpt>
      <trkpt lat="45.21633" lon="4.71419">
        <ele>390.6</ele>
        <time>2019-01-20T22:50:47Z</time>
      </trkpt>
      <trkpt lat="45.21636" lon="4.71387">
        <ele>390.8</ele>
        <time>2019-01-20T22:51:05Z</time>
      </trkpt>
      <trkpt lat="45.21636" lon="4.71282">
        <ele>390.6</ele>
        <time>2019-01-20T22:52:04Z</time>
      </trkpt>
      <trkpt lat="45.21638" lon="4.71255">
        <ele>390.4</ele>
        <time>2019-01-20T22:52:19Z</time>
      </trkpt>
      <trkpt lat="45.21651" lon="4.71219">
        <ele>390.3</ele>
        <time>2019-01-20T22:52:42Z</time>
      </trkpt>
      <trkpt lat="45.21667" lon="4.71177">
        <ele>390</ele>
        <time>2019-01-20T22:53:09Z</time>
      </trkpt>
      <trkpt lat="45.21667" lon="4.71119">
        <ele>391.2</ele>
        <time>2019-01-20T22:53:42Z</time>
      </trkpt>
      <trkpt lat="45.2167" lon="4.71097">
        <ele>391.7</ele>
        <time>2019-01-20T22:53:55Z</time>
      </trkpt>
      <trkpt lat="45.21659" lon="4.71064">
        <ele>391.9</ele>
        <time>2019-01-20T22:54:15Z</time>
      </trkpt>
      <trkpt lat="45.21653" lon="4.70997">
        <ele>391.3</ele>
        <time>2019-01-20T22:54:53Z</time>
      </trkpt>
      <trkpt lat="45.21662" lon="4.70942">
        <ele>390.4</ele>
        <time>2019-01-20T22:55:25Z</time>
      </trkpt>
      <trkpt lat="45.21677" lon="4.70852">
        <ele>391.5</ele>
        <time>2019-01-20T22:56:18Z</time>
      </trkpt>
      <trkpt lat="45.21678" lon="4.70784">
        <ele>392.9</ele>
        <time>2019-01-20T22:56:56Z</time>
      </trkpt>
      <trkpt lat="45.21679" lon="4.70756">
        <ele>393.4</ele>
        <time>2019-01-20T22:57:12Z</time>
      </trkpt>
      <trkpt lat="45.21714" lon="4.70756">
        <ele>392.2</ele>
        <time>2019-01-20T22:57:40Z</time>
      </trkpt>
      <trkpt lat="45.2174" lon="4.70723">
        <ele>391.9</ele>
        <time>2019-01-20T22:58:08Z</time>
      </trkpt>
      <trkpt lat="45.21762" lon="4.70678">
        <ele>392.6</ele>
        <time>2019-01-20T22:58:39Z</time>
      </trkpt>
      <trkpt lat="45.21771" lon="4.70636">
        <ele>391.3</ele>
        <time>2019-01-20T22:59:03Z</time>
      </trkpt>
      <trkpt lat="45.21763" lon="4.70512">
        <ele>384.9</ele>
        <time>2019-01-20T23:00:13Z</time>
      </trkpt>
      <trkpt lat="45.21758" lon="4.70453">
        <ele>384.9</ele>
        <time>2019-01-20T23:00:47Z</time>
      </trkpt>
      <trkpt lat="45.21745" lon="4.70395">
        <ele>385.2</ele>
        <time>2019-01-20T23:01:21Z</time>
      </trkpt>
      <trkpt lat="45.21731" lon="4.70346">
        <ele>381.3</ele>
        <time>2019-01-20T23:01:51Z</time>
      </trkpt>
      <trkpt lat="45.21709" lon="4.70307">
        <ele>377.1</ele>
        <time>2019-01-20T23:02:19Z</time>
      </trkpt>
      <trkpt lat="45.21682" lon="4.70294">
        <ele>377.6</ele>
        <time>2019-01-20T23:02:42Z</time>
      </trkpt>
      <trkpt lat="45.21668" lon="4.70265">
        <ele>373.6</ele>
        <time>2019-01-20T23:03:02Z</time>
      </trkpt>
      <trkpt lat="45.21649" lon="4.70243">
        <ele>371.3</ele>
        <time>2019-01-20T23:03:22Z</time>
      </trkpt>
      <trkpt lat="45.21615" lon="4.70246">
        <ele>374.5</ele>
        <time>2019-01-20T23:03:49Z</time>
      </trkpt>
      <trkpt lat="45.21586" lon="4.70255">
        <ele>378.3</ele>
        <time>2019-01-20T23:04:13Z</time>
      </trkpt>
      <trkpt lat="45.21569" lon="4.70295">
        <ele>382.7</ele>
        <time>2019-01-20T23:04:39Z</time>
      </trkpt>
      <trkpt lat="45.21553" lon="4.7033">
        <ele>386.6</ele>
        <time>2019-01-20T23:05:03Z</time>
      </trkpt>
      <trkpt lat="45.21532" lon="4.70366">
        <ele>388.6</ele>
        <time>2019-01-20T23:05:29Z</time>
      </trkpt>
      <trkpt lat="45.21537" lon="4.70409">
        <ele>392.5</ele>
        <time>2019-01-20T23:05:53Z</time>
      </trkpt>
      <trkpt lat="45.21544" lon="4.70459">
        <ele>396</ele>
        <time>2019-01-20T23:06:22Z</time>
      </trkpt>
      <trkpt lat="45.21557" lon="4.705">
        <ele>399.4</ele>
        <time>2019-01-20T23:06:47Z</time>
      </trkpt>
      <trkpt lat="45.21565" lon="4.7056">
        <ele>398.2</ele>
        <time>2019-01-20T23:07:22Z</time>
      </trkpt>
      <trkpt lat="45.21533" lon="4.7052">
        <ele>396.5</ele>
        <time>2019-01-20T23:07:56Z</time>
      </trkpt>
      <trkpt lat="45.21501" lon="4.70501">
        <ele>394</ele>
        <time>2019-01-20T23:08:24Z</time>
      </trkpt>
      <trkpt lat="45.21478" lon="4.70486">
        <ele>390</ele>
        <time>2019-01-20T23:08:44Z</time>
      </trkpt>
      <trkpt lat="45.21464" lon="4.70463">
        <ele>387</ele>
        <time>2019-01-20T23:09:01Z</time>
      </trkpt>
      <trkpt lat="45.21456" lon="4.70425">
        <ele>384.5</ele>
        <time>2019-01-20T23:09:23Z</time>
      </trkpt>
      <trkpt lat="45.21444" lon="4.70418">
        <ele>382.7</ele>
        <time>2019-01-20T23:09:34Z</time>
      </trkpt>
      <trkpt lat="45.21423" lon="4.70392">
        <ele>376.3</ele>
        <time>2019-01-20T23:09:56Z</time>
      </trkpt>
      <trkpt lat="45.21407" lon="4.70355">
        <ele>368.8</ele>
        <time>2019-01-20T23:10:21Z</time>
      </trkpt>
      <trkpt lat="45.21401" lon="4.70312">
        <ele>358.6</ele>
        <time>2019-01-20T23:10:45Z</time>
      </trkpt>
      <trkpt lat="45.21387" lon="4.70301">
        <ele>353.8</ele>
        <time>2019-01-20T23:10:58Z</time>
      </trkpt>
      <trkpt lat="45.21369" lon="4.70304">
        <ele>352.5</ele>
        <time>2019-01-20T23:11:13Z</time>
      </trkpt>
      <trkpt lat="45.21348" lon="4.7032">
        <ele>354.6</ele>
        <time>2019-01-20T23:11:32Z</time>
      </trkpt>
      <trkpt lat="45.21323" lon="4.70349">
        <ele>358</ele>
        <time>2019-01-20T23:11:58Z</time>
      </trkpt>
      <trkpt lat="45.2132" lon="4.70394">
        <ele>362.6</ele>
        <time>2019-01-20T23:12:23Z</time>
      </trkpt>
      <trkpt lat="45.21313" lon="4.70434">
        <ele>364.2</ele>
        <time>2019-01-20T23:12:46Z</time>
      </trkpt>
      <trkpt lat="45.21303" lon="4.70442">
        <ele>362.7</ele>
        <time>2019-01-20T23:12:56Z</time>
      </trkpt>
      <trkpt lat="45.21275" lon="4.70449">
        <ele>358.9</ele>
        <time>2019-01-20T23:13:19Z</time>
      </trkpt>
      <trkpt lat="45.21262" lon="4.7045">
        <ele>357.1</ele>
        <time>2019-01-20T23:13:29Z</time>
      </trkpt>
      <trkpt lat="45.21253" lon="4.70477">
        <ele>356.1</ele>
        <time>2019-01-20T23:13:46Z</time>
      </trkpt>
      <trkpt lat="45.21255" lon="4.70502">
        <ele>356.6</ele>
        <time>2019-01-20T23:14:00Z</time>
      </trkpt>
      <trkpt lat="45.21263" lon="4.70539">
        <ele>357</ele>
        <time>2019-01-20T23:14:22Z</time>
      </trkpt>
      <trkpt lat="45.21251" lon="4.70524">
        <ele>355.6</ele>
        <time>2019-01-20T23:14:36Z</time>
      </trkpt>
      <trkpt lat="45.21243" lon="4.70506">
        <ele>354.8</ele>
        <time>2019-01-20T23:14:48Z</time>
      </trkpt>
      <trkpt lat="45.21238" lon="4.70493">
        <ele>353.8</ele>
        <time>2019-01-20T23:14:56Z</time>
      </trkpt>
      <trkpt lat="45.21234" lon="4.7048">
        <ele>352.7</ele>
        <time>2019-01-20T23:15:04Z</time>
      </trkpt>
      <trkpt lat="45.21218" lon="4.70509">
        <ele>350.7</ele>
        <time>2019-01-20T23:15:25Z</time>
      </trkpt>
      <trkpt lat="45.21213" lon="4.70459">
        <ele>347.5</ele>
        <time>2019-01-20T23:15:53Z</time>
      </trkpt>
      <trkpt lat="45.21193" lon="4.70473">
        <ele>344.3</ele>
        <time>2019-01-20T23:16:11Z</time>
      </trkpt>
      <trkpt lat="45.21209" lon="4.70363">
        <ele>339.1</ele>
        <time>2019-01-20T23:17:15Z</time>
      </trkpt>
      <trkpt lat="45.21191" lon="4.70383">
        <ele>335.1</ele>
        <time>2019-01-20T23:17:34Z</time>
      </trkpt>
      <trkpt lat="45.21162" lon="4.70419">
        <ele>330.6</ele>
        <time>2019-01-20T23:18:05Z</time>
      </trkpt>
      <trkpt lat="45.21142" lon="4.7045">
        <ele>325.5</ele>
        <time>2019-01-20T23:18:28Z</time>
      </trkpt>
      <trkpt lat="45.2112" lon="4.70455">
        <ele>316.4</ele>
        <time>2019-01-20T23:18:46Z</time>
      </trkpt>
      <trkpt lat="45.21092" lon="4.7047">
        <ele>307.5</ele>
        <time>2019-01-20T23:19:10Z</time>
      </trkpt>
      <trkpt lat="45.21027" lon="4.70532">
        <ele>296.9</ele>
        <time>2019-01-20T23:20:13Z</time>
      </trkpt>
      <trkpt lat="45.20986" lon="4.7057">
        <ele>291.3</ele>
        <time>2019-01-20T23:20:52Z</time>
      </trkpt>
      <trkpt lat="45.20985" lon="4.70625">
        <ele>301.2</ele>
        <time>2019-01-20T23:21:23Z</time>
      </trkpt>
      <trkpt lat="45.20997" lon="4.70688">
        <ele>316.8</ele>
        <time>2019-01-20T23:22:00Z</time>
      </trkpt>
      <trkpt lat="45.20988" lon="4.70812">
        <ele>317.8</ele>
        <time>2019-01-20T23:23:10Z</time>
      </trkpt>
      <trkpt lat="45.20961" lon="4.70875">
        <ele>307</ele>
        <time>2019-01-20T23:23:52Z</time>
      </trkpt>
      <trkpt lat="45.2085" lon="4.70944">
        <ele>282</ele>
        <time>2019-01-20T23:25:28Z</time>
      </trkpt>
      <trkpt lat="45.20836" lon="4.7104">
        <ele>303.4</ele>
        <time>2019-01-20T23:26:24Z</time>
      </trkpt>
      <trkpt lat="45.20829" lon="4.71112">
        <ele>307.8</ele>
        <time>2019-01-20T23:27:05Z</time>
      </trkpt>
      <trkpt lat="45.20852" lon="4.71255">
        <ele>310.7</ele>
        <time>2019-01-20T23:28:28Z</time>
      </trkpt>
      <trkpt lat="45.20851" lon="4.71412">
        <ele>293.7</ele>
        <time>2019-01-20T23:29:57Z</time>
      </trkpt>
      <trkpt lat="45.20857" lon="4.71521">
        <ele>286.2</ele>
        <time>2019-01-20T23:30:58Z</time>
      </trkpt>
      <trkpt lat="45.2086" lon="4.71536">
        <ele>286.4</ele>
        <time>2019-01-20T23:31:07Z</time>
      </trkpt>
      <trkpt lat="45.20833" lon="4.71562">
        <ele>278.7</ele>
        <time>2019-01-20T23:31:33Z</time>
      </trkpt>
      <trkpt lat="45.20829" lon="4.71608">
        <ele>275.2</ele>
        <time>2019-01-20T23:31:59Z</time>
      </trkpt>
      <trkpt lat="45.20881" lon="4.71642">
        <ele>286.4</ele>
        <time>2019-01-20T23:32:45Z</time>
      </trkpt>
      <trkpt lat="45.20864" lon="4.71683">
        <ele>280.6</ele>
        <time>2019-01-20T23:33:11Z</time>
      </trkpt>
      <trkpt lat="45.20798" lon="4.71713">
        <ele>269.9</ele>
        <time>2019-01-20T23:34:07Z</time>
      </trkpt>
      <trkpt lat="45.20759" lon="4.71744">
        <ele>267.4</ele>
        <time>2019-01-20T23:34:42Z</time>
      </trkpt>
      <trkpt lat="45.20747" lon="4.71794">
        <ele>270.3</ele>
        <time>2019-01-20T23:35:12Z</time>
      </trkpt>
      <trkpt lat="45.20756" lon="4.71839">
        <ele>276.2</ele>
        <time>2019-01-20T23:35:39Z</time>
      </trkpt>
      <trkpt lat="45.20765" lon="4.71862">
        <ele>277.9</ele>
        <time>2019-01-20T23:35:53Z</time>
      </trkpt>
      <trkpt lat="45.20747" lon="4.71904">
        <ele>274.2</ele>
        <time>2019-01-20T23:36:21Z</time>
      </trkpt>
      <trkpt lat="45.20746" lon="4.7196">
        <ele>270.9</ele>
        <time>2019-01-20T23:36:53Z</time>
      </trkpt>
      <trkpt lat="45.20764" lon="4.71969">
        <ele>274.7</ele>
        <time>2019-01-20T23:37:08Z</time>
      </trkpt>
      <trkpt lat="45.20785" lon="4.72017">
        <ele>277.2</ele>
        <time>2019-01-20T23:37:40Z</time>
      </trkpt>
      <trkpt lat="45.2083" lon="4.72073">
        <ele>283.2</ele>
        <time>2019-01-20T23:38:28Z</time>
      </trkpt>
      <trkpt lat="45.2082" lon="4.72099">
        <ele>280.1</ele>
        <time>2019-01-20T23:38:45Z</time>
      </trkpt>
      <trkpt lat="45.20806" lon="4.72108">
        <ele>277.8</ele>
        <time>2019-01-20T23:38:57Z</time>
      </trkpt>
      <trkpt lat="45.20772" lon="4.72098">
        <ele>270.5</ele>
        <time>2019-01-20T23:39:25Z</time>
      </trkpt>
      <trkpt lat="45.20751" lon="4.72111">
        <ele>269.1</ele>
        <time>2019-01-20T23:39:43Z</time>
      </trkpt>
      <trkpt lat="45.20723" lon="4.7216">
        <ele>276</ele>
        <time>2019-01-20T23:40:19Z</time>
      </trkpt>
      <trkpt lat="45.20676" lon="4.72209">
        <ele>283</ele>
        <time>2019-01-20T23:41:05Z</time>
      </trkpt>
      <trkpt lat="45.2065" lon="4.72226">
        <ele>280.9</ele>
        <time>2019-01-20T23:41:29Z</time>
      </trkpt>
      <trkpt lat="45.20615" lon="4.72217">
        <ele>268.6</ele>
        <time>2019-01-20T23:41:57Z</time>
      </trkpt>
      <trkpt lat="45.20583" lon="4.72196">
        <ele>255.1</ele>
        <time>2019-01-20T23:42:26Z</time>
      </trkpt>
      <trkpt lat="45.20568" lon="4.72182">
        <ele>250.2</ele>
        <time>2019-01-20T23:42:40Z</time>
      </trkpt>
      <trkpt lat="45.20546" lon="4.72181">
        <ele>246.7</ele>
        <time>2019-01-20T23:42:57Z</time>
      </trkpt>
      <trkpt lat="45.2055" lon="4.72217">
        <ele>254.5</ele>
        <time>2019-01-20T23:43:18Z</time>
      </trkpt>
      <trkpt lat="45.2056" lon="4.72264">
        <ele>265.7</ele>
        <time>2019-01-20T23:43:45Z</time>
      </trkpt>
      <trkpt lat="45.20558" lon="4.7229">
        <ele>270.4</ele>
        <time>2019-01-20T23:44:00Z</time>
      </trkpt>
      <trkpt lat="45.20546" lon="4.72324">
        <ele>274.1</ele>
        <time>2019-01-20T23:44:22Z</time>
      </trkpt>
      <trkpt lat="45.20556" lon="4.72347">
        <ele>278.5</ele>
        <time>2019-01-20T23:44:37Z</time>
      </trkpt>
      <trkpt lat="45.20548" lon="4.724">
        <ele>276.1</ele>
        <time>2019-01-20T23:45:07Z</time>
      </trkpt>
      <trkpt lat="45.2056" lon="4.72448">
        <ele>274.5</ele>
        <time>2019-01-20T23:45:36Z</time>
      </trkpt>
      <trkpt lat="45.20578" lon="4.72468">
        <ele>277.7</ele>
        <time>2019-01-20T23:45:54Z</time>
      </trkpt>
      <trkpt lat="45.20615" lon="4.72488">
        <ele>286</ele>
        <time>2019-01-20T23:46:26Z</time>
      </trkpt>
      <trkpt lat="45.20641" lon="4.72527">
        <ele>288.7</ele>
        <time>2019-01-20T23:46:56Z</time>
      </trkpt>
      <trkpt lat="45.20645" lon="4.72545">
        <ele>287.6</ele>
        <time>2019-01-20T23:47:07Z</time>
      </trkpt>
      <trkpt lat="45.20651" lon="4.7257">
        <ele>286.9</ele>
        <time>2019-01-20T23:47:21Z</time>
      </trkpt>
      <trkpt lat="45.20686" lon="4.72606">
        <ele>294.9</ele>
        <time>2019-01-20T23:47:56Z</time>
      </trkpt>
      <trkpt lat="45.20697" lon="4.72619">
        <ele>296.8</ele>
        <time>2019-01-20T23:48:07Z</time>
      </trkpt>
      <trkpt lat="45.20685" lon="4.72572">
        <ele>295.9</ele>
        <time>2019-01-20T23:48:36Z</time>
      </trkpt>
      <trkpt lat="45.20681" lon="4.72527">
        <ele>300.3</ele>
        <time>2019-01-20T23:49:01Z</time>
      </trkpt>
      <trkpt lat="45.20671" lon="4.72504">
        <ele>300.7</ele>
        <time>2019-01-20T23:49:17Z</time>
      </trkpt>
      <trkpt lat="45.2065" lon="4.72441">
        <ele>303.6</ele>
        <time>2019-01-20T23:49:56Z</time>
      </trkpt>
      <trkpt lat="45.20626" lon="4.72399">
        <ele>300.4</ele>
        <time>2019-01-20T23:50:26Z</time>
      </trkpt>
      <trkpt lat="45.20621" lon="4.72369">
        <ele>298.1</ele>
        <time>2019-01-20T23:50:44Z</time>
      </trkpt>
      <trkpt lat="45.20646" lon="4.72343">
        <ele>305</ele>
        <time>2019-01-20T23:51:09Z</time>
      </trkpt>
      <trkpt lat="45.20662" lon="4.72352">
        <ele>310</ele>
        <time>2019-01-20T23:51:23Z</time>
      </trkpt>
      <trkpt lat="45.20663" lon="4.7238">
        <ele>310.5</ele>
        <time>2019-01-20T23:51:39Z</time>
      </trkpt>
      <trkpt lat="45.20688" lon="4.72418">
        <ele>314.5</ele>
        <time>2019-01-20T23:52:08Z</time>
      </trkpt>
      <trkpt lat="45.20708" lon="4.72446">
        <ele>314.2</ele>
        <time>2019-01-20T23:52:31Z</time>
      </trkpt>
      <trkpt lat="45.20705" lon="4.72413">
        <ele>316.6</ele>
        <time>2019-01-20T23:52:50Z</time>
      </trkpt>
      <trkpt lat="45.20714" lon="4.72398">
        <ele>317.8</ele>
        <time>2019-01-20T23:53:01Z</time>
      </trkpt>
      <trkpt lat="45.20729" lon="4.72403">
        <ele>319.5</ele>
        <time>2019-01-20T23:53:13Z</time>
      </trkpt>
      <trkpt lat="45.20749" lon="4.72436">
        <ele>320.9</ele>
        <time>2019-01-20T23:53:37Z</time>
      </trkpt>
      <trkpt lat="45.2078" lon="4.72448">
        <ele>324</ele>
        <time>2019-01-20T23:54:03Z</time>
      </trkpt>
      <trkpt lat="45.20812" lon="4.72436">
        <ele>327.9</ele>
        <time>2019-01-20T23:54:30Z</time>
      </trkpt>
      <trkpt lat="45.20869" lon="4.72426">
        <ele>330.9</ele>
        <time>2019-01-20T23:55:15Z</time>
      </trkpt>
      <trkpt lat="45.20899" lon="4.72438">
        <ele>332.4</ele>
        <time>2019-01-20T23:55:40Z</time>
      </trkpt>
      <trkpt lat="45.20967" lon="4.72481">
        <ele>337.6</ele>
        <time>2019-01-20T23:56:40Z</time>
      </trkpt>
      <trkpt lat="45.21011" lon="4.72521">
        <ele>341.1</ele>
        <time>2019-01-20T23:57:22Z</time>
      </trkpt>
      <trkpt lat="45.21039" lon="4.72549">
        <ele>343.4</ele>
        <time>2019-01-20T23:57:50Z</time>
      </trkpt>
      <trkpt lat="45.21086" lon="4.72549">
        <ele>346.8</ele>
        <time>2019-01-20T23:58:27Z</time>
      </trkpt>
      <trkpt lat="45.21113" lon="4.72533">
        <ele>348.8</ele>
        <time>2019-01-20T23:58:50Z</time>
      </trkpt>
      <trkpt lat="45.21134" lon="4.72521">
        <ele>350.8</ele>
        <time>2019-01-20T23:59:09Z</time>
      </trkpt>
      <trkpt lat="45.21185" lon="4.72544">
        <ele>353.9</ele>
        <time>2019-01-20T23:59:52Z</time>
      </trkpt>
      <trkpt lat="45.21183" lon="4.72657">
        <ele>352.1</ele>
        <time>2019-01-21T00:00:55Z</time>
      </trkpt>
      <trkpt lat="45.21172" lon="4.72768">
        <ele>356.2</ele>
        <time>2019-01-21T00:01:58Z</time>
      </trkpt>
      <trkpt lat="45.21156" lon="4.72816">
        <ele>357.1</ele>
        <time>2019-01-21T00:02:28Z</time>
      </trkpt>
      <trkpt lat="45.21119" lon="4.72889">
        <ele>355.8</ele>
        <time>2019-01-21T00:03:19Z</time>
      </trkpt>
      <trkpt lat="45.21103" lon="4.72932">
        <ele>355.5</ele>
        <time>2019-01-21T00:03:46Z</time>
      </trkpt>
      <trkpt lat="45.21103" lon="4.72932">
        <ele>355.5</ele>
        <time>2019-01-21T00:03:46Z</time>
      </trkpt>
      <trkpt lat="45.21107" lon="4.72986">
        <ele>357.3</ele>
        <time>2019-01-21T00:04:17Z</time>
      </trkpt>
      <trkpt lat="45.21117" lon="4.73055">
        <ele>359.3</ele>
        <time>2019-01-21T00:04:56Z</time>
      </trkpt>
      <trkpt lat="45.21126" lon="4.73113">
        <ele>360.8</ele>
        <time>2019-01-21T00:05:30Z</time>
      </trkpt>
      <trkpt lat="45.21121" lon="4.73161">
        <ele>360.6</ele>
        <time>2019-01-21T00:05:57Z</time>
      </trkpt>
      <trkpt lat="45.21123" lon="4.73239">
        <ele>361.8</ele>
        <time>2019-01-21T00:06:42Z</time>
      </trkpt>
      <trkpt lat="45.21133" lon="4.7329">
        <ele>362.5</ele>
        <time>2019-01-21T00:07:12Z</time>
      </trkpt>
      <trkpt lat="45.21145" lon="4.73301">
        <ele>362.8</ele>
        <time>2019-01-21T00:07:23Z</time>
      </trkpt>
      <trkpt lat="45.2113" lon="4.73362">
        <ele>362.5</ele>
        <time>2019-01-21T00:08:00Z</time>
      </trkpt>
      <trkpt lat="45.21113" lon="4.73393">
        <ele>362.6</ele>
        <time>2019-01-21T00:08:21Z</time>
      </trkpt>
      <trkpt lat="45.21069" lon="4.73378">
        <ele>362.4</ele>
        <time>2019-01-21T00:08:58Z</time>
      </trkpt>
      <trkpt lat="45.20979" lon="4.73333">
        <ele>361.2</ele>
        <time>2019-01-21T00:10:14Z</time>
      </trkpt>
      <trkpt lat="45.20957" lon="4.73283">
        <ele>359.7</ele>
        <time>2019-01-21T00:10:47Z</time>
      </trkpt>
      <trkpt lat="45.20946" lon="4.73267">
        <ele>359.3</ele>
        <time>2019-01-21T00:11:00Z</time>
      </trkpt>
      <trkpt lat="45.2092" lon="4.73256">
        <ele>359.1</ele>
        <time>2019-01-21T00:11:21Z</time>
      </trkpt>
      <trkpt lat="45.20867" lon="4.73228">
        <ele>361</ele>
        <time>2019-01-21T00:12:07Z</time>
      </trkpt>
      <trkpt lat="45.20844" lon="4.7322">
        <ele>362.1</ele>
        <time>2019-01-21T00:12:26Z</time>
      </trkpt>
      <trkpt lat="45.20818" lon="4.73209">
        <ele>362.7</ele>
        <time>2019-01-21T00:12:48Z</time>
      </trkpt>
      <trkpt lat="45.20793" lon="4.73207">
        <ele>363</ele>
        <time>2019-01-21T00:13:07Z</time>
      </trkpt>
      <trkpt lat="45.2079" lon="4.73252">
        <ele>363.5</ele>
        <time>2019-01-21T00:13:32Z</time>
      </trkpt>
      <trkpt lat="45.2079" lon="4.73301">
        <ele>362.9</ele>
        <time>2019-01-21T00:14:00Z</time>
      </trkpt>
      <trkpt lat="45.20788" lon="4.73338">
        <ele>362.3</ele>
        <time>2019-01-21T00:14:22Z</time>
      </trkpt>
      <trkpt lat="45.20785" lon="4.73387">
        <ele>360.8</ele>
        <time>2019-01-21T00:14:49Z</time>
      </trkpt>
      <trkpt lat="45.20779" lon="4.73421">
        <ele>359.6</ele>
        <time>2019-01-21T00:15:09Z</time>
      </trkpt>
      <trkpt lat="45.20775" lon="4.73442">
        <ele>359.2</ele>
        <time>2019-01-21T00:15:21Z</time>
      </trkpt>
      <trkpt lat="45.20763" lon="4.7348">
        <ele>358.4</ele>
        <time>2019-01-21T00:15:45Z</time>
      </trkpt>
      <trkpt lat="45.2076" lon="4.73503">
        <ele>358.1</ele>
        <time>2019-01-21T00:15:58Z</time>
      </trkpt>
      <trkpt lat="45.20776" lon="4.73509">
        <ele>358.2</ele>
        <time>2019-01-21T00:16:11Z</time>
      </trkpt>
      <trkpt lat="45.20803" lon="4.73518">
        <ele>358.4</ele>
        <time>2019-01-21T00:16:34Z</time>
      </trkpt>
      <trkpt lat="45.20809" lon="4.7353">
        <ele>358.4</ele>
        <time>2019-01-21T00:16:42Z</time>
      </trkpt>
      <trkpt lat="45.2083" lon="4.73613">
        <ele>356.9</ele>
        <time>2019-01-21T00:17:32Z</time>
      </trkpt>
      <trkpt lat="45.20836" lon="4.7365">
        <ele>355.8</ele>
        <time>2019-01-21T00:17:53Z</time>
      </trkpt>
      <trkpt lat="45.20845" lon="4.73687">
        <ele>355.1</ele>
        <time>2019-01-21T00:18:15Z</time>
      </trkpt>
      <trkpt lat="45.20859" lon="4.7375">
        <ele>353.5</ele>
        <time>2019-01-21T00:18:52Z</time>
      </trkpt>
      <trkpt lat="45.20825" lon="4.7375">
        <ele>351.5</ele>
        <time>2019-01-21T00:19:19Z</time>
      </trkpt>
      <trkpt lat="45.20798" lon="4.73748">
        <ele>350</ele>
        <time>2019-01-21T00:19:41Z</time>
      </trkpt>
      <trkpt lat="45.20775" lon="4.73745">
        <ele>348.8</ele>
        <time>2019-01-21T00:19:59Z</time>
      </trkpt>
      <trkpt lat="45.20765" lon="4.73738">
        <ele>348.8</ele>
        <time>2019-01-21T00:20:09Z</time>
      </trkpt>
      <trkpt lat="45.20741" lon="4.73768">
        <ele>345.8</ele>
        <time>2019-01-21T00:20:34Z</time>
      </trkpt>
      <trkpt lat="45.20711" lon="4.7381">
        <ele>341.5</ele>
        <time>2019-01-21T00:21:08Z</time>
      </trkpt>
      <trkpt lat="45.20687" lon="4.73852">
        <ele>337.3</ele>
        <time>2019-01-21T00:21:38Z</time>
      </trkpt>
      <trkpt lat="45.20676" lon="4.73876">
        <ele>336.3</ele>
        <time>2019-01-21T00:21:54Z</time>
      </trkpt>
      <trkpt lat="45.20664" lon="4.73904">
        <ele>335</ele>
        <time>2019-01-21T00:22:13Z</time>
      </trkpt>
      <trkpt lat="45.20648" lon="4.7391">
        <ele>334</ele>
        <time>2019-01-21T00:22:26Z</time>
      </trkpt>
      <trkpt lat="45.20617" lon="4.73918">
        <ele>332</ele>
        <time>2019-01-21T00:22:51Z</time>
      </trkpt>
      <trkpt lat="45.20589" lon="4.73914">
        <ele>330.5</ele>
        <time>2019-01-21T00:23:14Z</time>
      </trkpt>
      <trkpt lat="45.20571" lon="4.73906">
        <ele>329.6</ele>
        <time>2019-01-21T00:23:29Z</time>
      </trkpt>
      <trkpt lat="45.20557" lon="4.73901">
        <ele>328.9</ele>
        <time>2019-01-21T00:23:40Z</time>
      </trkpt>
      <trkpt lat="45.20543" lon="4.73906">
        <ele>327.7</ele>
        <time>2019-01-21T00:23:52Z</time>
      </trkpt>
      <trkpt lat="45.20503" lon="4.73922">
        <ele>324.1</ele>
        <time>2019-01-21T00:24:26Z</time>
      </trkpt>
      <trkpt lat="45.20475" lon="4.73938">
        <ele>322.1</ele>
        <time>2019-01-21T00:24:50Z</time>
      </trkpt>
      <trkpt lat="45.20443" lon="4.73913">
        <ele>319.9</ele>
        <time>2019-01-21T00:25:19Z</time>
      </trkpt>
      <trkpt lat="45.20415" lon="4.73924">
        <ele>318.2</ele>
        <time>2019-01-21T00:25:42Z</time>
      </trkpt>
      <trkpt lat="45.20392" lon="4.73943">
        <ele>317.4</ele>
        <time>2019-01-21T00:26:04Z</time>
      </trkpt>
      <trkpt lat="45.2038" lon="4.73961">
        <ele>317.2</ele>
        <time>2019-01-21T00:26:18Z</time>
      </trkpt>
      <trkpt lat="45.20371" lon="4.73975">
        <ele>317</ele>
        <time>2019-01-21T00:26:28Z</time>
      </trkpt>
      <trkpt lat="45.20357" lon="4.74025">
        <ele>318.5</ele>
        <time>2019-01-21T00:26:59Z</time>
      </trkpt>
      <trkpt lat="45.20336" lon="4.74019">
        <ele>316.5</ele>
        <time>2019-01-21T00:27:15Z</time>
      </trkpt>
      <trkpt lat="45.20322" lon="4.74079">
        <ele>316.5</ele>
        <time>2019-01-21T00:27:51Z</time>
      </trkpt>
      <trkpt lat="45.20293" lon="4.74049">
        <ele>306</ele>
        <time>2019-01-21T00:28:20Z</time>
      </trkpt>
      <trkpt lat="45.20288" lon="4.74069">
        <ele>304.5</ele>
        <time>2019-01-21T00:28:32Z</time>
      </trkpt>
      <trkpt lat="45.20264" lon="4.74071">
        <ele>295.8</ele>
        <time>2019-01-21T00:28:52Z</time>
      </trkpt>
      <trkpt lat="45.20245" lon="4.74064">
        <ele>288.8</ele>
        <time>2019-01-21T00:29:07Z</time>
      </trkpt>
      <trkpt lat="45.20241" lon="4.74052">
        <ele>286.7</ele>
        <time>2019-01-21T00:29:14Z</time>
      </trkpt>
      <trkpt lat="45.20241" lon="4.74008">
        <ele>290.8</ele>
        <time>2019-01-21T00:29:39Z</time>
      </trkpt>
      <trkpt lat="45.20227" lon="4.73989">
        <ele>285.7</ele>
        <time>2019-01-21T00:29:55Z</time>
      </trkpt>
      <trkpt lat="45.20198" lon="4.73961">
        <ele>277.6</ele>
        <time>2019-01-21T00:30:23Z</time>
      </trkpt>
      <trkpt lat="45.20171" lon="4.73933">
        <ele>276.6</ele>
        <time>2019-01-21T00:30:49Z</time>
      </trkpt>
      <trkpt lat="45.20098" lon="4.73899">
        <ele>256.8</ele>
        <time>2019-01-21T00:31:51Z</time>
      </trkpt>
      <trkpt lat="45.20102" lon="4.73848">
        <ele>268</ele>
        <time>2019-01-21T00:32:20Z</time>
      </trkpt>
      <trkpt lat="45.20122" lon="4.73794">
        <ele>276.8</ele>
        <time>2019-01-21T00:32:54Z</time>
      </trkpt>
      <trkpt lat="45.20138" lon="4.73702">
        <ele>273.9</ele>
        <time>2019-01-21T00:33:48Z</time>
      </trkpt>
      <trkpt lat="45.20145" lon="4.7365">
        <ele>267.1</ele>
        <time>2019-01-21T00:34:17Z</time>
      </trkpt>
      <trkpt lat="45.20151" lon="4.73611">
        <ele>258.9</ele>
        <time>2019-01-21T00:34:40Z</time>
      </trkpt>
      <trkpt lat="45.20169" lon="4.73565">
        <ele>250.4</ele>
        <time>2019-01-21T00:35:10Z</time>
      </trkpt>
      <trkpt lat="45.20185" lon="4.73538">
        <ele>246.8</ele>
        <time>2019-01-21T00:35:29Z</time>
      </trkpt>
      <trkpt lat="45.20195" lon="4.73529">
        <ele>247.7</ele>
        <time>2019-01-21T00:35:39Z</time>
      </trkpt>
      <trkpt lat="45.20259" lon="4.73529">
        <ele>267.1</ele>
        <time>2019-01-21T00:36:30Z</time>
      </trkpt>
      <trkpt lat="45.2029" lon="4.73546">
        <ele>278.2</ele>
        <time>2019-01-21T00:36:57Z</time>
      </trkpt>
      <trkpt lat="45.20302" lon="4.73535">
        <ele>280.6</ele>
        <time>2019-01-21T00:37:08Z</time>
      </trkpt>
      <trkpt lat="45.20299" lon="4.73453">
        <ele>271.6</ele>
        <time>2019-01-21T00:37:54Z</time>
      </trkpt>
      <trkpt lat="45.20353" lon="4.73347">
        <ele>290.8</ele>
        <time>2019-01-21T00:39:08Z</time>
      </trkpt>
      <trkpt lat="45.20365" lon="4.73278">
        <ele>293</ele>
        <time>2019-01-21T00:39:48Z</time>
      </trkpt>
      <trkpt lat="45.20385" lon="4.7322">
        <ele>302.4</ele>
        <time>2019-01-21T00:40:25Z</time>
      </trkpt>
      <trkpt lat="45.20383" lon="4.73179">
        <ele>299.8</ele>
        <time>2019-01-21T00:40:48Z</time>
      </trkpt>
      <trkpt lat="45.20364" lon="4.73083">
        <ele>283.4</ele>
        <time>2019-01-21T00:41:44Z</time>
      </trkpt>
      <trkpt lat="45.20369" lon="4.73003">
        <ele>279</ele>
        <time>2019-01-21T00:42:29Z</time>
      </trkpt>
      <trkpt lat="45.20391" lon="4.72978">
        <ele>286.7</ele>
        <time>2019-01-21T00:42:52Z</time>
      </trkpt>
      <trkpt lat="45.20393" lon="4.72963">
        <ele>285.7</ele>
        <time>2019-01-21T00:43:00Z</time>
      </trkpt>
      <trkpt lat="45.20398" lon="4.7289">
        <ele>272.9</ele>
        <time>2019-01-21T00:43:42Z</time>
      </trkpt>
      <trkpt lat="45.20402" lon="4.72843">
        <ele>257.2</ele>
        <time>2019-01-21T00:44:08Z</time>
      </trkpt>
      <trkpt lat="45.20415" lon="4.7282">
        <ele>251.8</ele>
        <time>2019-01-21T00:44:25Z</time>
      </trkpt>
      <trkpt lat="45.20465" lon="4.7282">
        <ele>262.4</ele>
        <time>2019-01-21T00:45:05Z</time>
      </trkpt>
      <trkpt lat="45.20508" lon="4.72805">
        <ele>267.2</ele>
        <time>2019-01-21T00:45:40Z</time>
      </trkpt>
      <trkpt lat="45.20533" lon="4.72798">
        <ele>275</ele>
        <time>2019-01-21T00:46:01Z</time>
      </trkpt>
      <trkpt lat="45.20578" lon="4.72782">
        <ele>290.1</ele>
        <time>2019-01-21T00:46:38Z</time>
      </trkpt>
      <trkpt lat="45.2059" lon="4.72744">
        <ele>283.7</ele>
        <time>2019-01-21T00:47:01Z</time>
      </trkpt>
      <trkpt lat="45.20611" lon="4.72729">
        <ele>286.6</ele>
        <time>2019-01-21T00:47:20Z</time>
      </trkpt>
      <trkpt lat="45.20635" lon="4.72649">
        <ele>281.5</ele>
        <time>2019-01-21T00:48:09Z</time>
      </trkpt>
      <trkpt lat="45.20655" lon="4.72611">
        <ele>287.5</ele>
        <time>2019-01-21T00:48:36Z</time>
      </trkpt>
      <trkpt lat="45.20647" lon="4.72594">
        <ele>284</ele>
        <time>2019-01-21T00:48:47Z</time>
      </trkpt>
      <trkpt lat="45.20623" lon="4.72581">
        <ele>275.3</ele>
        <time>2019-01-21T00:49:08Z</time>
      </trkpt>
      <trkpt lat="45.20622" lon="4.72531">
        <ele>281.8</ele>
        <time>2019-01-21T00:49:36Z</time>
      </trkpt>
      <trkpt lat="45.20578" lon="4.72468">
        <ele>277.7</ele>
        <time>2019-01-21T00:50:27Z</time>
      </trkpt>
      <trkpt lat="45.20614" lon="4.72488">
        <ele>285.8</ele>
        <time>2019-01-21T00:50:58Z</time>
      </trkpt>
      <trkpt lat="45.20642" lon="4.72528">
        <ele>288.8</ele>
        <time>2019-01-21T00:51:30Z</time>
      </trkpt>
      <trkpt lat="45.20645" lon="4.72547">
        <ele>287.6</ele>
        <time>2019-01-21T00:51:40Z</time>
      </trkpt>
      <trkpt lat="45.20651" lon="4.72568">
        <ele>287.1</ele>
        <time>2019-01-21T00:51:53Z</time>
      </trkpt>
      <trkpt lat="45.20687" lon="4.72608">
        <ele>295.1</ele>
        <time>2019-01-21T00:52:30Z</time>
      </trkpt>
      <trkpt lat="45.20696" lon="4.7262">
        <ele>296.7</ele>
        <time>2019-01-21T00:52:40Z</time>
      </trkpt>
      <trkpt lat="45.20684" lon="4.72572">
        <ele>295.7</ele>
        <time>2019-01-21T00:53:09Z</time>
      </trkpt>
      <trkpt lat="45.20683" lon="4.72526">
        <ele>300.5</ele>
        <time>2019-01-21T00:53:34Z</time>
      </trkpt>
      <trkpt lat="45.2067" lon="4.72503">
        <ele>300.5</ele>
        <time>2019-01-21T00:53:51Z</time>
      </trkpt>
      <trkpt lat="45.2065" lon="4.72442">
        <ele>303.6</ele>
        <time>2019-01-21T00:54:29Z</time>
      </trkpt>
      <trkpt lat="45.20624" lon="4.72399">
        <ele>299.9</ele>
        <time>2019-01-21T00:55:01Z</time>
      </trkpt>
      <trkpt lat="45.20621" lon="4.72372">
        <ele>298.4</ele>
        <time>2019-01-21T00:55:16Z</time>
      </trkpt>
      <trkpt lat="45.20646" lon="4.72344">
        <ele>305</ele>
        <time>2019-01-21T00:55:41Z</time>
      </trkpt>
      <trkpt lat="45.20662" lon="4.72357">
        <ele>309.7</ele>
        <time>2019-01-21T00:55:56Z</time>
      </trkpt>
      <trkpt lat="45.20663" lon="4.72382">
        <ele>310.4</ele>
        <time>2019-01-21T00:56:10Z</time>
      </trkpt>
      <trkpt lat="45.20685" lon="4.72418">
        <ele>314.2</ele>
        <time>2019-01-21T00:56:37Z</time>
      </trkpt>
      <trkpt lat="45.20708" lon="4.72448">
        <ele>314.1</ele>
        <time>2019-01-21T00:57:02Z</time>
      </trkpt>
      <trkpt lat="45.20705" lon="4.72412">
        <ele>316.6</ele>
        <time>2019-01-21T00:57:22Z</time>
      </trkpt>
      <trkpt lat="45.20714" lon="4.724">
        <ele>317.7</ele>
        <time>2019-01-21T00:57:32Z</time>
      </trkpt>
      <trkpt lat="45.20731" lon="4.72401">
        <ele>319.8</ele>
        <time>2019-01-21T00:57:46Z</time>
      </trkpt>
      <trkpt lat="45.20749" lon="4.72433">
        <ele>321.1</ele>
        <time>2019-01-21T00:58:09Z</time>
      </trkpt>
      <trkpt lat="45.2078" lon="4.72446">
        <ele>324.1</ele>
        <time>2019-01-21T00:58:35Z</time>
      </trkpt>
      <trkpt lat="45.20813" lon="4.72433">
        <ele>328</ele>
        <time>2019-01-21T00:59:02Z</time>
      </trkpt>
      <trkpt lat="45.2087" lon="4.72425">
        <ele>330.8</ele>
        <time>2019-01-21T00:59:48Z</time>
      </trkpt>
      <trkpt lat="45.20899" lon="4.72441">
        <ele>332.7</ele>
        <time>2019-01-21T01:00:13Z</time>
      </trkpt>
      <trkpt lat="45.20968" lon="4.72485">
        <ele>338</ele>
        <time>2019-01-21T01:01:14Z</time>
      </trkpt>
      <trkpt lat="45.21013" lon="4.7252">
        <ele>341.1</ele>
        <time>2019-01-21T01:01:55Z</time>
      </trkpt>
      <trkpt lat="45.21039" lon="4.72553">
        <ele>343.4</ele>
        <time>2019-01-21T01:02:23Z</time>
      </trkpt>
      <trkpt lat="45.21087" lon="4.72547">
        <ele>346.8</ele>
        <time>2019-01-21T01:03:01Z</time>
      </trkpt>
      <trkpt lat="45.21112" lon="4.72535">
        <ele>348.7</ele>
        <time>2019-01-21T01:03:23Z</time>
      </trkpt>
      <trkpt lat="45.21132" lon="4.72523">
        <ele>350.6</ele>
        <time>2019-01-21T01:03:40Z</time>
      </trkpt>
      <trkpt lat="45.21184" lon="4.72546">
        <ele>353.7</ele>
        <time>2019-01-21T01:04:23Z</time>
      </trkpt>
      <trkpt lat="45.21183" lon="4.72658">
        <ele>352.1</ele>
        <time>2019-01-21T01:05:27Z</time>
      </trkpt>
      <trkpt lat="45.21171" lon="4.72772">
        <ele>356.4</ele>
        <time>2019-01-21T01:06:32Z</time>
      </trkpt>
      <trkpt lat="45.21155" lon="4.72815">
        <ele>356.9</ele>
        <time>2019-01-21T01:06:59Z</time>
      </trkpt>
      <trkpt lat="45.21119" lon="4.72891">
        <ele>355.9</ele>
        <time>2019-01-21T01:07:51Z</time>
      </trkpt>
      <trkpt lat="45.21103" lon="4.7293">
        <ele>355.5</ele>
        <time>2019-01-21T01:08:16Z</time>
      </trkpt>
      <trkpt lat="45.21107" lon="4.72986">
        <ele>357.2</ele>
        <time>2019-01-21T01:08:48Z</time>
      </trkpt>
      <trkpt lat="45.21119" lon="4.73057">
        <ele>359.5</ele>
        <time>2019-01-21T01:09:29Z</time>
      </trkpt>
      <trkpt lat="45.21125" lon="4.73119">
        <ele>360.7</ele>
        <time>2019-01-21T01:10:04Z</time>
      </trkpt>
      <trkpt lat="45.2112" lon="4.73164">
        <ele>360.5</ele>
        <time>2019-01-21T01:10:30Z</time>
      </trkpt>
      <trkpt lat="45.21124" lon="4.73238">
        <ele>361.8</ele>
        <time>2019-01-21T01:11:12Z</time>
      </trkpt>
      <trkpt lat="45.21132" lon="4.73291">
        <ele>362.5</ele>
        <time>2019-01-21T01:11:42Z</time>
      </trkpt>
      <trkpt lat="45.21145" lon="4.73298">
        <ele>362.8</ele>
        <time>2019-01-21T01:11:53Z</time>
      </trkpt>
      <trkpt lat="45.21129" lon="4.73363">
        <ele>362.5</ele>
        <time>2019-01-21T01:12:32Z</time>
      </trkpt>
      <trkpt lat="45.21116" lon="4.73402">
        <ele>362.6</ele>
        <time>2019-01-21T01:12:56Z</time>
      </trkpt>
      <trkpt lat="45.21115" lon="4.73404">
        <ele>362.6</ele>
        <time>2019-01-21T01:12:58Z</time>
      </trkpt>
      <trkpt lat="45.21153" lon="4.73442">
        <ele>362.7</ele>
        <time>2019-01-21T01:13:35Z</time>
      </trkpt>
      <trkpt lat="45.21216" lon="4.73495">
        <ele>363.4</ele>
        <time>2019-01-21T01:14:34Z</time>
      </trkpt>
      <trkpt lat="45.21241" lon="4.73436">
        <ele>362.9</ele>
        <time>2019-01-20T16:51:57Z</time>
      </trkpt>
      <trkpt lat="45.21313" lon="4.73402">
        <ele>365.5</ele>
        <time>2018-08-21T07:19:37Z</time>
      </trkpt>
      <trkpt lat="45.21403" lon="4.73378">
        <ele>369.8</ele>
        <time>2018-08-24T05:00:51Z</time>
      </trkpt>
      <trkpt lat="45.215" lon="4.73371">
        <ele>371</ele>
        <time>2018-08-27T07:14:29Z</time>
      </trkpt>
      <trkpt lat="45.21565" lon="4.73354">
        <ele>368.9</ele>
        <time>2018-08-29T09:45:11Z</time>
      </trkpt>
      <trkpt lat="45.21611" lon="4.73331">
        <ele>368.1</ele>
        <time>2018-08-30T22:25:54Z</time>
      </trkpt>
      <trkpt lat="45.21651" lon="4.73282">
        <ele>367.4</ele>
        <time>2018-09-01T14:46:38Z</time>
      </trkpt>
      <trkpt lat="45.21696" lon="4.73226">
        <ele>368.4</ele>
        <time>2018-09-03T12:49:56Z</time>
      </trkpt>
      <trkpt lat="45.21757" lon="4.73161">
        <ele>371.3</ele>
        <time>2018-09-05T22:27:21Z</time>
      </trkpt>
      <trkpt lat="45.21843" lon="4.73105">
        <ele>374.2</ele>
        <time>2018-09-08T23:13:18Z</time>
      </trkpt>
      <trkpt lat="45.21936" lon="4.73027">
        <ele>378.1</ele>
        <time>2018-09-12T09:05:26Z</time>
      </trkpt>
      <trkpt lat="45.22002" lon="4.7294">
        <ele>382.4</ele>
        <time>2018-09-15T06:05:05Z</time>
      </trkpt>
      <trkpt lat="45.22061" lon="4.72879">
        <ele>383.2</ele>
        <time>2018-09-17T13:28:24Z</time>
      </trkpt>
      <trkpt lat="45.22127" lon="4.72794">
        <ele>383.1</ele>
        <time>2018-09-20T09:38:55Z</time>
      </trkpt>
      <trkpt lat="45.22162" lon="4.72729">
        <ele>382.8</ele>
        <time>2018-09-22T05:34:13Z</time>
      </trkpt>
      <trkpt lat="45.22217" lon="4.72631">
        <ele>383.1</ele>
        <time>2018-09-25T00:34:42Z</time>
      </trkpt>
      <trkpt lat="45.22246" lon="4.72681">
        <ele>380</ele>
        <time>2018-09-26T11:38:34Z</time>
      </trkpt>
      <trkpt lat="45.22277" lon="4.7276">
        <ele>378.1</ele>
        <time>2018-09-28T12:17:30Z</time>
      </trkpt>
      <trkpt lat="45.22284" lon="4.72806">
        <ele>376.5</ele>
        <time>2018-09-29T13:34:13Z</time>
      </trkpt>
      <trkpt lat="45.22283" lon="4.72862">
        <ele>374.3</ele>
        <time>2018-09-30T19:53:30Z</time>
      </trkpt>
      <trkpt lat="45.22315" lon="4.72929">
        <ele>369.4</ele>
        <time>2018-10-02T15:30:39Z</time>
      </trkpt>
      <trkpt lat="45.22339" lon="4.7299">
        <ele>366.3</ele>
        <time>2018-10-04T04:39:00Z</time>
      </trkpt>
      <trkpt lat="45.22362" lon="4.73061">
        <ele>363.7</ele>
        <time>2018-10-05T22:49:16Z</time>
      </trkpt>
      <trkpt lat="45.22305" lon="4.73116">
        <ele>363.2</ele>
        <time>2018-10-08T03:26:02Z</time>
      </trkpt>
      <trkpt lat="45.22255" lon="4.73168">
        <ele>361.2</ele>
        <time>2018-10-10T02:55:15Z</time>
      </trkpt>
      <trkpt lat="45.22202" lon="4.73241">
        <ele>361.8</ele>
        <time>2018-10-12T11:00:39Z</time>
      </trkpt>
      <trkpt lat="45.22153" lon="4.73345">
        <ele>363.1</ele>
        <time>2018-10-15T06:12:32Z</time>
      </trkpt>
      <trkpt lat="45.22138" lon="4.73399">
        <ele>364.1</ele>
        <time>2018-10-16T13:11:10Z</time>
      </trkpt>
      <trkpt lat="45.22105" lon="4.73493">
        <ele>361.8</ele>
        <time>2018-10-18T21:44:21Z</time>
      </trkpt>
      <trkpt lat="45.22074" lon="4.73599">
        <ele>359.8</ele>
        <time>2018-10-21T11:07:25Z</time>
      </trkpt>
      <trkpt lat="45.22056" lon="4.73703">
        <ele>358.5</ele>
        <time>2018-10-23T20:39:51Z</time>
      </trkpt>
      <trkpt lat="45.22054" lon="4.73811">
        <ele>357</ele>
        <time>2018-10-26T07:05:27Z</time>
      </trkpt>
      <trkpt lat="45.22064" lon="4.73912">
        <ele>355</ele>
        <time>2018-10-28T13:46:22Z</time>
      </trkpt>
      <trkpt lat="45.2209" lon="4.73995">
        <ele>353.6</ele>
        <time>2018-10-30T14:32:12Z</time>
      </trkpt>
      <trkpt lat="45.2213" lon="4.74088">
        <ele>352.9</ele>
        <time>2018-11-02T00:52:11Z</time>
      </trkpt>
      <trkpt lat="45.22143" lon="4.7412">
        <ele>353.8</ele>
        <time>2018-11-02T20:45:27Z</time>
      </trkpt>
      <trkpt lat="45.22165" lon="4.74175">
        <ele>355.2</ele>
        <time>2018-11-04T06:46:51Z</time>
      </trkpt>
      <trkpt lat="45.22101" lon="4.74141">
        <ele>352.1</ele>
        <time>2018-11-06T10:56:38Z</time>
      </trkpt>
      <trkpt lat="45.22063" lon="4.74178">
        <ele>352.3</ele>
        <time>2018-11-07T22:01:19Z</time>
      </trkpt>
      <trkpt lat="45.22046" lon="4.74209">
        <ele>353.4</ele>
        <time>2018-11-08T18:42:55Z</time>
      </trkpt>
      <trkpt lat="45.22014" lon="4.74264">
        <ele>353.5</ele>
        <time>2018-11-10T09:16:51Z</time>
      </trkpt>
      <trkpt lat="45.21998" lon="4.74285">
        <ele>352.5</ele>
        <time>2018-11-11T02:18:46Z</time>
      </trkpt>
      <trkpt lat="45.21967" lon="4.74296">
        <ele>351.5</ele>
        <time>2018-11-12T02:20:29Z</time>
      </trkpt>
      <trkpt lat="45.21953" lon="4.74288">
        <ele>351.1</ele>
        <time>2018-11-12T13:29:42Z</time>
      </trkpt>
      <trkpt lat="45.21938" lon="4.74285">
        <ele>350.7</ele>
        <time>2018-11-13T01:14:15Z</time>
      </trkpt>
      <trkpt lat="45.21929" lon="4.74282">
        <ele>350.4</ele>
        <time>2018-11-13T08:24:40Z</time>
      </trkpt>
      <trkpt lat="45.21906" lon="4.74294">
        <ele>349.5</ele>
        <time>2018-11-14T03:36:11Z</time>
      </trkpt>
      <trkpt lat="45.21879" lon="4.74316">
        <ele>348.4</ele>
        <time>2018-11-15T03:20:23Z</time>
      </trkpt>
      <trkpt lat="45.2186" lon="4.74315">
        <ele>347.6</ele>
        <time>2018-11-15T17:46:21Z</time>
      </trkpt>
      <trkpt lat="45.21837" lon="4.74335">
        <ele>347.2</ele>
        <time>2018-11-16T14:12:32Z</time>
      </trkpt>
      <trkpt lat="45.21817" lon="4.74375">
        <ele>348.3</ele>
        <time>2018-11-17T16:22:15Z</time>
      </trkpt>
      <trkpt lat="45.21795" lon="4.74417">
        <ele>348.7</ele>
        <time>2018-11-18T20:49:26Z</time>
      </trkpt>
      <trkpt lat="45.21774" lon="4.7444">
        <ele>348.2</ele>
        <time>2018-11-19T16:55:04Z</time>
      </trkpt>
      <trkpt lat="45.21759" lon="4.74449">
        <ele>347.6</ele>
        <time>2018-11-20T05:32:09Z</time>
      </trkpt>
      <trkpt lat="45.21742" lon="4.74466">
        <ele>347.4</ele>
        <time>2018-11-20T20:51:35Z</time>
      </trkpt>
      <trkpt lat="45.21734" lon="4.74502">
        <ele>348.9</ele>
        <time>2018-11-21T17:06:51Z</time>
      </trkpt>
      <trkpt lat="45.21727" lon="4.7454">
        <ele>350.6</ele>
        <time>2018-11-22T14:28:27Z</time>
      </trkpt>
      <trkpt lat="45.21726" lon="4.74583">
        <ele>352.9</ele>
        <time>2018-11-23T13:14:22Z</time>
      </trkpt>
      <trkpt lat="45.21725" lon="4.74597">
        <ele>353.4</ele>
        <time>2018-11-23T20:50:47Z</time>
      </trkpt>
      <trkpt lat="45.21723" lon="4.74602">
        <ele>353.4</ele>
        <time>2018-11-23T23:54:50Z</time>
      </trkpt>
      <trkpt lat="45.21726" lon="4.74613">
        <ele>354.1</ele>
        <time>2018-11-24T06:26:13Z</time>
      </trkpt>
      <trkpt lat="45.21718" lon="4.74619">
        <ele>353.6</ele>
        <time>2018-11-24T13:17:12Z</time>
      </trkpt>
      <trkpt lat="45.21709" lon="4.74617">
        <ele>352.8</ele>
        <time>2018-11-24T20:12:02Z</time>
      </trkpt>
      <trkpt lat="45.21694" lon="4.74624">
        <ele>351.8</ele>
        <time>2018-11-25T07:43:15Z</time>
      </trkpt>
      <trkpt lat="45.2168" lon="4.74623">
        <ele>350.5</ele>
        <time>2018-11-25T18:53:56Z</time>
      </trkpt>
      <trkpt lat="45.21664" lon="4.74625">
        <ele>349.3</ele>
        <time>2018-11-26T06:48:46Z</time>
      </trkpt>
      <trkpt lat="45.21641" lon="4.74635">
        <ele>348.2</ele>
        <time>2018-11-27T01:03:06Z</time>
      </trkpt>
      <trkpt lat="45.21632" lon="4.74654">
        <ele>348.4</ele>
        <time>2018-11-27T13:41:37Z</time>
      </trkpt>
      <trkpt lat="45.21609" lon="4.74675">
        <ele>348</ele>
        <time>2018-11-28T10:33:49Z</time>
      </trkpt>
      <trkpt lat="45.21598" lon="4.74702">
        <ele>348.9</ele>
        <time>2018-11-29T02:51:34Z</time>
      </trkpt>
      <trkpt lat="45.21589" lon="4.74739">
        <ele>350.6</ele>
        <time>2018-11-30T00:19:44Z</time>
      </trkpt>
      <trkpt lat="45.21622" lon="4.74772">
        <ele>353.6</ele>
        <time>2018-12-01T07:30:06Z</time>
      </trkpt>
      <trkpt lat="45.21703" lon="4.74833">
        <ele>359.3</ele>
        <time>2018-12-04T05:27:24Z</time>
      </trkpt>
      <trkpt lat="45.21684" lon="4.7489">
        <ele>359.6</ele>
        <time>2018-12-05T15:41:39Z</time>
      </trkpt>
      <trkpt lat="45.21675" lon="4.74947">
        <ele>360.4</ele>
        <time>2018-12-06T23:14:30Z</time>
      </trkpt>
      <trkpt lat="45.21669" lon="4.75">
        <ele>362</ele>
        <time>2018-12-08T03:39:26Z</time>
      </trkpt>
      <trkpt lat="45.2167" lon="4.75048">
        <ele>362.6</ele>
        <time>2018-12-09T05:33:34Z</time>
      </trkpt>
      <trkpt lat="45.21675" lon="4.75072">
        <ele>363.1</ele>
        <time>2018-12-09T19:04:37Z</time>
      </trkpt>
      <trkpt lat="45.21629" lon="4.75075">
        <ele>362.9</ele>
        <time>2018-12-11T06:09:46Z</time>
      </trkpt>
      <trkpt lat="45.21593" lon="4.75066">
        <ele>362.8</ele>
        <time>2018-12-12T10:06:27Z</time>
      </trkpt>
      <trkpt lat="45.21567" lon="4.75057">
        <ele>363.1</ele>
        <time>2018-12-13T06:38:54Z</time>
      </trkpt>
      <trkpt lat="45.21553" lon="4.7508">
        <ele>363.7</ele>
        <time>2018-12-13T22:45:43Z</time>
      </trkpt>
      <trkpt lat="45.21541" lon="4.75082">
        <ele>364</ele>
        <time>2018-12-14T07:58:20Z</time>
      </trkpt>
      <trkpt lat="45.21505" lon="4.75099">
        <ele>363.4</ele>
        <time>2018-12-15T13:32:59Z</time>
      </trkpt>
      <trkpt lat="45.21478" lon="4.75121">
        <ele>359.4</ele>
        <time>2018-12-16T13:23:27Z</time>
      </trkpt>
      <trkpt lat="45.21462" lon="4.75128">
        <ele>357.3</ele>
        <time>2018-12-17T01:57:00Z</time>
      </trkpt>
      <trkpt lat="45.2145" lon="4.75128">
        <ele>356.2</ele>
        <time>2018-12-17T11:07:42Z</time>
      </trkpt>
      <trkpt lat="45.2143" lon="4.7515">
        <ele>352.2</ele>
        <time>2018-12-18T06:11:01Z</time>
      </trkpt>
      <trkpt lat="45.21413" lon="4.75136">
        <ele>352</ele>
        <time>2018-12-18T21:23:43Z</time>
      </trkpt>
      <trkpt lat="45.21402" lon="4.75139">
        <ele>350.7</ele>
        <time>2018-12-19T05:44:57Z</time>
      </trkpt>
      <trkpt lat="45.21378" lon="4.75159">
        <ele>347.3</ele>
        <time>2018-12-20T02:50:38Z</time>
      </trkpt>
      <trkpt lat="45.21366" lon="4.75165">
        <ele>346.1</ele>
        <time>2018-12-20T12:09:51Z</time>
      </trkpt>
      <trkpt lat="45.21362" lon="4.75159">
        <ele>346.2</ele>
        <time>2018-12-20T17:07:46Z</time>
      </trkpt>
      <trkpt lat="45.21362" lon="4.75136">
        <ele>347.3</ele>
        <time>2018-12-21T05:00:41Z</time>
      </trkpt>
      <trkpt lat="45.21367" lon="4.75125">
        <ele>348.5</ele>
        <time>2018-12-21T12:23:08Z</time>
      </trkpt>
      <trkpt lat="45.21385" lon="4.75105">
        <ele>351.8</ele>
        <time>2018-12-22T05:48:19Z</time>
      </trkpt>
      <trkpt lat="45.21386" lon="4.75069">
        <ele>353.7</ele>
        <time>2018-12-23T01:14:17Z</time>
      </trkpt>
      <trkpt lat="45.21379" lon="4.75033">
        <ele>352.8</ele>
        <time>2018-12-23T21:26:30Z</time>
      </trkpt>
      <trkpt lat="45.21378" lon="4.74997">
        <ele>352.6</ele>
        <time>2018-12-24T16:49:54Z</time>
      </trkpt>
      <trkpt lat="45.21384" lon="4.74979">
        <ele>351.8</ele>
        <time>2018-12-25T03:40:39Z</time>
      </trkpt>
      <trkpt lat="45.21383" lon="4.74942">
        <ele>348.3</ele>
        <time>2018-12-25T23:16:05Z</time>
      </trkpt>
      <trkpt lat="45.21383" lon="4.74899">
        <ele>344.4</ele>
        <time>2018-12-26T22:40:14Z</time>
      </trkpt>
      <trkpt lat="45.21376" lon="4.7488">
        <ele>341.9</ele>
        <time>2018-12-27T10:09:03Z</time>
      </trkpt>
      <trkpt lat="45.21383" lon="4.74857">
        <ele>340.7</ele>
        <time>2018-12-27T23:29:58Z</time>
      </trkpt>
      <trkpt lat="45.21397" lon="4.74846">
        <ele>341.8</ele>
        <time>2018-12-28T11:52:25Z</time>
      </trkpt>
      <trkpt lat="45.21408" lon="4.74801">
        <ele>341.6</ele>
        <time>2018-12-29T13:26:38Z</time>
      </trkpt>
      <trkpt lat="45.2141" lon="4.74781">
        <ele>341.4</ele>
        <time>2018-12-30T00:26:33Z</time>
      </trkpt>
      <trkpt lat="45.21409" lon="4.74765">
        <ele>340.7</ele>
        <time>2018-12-30T08:38:09Z</time>
      </trkpt>
      <trkpt lat="45.21417" lon="4.74726">
        <ele>339.2</ele>
        <time>2018-12-31T06:31:42Z</time>
      </trkpt>
      <trkpt lat="45.21441" lon="4.74679">
        <ele>338.1</ele>
        <time>2019-01-01T13:52:11Z</time>
      </trkpt>
      <trkpt lat="45.21444" lon="4.74654">
        <ele>337.4</ele>
        <time>2019-01-02T03:36:33Z</time>
      </trkpt>
      <trkpt lat="45.21443" lon="4.74628">
        <ele>336.9</ele>
        <time>2019-01-02T17:43:04Z</time>
      </trkpt>
      <trkpt lat="45.21447" lon="4.7461">
        <ele>336.9</ele>
        <time>2019-01-03T03:49:01Z</time>
      </trkpt>
      <trkpt lat="45.21447" lon="4.74583">
        <ele>336.4</ele>
        <time>2019-01-03T17:49:46Z</time>
      </trkpt>
      <trkpt lat="45.21437" lon="4.74547">
        <ele>338</ele>
        <time>2019-01-04T14:30:54Z</time>
      </trkpt>
      <trkpt lat="45.21427" lon="4.74522">
        <ele>339.4</ele>
        <time>2019-01-05T06:17:38Z</time>
      </trkpt>
      <trkpt lat="45.2136" lon="4.7445">
        <ele>342.7</ele>
        <time>2019-01-07T22:27:34Z</time>
      </trkpt>
      <trkpt lat="45.21349" lon="4.74375">
        <ele>348.2</ele>
        <time>2019-01-09T15:36:58Z</time>
      </trkpt>
      <trkpt lat="45.21283" lon="4.74317">
        <ele>354.6</ele>
        <time>2019-01-12T02:33:53Z</time>
      </trkpt>
      <trkpt lat="45.21254" lon="4.74273">
        <ele>357.1</ele>
        <time>2019-01-13T11:10:48Z</time>
      </trkpt>
      <trkpt lat="45.21221" lon="4.74224">
        <ele>359.6</ele>
        <time>2019-01-14T23:57:18Z</time>
      </trkpt>
      <trkpt lat="45.21165" lon="4.74162">
        <ele>362.2</ele>
        <time>2019-01-17T06:03:41Z</time>
      </trkpt>
      <trkpt lat="45.21105" lon="4.74309">
        <ele>357.9</ele>
        <time>2019-01-21T01:22:36Z</time>
      </trkpt>
      <trkpt lat="45.21066" lon="4.74391">
        <ele>355.4</ele>
        <time>2019-01-21T01:23:32Z</time>
      </trkpt>
      <trkpt lat="45.2101" lon="4.74494">
        <ele>353.8</ele>
        <time>2019-01-21T01:24:45Z</time>
      </trkpt>
      <trkpt lat="45.20949" lon="4.74604">
        <ele>354.8</ele>
        <time>2019-01-21T01:26:04Z</time>
      </trkpt>
      <trkpt lat="45.20917" lon="4.74653">
        <ele>356.8</ele>
        <time>2019-01-21T01:26:42Z</time>
      </trkpt>
      <trkpt lat="45.20904" lon="4.7469">
        <ele>357.9</ele>
        <time>2019-01-21T01:27:05Z</time>
      </trkpt>
      <trkpt lat="45.20887" lon="4.74749">
        <ele>359.8</ele>
        <time>2019-01-21T01:27:41Z</time>
      </trkpt>
      <trkpt lat="45.20867" lon="4.74819">
        <ele>363.8</ele>
        <time>2019-01-21T01:28:24Z</time>
      </trkpt>
      <trkpt lat="45.2085" lon="4.74862">
        <ele>364.7</ele>
        <time>2019-01-21T01:28:51Z</time>
      </trkpt>
      <trkpt lat="45.20825" lon="4.74924">
        <ele>364.7</ele>
        <time>2019-01-21T01:29:32Z</time>
      </trkpt>
      <trkpt lat="45.20804" lon="4.74975">
        <ele>361.8</ele>
        <time>2019-01-21T01:30:05Z</time>
      </trkpt>
      <trkpt lat="45.20794" lon="4.74995">
        <ele>361.1</ele>
        <time>2019-01-21T01:30:18Z</time>
      </trkpt>
      <trkpt lat="45.20773" lon="4.75005">
        <ele>362.1</ele>
        <time>2019-01-21T01:30:37Z</time>
      </trkpt>
      <trkpt lat="45.2075" lon="4.75093">
        <ele>359.2</ele>
        <time>2019-01-21T01:31:30Z</time>
      </trkpt>
      <trkpt lat="45.2077" lon="4.75111">
        <ele>355</ele>
        <time>2019-01-21T01:31:48Z</time>
      </trkpt>
      <trkpt lat="45.20772" lon="4.75189">
        <ele>347.7</ele>
        <time>2019-01-21T01:32:32Z</time>
      </trkpt>
      <trkpt lat="45.20756" lon="4.75247">
        <ele>346.3</ele>
        <time>2019-01-21T01:33:08Z</time>
      </trkpt>
      <trkpt lat="45.20746" lon="4.75283">
        <ele>345</ele>
        <time>2019-01-21T01:33:29Z</time>
      </trkpt>
      <trkpt lat="45.20749" lon="4.75326">
        <ele>340.8</ele>
        <time>2019-01-21T01:33:54Z</time>
      </trkpt>
      <trkpt lat="45.2074" lon="4.7537">
        <ele>340</ele>
        <time>2019-01-21T01:34:20Z</time>
      </trkpt>
      <trkpt lat="45.20743" lon="4.75412">
        <ele>337.3</ele>
        <time>2019-01-21T01:34:43Z</time>
      </trkpt>
      <trkpt lat="45.20749" lon="4.75416">
        <ele>336.3</ele>
        <time>2019-01-21T01:34:48Z</time>
      </trkpt>
      <trkpt lat="45.20735" lon="4.75442">
        <ele>334.3</ele>
        <time>2019-01-21T01:35:06Z</time>
      </trkpt>
      <trkpt lat="45.20724" lon="4.75465">
        <ele>332.1</ele>
        <time>2019-01-21T01:35:22Z</time>
      </trkpt>
      <trkpt lat="45.20697" lon="4.75508">
        <ele>328.3</ele>
        <time>2019-01-21T01:35:54Z</time>
      </trkpt>
      <trkpt lat="45.20707" lon="4.75533">
        <ele>318</ele>
        <time>2019-01-21T01:36:11Z</time>
      </trkpt>
      <trkpt lat="45.20705" lon="4.75568">
        <ele>306.3</ele>
        <time>2019-01-21T01:36:31Z</time>
      </trkpt>
      <trkpt lat="45.20701" lon="4.75592">
        <ele>299.2</ele>
        <time>2019-01-21T01:36:44Z</time>
      </trkpt>
      <trkpt lat="45.20686" lon="4.75601">
        <ele>299.3</ele>
        <time>2019-01-21T01:36:57Z</time>
      </trkpt>
      <trkpt lat="45.20688" lon="4.75628">
        <ele>288.6</ele>
        <time>2019-01-21T01:37:12Z</time>
      </trkpt>
      <trkpt lat="45.2069" lon="4.75663">
        <ele>275.2</ele>
        <time>2019-01-21T01:37:32Z</time>
      </trkpt>
      <trkpt lat="45.20668" lon="4.75627">
        <ele>291.7</ele>
        <time>2019-01-21T01:37:59Z</time>
      </trkpt>
      <trkpt lat="45.20667" lon="4.7564">
        <ele>286.1</ele>
        <time>2019-01-21T01:38:07Z</time>
      </trkpt>
      <trkpt lat="45.2066" lon="4.75636">
        <ele>288.1</ele>
        <time>2019-01-21T01:38:13Z</time>
      </trkpt>
      <trkpt lat="45.20652" lon="4.75644">
        <ele>285.1</ele>
        <time>2019-01-21T01:38:20Z</time>
      </trkpt>
      <trkpt lat="45.20649" lon="4.75645">
        <ele>284.7</ele>
        <time>2019-01-21T01:38:23Z</time>
      </trkpt>
      <trkpt lat="45.20653" lon="4.75656">
        <ele>280</ele>
        <time>2019-01-21T01:38:30Z</time>
      </trkpt>
      <trkpt lat="45.20645" lon="4.75659">
        <ele>279.4</ele>
        <time>2019-01-21T01:38:37Z</time>
      </trkpt>
      <trkpt lat="45.20655" lon="4.75684">
        <ele>270.7</ele>
        <time>2019-01-21T01:38:54Z</time>
      </trkpt>
      <trkpt lat="45.20637" lon="4.75683">
        <ele>272</ele>
        <time>2019-01-21T01:39:08Z</time>
      </trkpt>
      <trkpt lat="45.20639" lon="4.75698">
        <ele>268.1</ele>
        <time>2019-01-21T01:39:17Z</time>
      </trkpt>
      <trkpt lat="45.20635" lon="4.75708">
        <ele>265.4</ele>
        <time>2019-01-21T01:39:23Z</time>
      </trkpt>
      <trkpt lat="45.2064" lon="4.75716">
        <ele>262.9</ele>
        <time>2019-01-21T01:39:29Z</time>
      </trkpt>
      <trkpt lat="45.20641" lon="4.75738">
        <ele>257.1</ele>
        <time>2019-01-21T01:39:41Z</time>
      </trkpt>
      <trkpt lat="45.20641" lon="4.75752">
        <ele>253.8</ele>
        <time>2019-01-21T01:39:49Z</time>
      </trkpt>
      <trkpt lat="45.20638" lon="4.75755">
        <ele>253.2</ele>
        <time>2019-01-21T01:39:52Z</time>
      </trkpt>
      <trkpt lat="45.20628" lon="4.75742">
        <ele>255.8</ele>
        <time>2019-01-21T01:40:03Z</time>
      </trkpt>
      <trkpt lat="45.20627" lon="4.75748">
        <ele>254.3</ele>
        <time>2019-01-21T01:40:06Z</time>
      </trkpt>
      <trkpt lat="45.20631" lon="4.75763">
        <ele>251.2</ele>
        <time>2019-01-21T01:40:15Z</time>
      </trkpt>
      <trkpt lat="45.2063" lon="4.75778">
        <ele>247.7</ele>
        <time>2019-01-21T01:40:24Z</time>
      </trkpt>
      <trkpt lat="45.20635" lon="4.75801">
        <ele>243.4</ele>
        <time>2019-01-21T01:40:37Z</time>
      </trkpt>
      <trkpt lat="45.20639" lon="4.75815">
        <ele>241.3</ele>
        <time>2019-01-21T01:40:46Z</time>
      </trkpt>
      <trkpt lat="45.20639" lon="4.75815">
        <ele>241.3</ele>
        <time>2019-01-21T01:40:46Z</time>
      </trkpt>
      <trkpt lat="45.20644" lon="4.75826">
        <ele>240.5</ele>
        <time>2019-01-21T01:40:53Z</time>
      </trkpt>
      <trkpt lat="45.20649" lon="4.75845">
        <ele>238.5</ele>
        <time>2019-01-21T01:41:05Z</time>
      </trkpt>
      <trkpt lat="45.20655" lon="4.75867">
        <ele>237.2</ele>
        <time>2019-01-21T01:41:17Z</time>
      </trkpt>
      <trkpt lat="45.20659" lon="4.75885">
        <ele>236</ele>
        <time>2019-01-21T01:41:28Z</time>
      </trkpt>
      <trkpt lat="45.20664" lon="4.75906">
        <ele>235.4</ele>
        <time>2019-01-21T01:41:41Z</time>
      </trkpt>
      <trkpt lat="45.20674" lon="4.75921">
        <ele>240.2</ele>
        <time>2019-01-21T01:41:52Z</time>
      </trkpt>
      <trkpt lat="45.20674" lon="4.75921">
        <ele>240.2</ele>
        <time>2019-01-21T01:41:52Z</time>
      </trkpt>
      <trkpt lat="45.20703" lon="4.75931">
        <ele>262.2</ele>
        <time>2019-01-21T01:42:16Z</time>
      </trkpt>
      <trkpt lat="45.2072" lon="4.75945">
        <ele>273.4</ele>
        <time>2019-01-21T01:42:32Z</time>
      </trkpt>
      <trkpt lat="45.20703" lon="4.76006">
        <ele>257.1</ele>
        <time>2019-01-21T01:43:09Z</time>
      </trkpt>
      <trkpt lat="45.20702" lon="4.76042">
        <ele>249.6</ele>
        <time>2019-01-21T01:43:29Z</time>
      </trkpt>
      <trkpt lat="45.20714" lon="4.76078">
        <ele>249.5</ele>
        <time>2019-01-21T01:43:52Z</time>
      </trkpt>
      <trkpt lat="45.20752" lon="4.76168">
        <ele>242.2</ele>
        <time>2019-01-21T01:44:51Z</time>
      </trkpt>
      <trkpt lat="45.20773" lon="4.76193">
        <ele>244.9</ele>
        <time>2019-01-21T01:45:12Z</time>
      </trkpt>
      <trkpt lat="45.20774" lon="4.76206">
        <ele>241.9</ele>
        <time>2019-01-20T19:01:18Z</time>
      </trkpt>
      <trkpt lat="45.20802" lon="4.76276">
        <ele>232.6</ele>
        <time>2019-01-20T19:02:03Z</time>
      </trkpt>
      <trkpt lat="45.20829" lon="4.76308">
        <ele>234</ele>
        <time>2019-01-20T19:02:31Z</time>
      </trkpt>
      <trkpt lat="45.20852" lon="4.76348">
        <ele>229.1</ele>
        <time>2019-01-20T19:03:00Z</time>
      </trkpt>
      <trkpt lat="45.20873" lon="4.76377">
        <ele>225.9</ele>
        <time>2019-01-20T19:03:24Z</time>
      </trkpt>
      <trkpt lat="45.20889" lon="4.7639">
        <ele>227.1</ele>
        <time>2019-01-20T19:03:39Z</time>
      </trkpt>
      <trkpt lat="45.20919" lon="4.764">
        <ele>234.7</ele>
        <time>2019-01-20T19:04:03Z</time>
      </trkpt>
      <trkpt lat="45.20948" lon="4.7642">
        <ele>242.4</ele>
        <time>2019-01-20T19:04:29Z</time>
      </trkpt>
      <trkpt lat="45.20971" lon="4.76453">
        <ele>246.5</ele>
        <time>2019-01-20T19:04:55Z</time>
      </trkpt>
      <trkpt lat="45.20988" lon="4.76476">
        <ele>251.7</ele>
        <time>2019-01-20T19:05:14Z</time>
      </trkpt>
      <trkpt lat="45.21001" lon="4.76514">
        <ele>255.7</ele>
        <time>2019-01-20T19:05:38Z</time>
      </trkpt>
      <trkpt lat="45.21001" lon="4.76548">
        <ele>258.7</ele>
        <time>2019-01-20T19:05:57Z</time>
      </trkpt>
      <trkpt lat="45.21" lon="4.76579">
        <ele>260.6</ele>
        <time>2019-01-20T19:06:14Z</time>
      </trkpt>
      <trkpt lat="45.2098" lon="4.76602">
        <ele>249.1</ele>
        <time>2019-01-20T19:06:35Z</time>
      </trkpt>
      <trkpt lat="45.20964" lon="4.76622">
        <ele>241.9</ele>
        <time>2019-01-20T19:06:52Z</time>
      </trkpt>
      <trkpt lat="45.20949" lon="4.76652">
        <ele>239.9</ele>
        <time>2019-01-20T19:07:13Z</time>
      </trkpt>
      <trkpt lat="45.20938" lon="4.76669">
        <ele>238.9</ele>
        <time>2019-01-20T19:07:26Z</time>
      </trkpt>
      <trkpt lat="45.20927" lon="4.76692">
        <ele>239.7</ele>
        <time>2019-01-20T19:07:41Z</time>
      </trkpt>
      <trkpt lat="45.20918" lon="4.76711">
        <ele>241.2</ele>
        <time>2019-01-20T19:07:55Z</time>
      </trkpt>
      <trkpt lat="45.20913" lon="4.76735">
        <ele>245.8</ele>
        <time>2019-01-20T19:08:08Z</time>
      </trkpt>
      <trkpt lat="45.20913" lon="4.76735">
        <ele>245.8</ele>
        <time>2019-01-20T19:08:08Z</time>
      </trkpt>
      <trkpt lat="45.20909" lon="4.76759">
        <ele>248.3</ele>
        <time>2019-01-20T19:08:22Z</time>
      </trkpt>
      <trkpt lat="45.20912" lon="4.76764">
        <ele>250</ele>
        <time>2019-01-20T19:08:26Z</time>
      </trkpt>
      <trkpt lat="45.20925" lon="4.76772">
        <ele>256.3</ele>
        <time>2019-01-20T19:08:38Z</time>
      </trkpt>
      <trkpt lat="45.20923" lon="4.76759">
        <ele>254.9</ele>
        <time>2019-01-20T19:08:45Z</time>
      </trkpt>
      <trkpt lat="45.20924" lon="4.76739">
        <ele>251.7</ele>
        <time>2019-01-20T19:08:56Z</time>
      </trkpt>
      <trkpt lat="45.20926" lon="4.76745">
        <ele>254.2</ele>
        <time>2019-01-20T19:09:00Z</time>
      </trkpt>
      <trkpt lat="45.20929" lon="4.76758">
        <ele>257.3</ele>
        <time>2019-01-20T19:09:07Z</time>
      </trkpt>
      <trkpt lat="45.20937" lon="4.76765">
        <ele>260.8</ele>
        <time>2019-01-20T19:09:15Z</time>
      </trkpt>
      <trkpt lat="45.20945" lon="4.76772">
        <ele>264.4</ele>
        <time>2019-01-20T19:09:23Z</time>
      </trkpt>
      <trkpt lat="45.20946" lon="4.76756">
        <ele>263.9</ele>
        <time>2019-01-20T19:09:32Z</time>
      </trkpt>
      <trkpt lat="45.20952" lon="4.76733">
        <ele>261.5</ele>
        <time>2019-01-20T19:09:45Z</time>
      </trkpt>
      <trkpt lat="45.20957" lon="4.7673">
        <ele>263</ele>
        <time>2019-01-20T19:09:50Z</time>
      </trkpt>
      <trkpt lat="45.20959" lon="4.7674">
        <ele>266.1</ele>
        <time>2019-01-20T19:09:55Z</time>
      </trkpt>
      <trkpt lat="45.20967" lon="4.76756">
        <ele>272.2</ele>
        <time>2019-01-20T19:10:06Z</time>
      </trkpt>
      <trkpt lat="45.20973" lon="4.76773">
        <ele>275.2</ele>
        <time>2019-01-20T19:10:17Z</time>
      </trkpt>
      <trkpt lat="45.20978" lon="4.76782">
        <ele>277.7</ele>
        <time>2019-01-20T19:10:24Z</time>
      </trkpt>
      <trkpt lat="45.20987" lon="4.76796">
        <ele>281.9</ele>
        <time>2019-01-20T19:10:34Z</time>
      </trkpt>
      <trkpt lat="45.20993" lon="4.76804">
        <ele>284.9</ele>
        <time>2019-01-20T19:10:41Z</time>
      </trkpt>
      <trkpt lat="45.20994" lon="4.76815">
        <ele>285.7</ele>
        <time>2019-01-20T19:10:47Z</time>
      </trkpt>
      <trkpt lat="45.2099" lon="4.76842">
        <ele>284.3</ele>
        <time>2019-01-20T19:11:03Z</time>
      </trkpt>
      <trkpt lat="45.20981" lon="4.76855">
        <ele>279.2</ele>
        <time>2019-01-20T19:11:14Z</time>
      </trkpt>
      <trkpt lat="45.20981" lon="4.76855">
        <ele>279.2</ele>
        <time>2019-01-20T19:11:14Z</time>
      </trkpt>
      <trkpt lat="45.20985" lon="4.76871">
        <ele>279.3</ele>
        <time>2019-01-20T19:11:23Z</time>
      </trkpt>
      <trkpt lat="45.20985" lon="4.76871">
        <ele>279.3</ele>
        <time>2019-01-20T19:11:23Z</time>
      </trkpt>
      <trkpt lat="45.20994" lon="4.76871">
        <ele>282.6</ele>
        <time>2019-01-20T19:11:30Z</time>
      </trkpt>
      <trkpt lat="45.20994" lon="4.76871">
        <ele>282.6</ele>
        <time>2019-01-20T19:11:30Z</time>
      </trkpt>
      <trkpt lat="45.21001" lon="4.7687">
        <ele>285.3</ele>
        <time>2019-01-20T19:11:36Z</time>
      </trkpt>
      <trkpt lat="45.21001" lon="4.76864">
        <ele>286.1</ele>
        <time>2019-01-20T19:11:39Z</time>
      </trkpt>
      <trkpt lat="45.21001" lon="4.76864">
        <ele>286.1</ele>
        <time>2019-01-20T19:11:39Z</time>
      </trkpt>
      <trkpt lat="45.21005" lon="4.76856">
        <ele>287.6</ele>
        <time>2019-01-20T19:11:45Z</time>
      </trkpt>
      <trkpt lat="45.21014" lon="4.76847">
        <ele>290.5</ele>
        <time>2019-01-20T19:11:54Z</time>
      </trkpt>
      <trkpt lat="45.21022" lon="4.76841">
        <ele>292.9</ele>
        <time>2019-01-20T19:12:01Z</time>
      </trkpt>
      <trkpt lat="45.21028" lon="4.76855">
        <ele>292.7</ele>
        <time>2019-01-20T19:12:10Z</time>
      </trkpt>
      <trkpt lat="45.21031" lon="4.76873">
        <ele>291.5</ele>
        <time>2019-01-20T19:12:21Z</time>
      </trkpt>
      <trkpt lat="45.21034" lon="4.76862">
        <ele>293.4</ele>
        <time>2019-01-20T19:12:27Z</time>
      </trkpt>
      <trkpt lat="45.21036" lon="4.76855">
        <ele>294.6</ele>
        <time>2019-01-20T19:12:32Z</time>
      </trkpt>
      <trkpt lat="45.21037" lon="4.76855">
        <ele>294.8</ele>
        <time>2019-01-20T19:12:33Z</time>
      </trkpt>
      <trkpt lat="45.2105" lon="4.7686">
        <ele>296.9</ele>
        <time>2019-01-20T19:12:43Z</time>
      </trkpt>
      <trkpt lat="45.21059" lon="4.76864">
        <ele>298.4</ele>
        <time>2019-01-20T19:12:51Z</time>
      </trkpt>
      <trkpt lat="45.21071" lon="4.76871">
        <ele>300.4</ele>
        <time>2019-01-20T19:13:02Z</time>
      </trkpt>
      <trkpt lat="45.21082" lon="4.76875">
        <ele>302.3</ele>
        <time>2019-01-20T19:13:11Z</time>
      </trkpt>
      <trkpt lat="45.21098" lon="4.7688">
        <ele>305.4</ele>
        <time>2019-01-20T19:13:23Z</time>
      </trkpt>
      <trkpt lat="45.21105" lon="4.76879">
        <ele>307.4</ele>
        <time>2019-01-20T19:13:29Z</time>
      </trkpt>
      <trkpt lat="45.21118" lon="4.76879">
        <ele>310.5</ele>
        <time>2019-01-20T19:13:40Z</time>
      </trkpt>
      <trkpt lat="45.21132" lon="4.76879">
        <ele>313.8</ele>
        <time>2019-01-20T19:13:50Z</time>
      </trkpt>
      <trkpt lat="45.21137" lon="4.76887">
        <ele>314.6</ele>
        <time>2019-01-20T19:13:57Z</time>
      </trkpt>
      <trkpt lat="45.21149" lon="4.76898">
        <ele>316.6</ele>
        <time>2019-01-20T19:14:08Z</time>
      </trkpt>
      <trkpt lat="45.21156" lon="4.76909">
        <ele>317.8</ele>
        <time>2019-01-20T19:14:17Z</time>
      </trkpt>
      <trkpt lat="45.21166" lon="4.76915">
        <ele>319.9</ele>
        <time>2019-01-20T19:14:25Z</time>
      </trkpt>
      <trkpt lat="45.21173" lon="4.76912">
        <ele>321.6</ele>
        <time>2019-01-20T19:14:31Z</time>
      </trkpt>
      <trkpt lat="45.21179" lon="4.76899">
        <ele>323.6</ele>
        <time>2019-01-20T19:14:40Z</time>
      </trkpt>
      <trkpt lat="45.21195" lon="4.76893">
        <ele>327.2</ele>
        <time>2019-01-20T19:14:53Z</time>
      </trkpt>
      <trkpt lat="45.21208" lon="4.76886">
        <ele>330.1</ele>
        <time>2019-01-20T19:15:04Z</time>
      </trkpt>
      <trkpt lat="45.21222" lon="4.76874">
        <ele>333.1</ele>
        <time>2019-01-20T19:15:17Z</time>
      </trkpt>
      <trkpt lat="45.21229" lon="4.76868">
        <ele>334.7</ele>
        <time>2019-01-20T19:15:24Z</time>
      </trkpt>
      <trkpt lat="45.21242" lon="4.76889">
        <ele>336.9</ele>
        <time>2019-01-20T19:15:40Z</time>
      </trkpt>
      <trkpt lat="45.21275" lon="4.7692">
        <ele>340</ele>
        <time>2019-01-20T19:16:12Z</time>
      </trkpt>
      <trkpt lat="45.21291" lon="4.76931">
        <ele>340.7</ele>
        <time>2019-01-20T19:16:26Z</time>
      </trkpt>
      <trkpt lat="45.21312" lon="4.76943">
        <ele>342</ele>
        <time>2019-01-20T19:16:44Z</time>
      </trkpt>
      <trkpt lat="45.21329" lon="4.76949">
        <ele>343.6</ele>
        <time>2019-01-20T19:16:58Z</time>
      </trkpt>
      <trkpt lat="45.21345" lon="4.76939">
        <ele>345.9</ele>
        <time>2019-01-20T19:17:12Z</time>
      </trkpt>
      <trkpt lat="45.21368" lon="4.76918">
        <ele>349.6</ele>
        <time>2019-01-20T19:17:34Z</time>
      </trkpt>
      <trkpt lat="45.21348" lon="4.76878">
        <ele>349.8</ele>
        <time>2019-01-20T19:18:02Z</time>
      </trkpt>
      <trkpt lat="45.21332" lon="4.7684">
        <ele>350.4</ele>
        <time>2019-01-20T19:18:27Z</time>
      </trkpt>
      <trkpt lat="45.21323" lon="4.76831">
        <ele>349.6</ele>
        <time>2019-01-20T19:18:36Z</time>
      </trkpt>
      <trkpt lat="45.21312" lon="4.76824">
        <ele>348.6</ele>
        <time>2019-01-20T19:18:45Z</time>
      </trkpt>
      <trkpt lat="45.21304" lon="4.76798">
        <ele>349</ele>
        <time>2019-01-20T19:19:01Z</time>
      </trkpt>
      <trkpt lat="45.21293" lon="4.76767">
        <ele>349.7</ele>
        <time>2019-01-20T19:19:21Z</time>
      </trkpt>
      <trkpt lat="45.21285" lon="4.7675">
        <ele>349.6</ele>
        <time>2019-01-20T19:19:32Z</time>
      </trkpt>
      <trkpt lat="45.21259" lon="4.76754">
        <ele>345.9</ele>
        <time>2019-01-20T19:19:53Z</time>
      </trkpt>
      <trkpt lat="45.21227" lon="4.76766">
        <ele>340.2</ele>
        <time>2019-01-20T19:20:19Z</time>
      </trkpt>
      <trkpt lat="45.21188" lon="4.76774">
        <ele>333.5</ele>
        <time>2019-01-20T19:20:51Z</time>
      </trkpt>
      <trkpt lat="45.21158" lon="4.76776">
        <ele>327.8</ele>
        <time>2019-01-20T19:21:15Z</time>
      </trkpt>
      <trkpt lat="45.21147" lon="4.76772">
        <ele>325.2</ele>
        <time>2019-01-20T19:21:24Z</time>
      </trkpt>
      <trkpt lat="45.21135" lon="4.76769">
        <ele>322.3</ele>
        <time>2019-01-20T19:21:34Z</time>
      </trkpt>
      <trkpt lat="45.21127" lon="4.76768">
        <ele>320.5</ele>
        <time>2019-01-20T19:21:40Z</time>
      </trkpt>
      <trkpt lat="45.21119" lon="4.76768">
        <ele>318.4</ele>
        <time>2019-01-20T19:21:47Z</time>
      </trkpt>
      <trkpt lat="45.21111" lon="4.76764">
        <ele>316.6</ele>
        <time>2019-01-20T19:21:54Z</time>
      </trkpt>
      <trkpt lat="45.21105" lon="4.76759">
        <ele>315.2</ele>
        <time>2019-01-20T19:21:59Z</time>
      </trkpt>
      <trkpt lat="45.211" lon="4.76756">
        <ele>314.1</ele>
        <time>2019-01-20T19:22:03Z</time>
      </trkpt>
      <trkpt lat="45.21082" lon="4.76758">
        <ele>309.3</ele>
        <time>2019-01-20T19:22:18Z</time>
      </trkpt>
      <trkpt lat="45.21074" lon="4.76754">
        <ele>307</ele>
        <time>2019-01-20T19:22:25Z</time>
      </trkpt>
      <trkpt lat="45.21068" lon="4.76747">
        <ele>305.2</ele>
        <time>2019-01-20T19:22:31Z</time>
      </trkpt>
      <trkpt lat="45.21061" lon="4.76742">
        <ele>302.9</ele>
        <time>2019-01-20T19:22:37Z</time>
      </trkpt>
      <trkpt lat="45.21057" lon="4.76735">
        <ele>301.1</ele>
        <time>2019-01-20T19:22:42Z</time>
      </trkpt>
      <trkpt lat="45.21052" lon="4.7673">
        <ele>298.9</ele>
        <time>2019-01-20T19:22:47Z</time>
      </trkpt>
      <trkpt lat="45.21045" lon="4.76731">
        <ele>296.8</ele>
        <time>2019-01-20T19:22:53Z</time>
      </trkpt>
      <trkpt lat="45.21042" lon="4.76738">
        <ele>296.2</ele>
        <time>2019-01-20T19:22:58Z</time>
      </trkpt>
      <trkpt lat="45.21036" lon="4.7675">
        <ele>295.9</ele>
        <time>2019-01-20T19:23:06Z</time>
      </trkpt>
      <trkpt lat="45.21033" lon="4.76749">
        <ele>294.8</ele>
        <time>2019-01-20T19:23:08Z</time>
      </trkpt>
      <trkpt lat="45.21031" lon="4.76743">
        <ele>293.4</ele>
        <time>2019-01-20T19:23:12Z</time>
      </trkpt>
      <trkpt lat="45.21031" lon="4.76734">
        <ele>292.2</ele>
        <time>2019-01-20T19:23:17Z</time>
      </trkpt>
      <trkpt lat="45.21031" lon="4.76729">
        <ele>291.5</ele>
        <time>2019-01-20T19:23:20Z</time>
      </trkpt>
      <trkpt lat="45.21026" lon="4.76729">
        <ele>290</ele>
        <time>2019-01-20T19:23:23Z</time>
      </trkpt>
      <trkpt lat="45.21024" lon="4.76734">
        <ele>289.7</ele>
        <time>2019-01-20T19:23:27Z</time>
      </trkpt>
      <trkpt lat="45.21022" lon="4.76743">
        <ele>290.4</ele>
        <time>2019-01-20T19:23:32Z</time>
      </trkpt>
      <trkpt lat="45.2102" lon="4.76747">
        <ele>290.5</ele>
        <time>2019-01-20T19:23:35Z</time>
      </trkpt>
      <trkpt lat="45.21016" lon="4.76746">
        <ele>289.2</ele>
        <time>2019-01-20T19:23:38Z</time>
      </trkpt>
      <trkpt lat="45.21012" lon="4.76747">
        <ele>287.9</ele>
        <time>2019-01-20T19:23:41Z</time>
      </trkpt>
      <trkpt lat="45.21008" lon="4.76755">
        <ele>287.5</ele>
        <time>2019-01-20T19:23:47Z</time>
      </trkpt>
      <trkpt lat="45.21006" lon="4.76751">
        <ele>286.8</ele>
        <time>2019-01-20T19:23:50Z</time>
      </trkpt>
      <trkpt lat="45.21004" lon="4.76747">
        <ele>285.3</ele>
        <time>2019-01-20T19:23:53Z</time>
      </trkpt>
      <trkpt lat="45.21001" lon="4.76749">
        <ele>284.9</ele>
        <time>2019-01-20T19:23:56Z</time>
      </trkpt>
      <trkpt lat="45.21" lon="4.76757">
        <ele>285.2</ele>
        <time>2019-01-20T19:24:00Z</time>
      </trkpt>
      <trkpt lat="45.21" lon="4.76771">
        <ele>285.8</ele>
        <time>2019-01-20T19:24:08Z</time>
      </trkpt>
      <trkpt lat="45.21003" lon="4.76784">
        <ele>287.6</ele>
        <time>2019-01-20T19:24:16Z</time>
      </trkpt>
      <trkpt lat="45.20997" lon="4.76779">
        <ele>285.1</ele>
        <time>2019-01-20T19:24:22Z</time>
      </trkpt>
      <trkpt lat="45.2099" lon="4.76771">
        <ele>281.8</ele>
        <time>2019-01-20T19:24:30Z</time>
      </trkpt>
      <trkpt lat="45.20985" lon="4.7676">
        <ele>279.4</ele>
        <time>2019-01-20T19:24:37Z</time>
      </trkpt>
      <trkpt lat="45.20982" lon="4.76755">
        <ele>277.8</ele>
        <time>2019-01-20T19:24:41Z</time>
      </trkpt>
      <trkpt lat="45.20981" lon="4.76744">
        <ele>276.2</ele>
        <time>2019-01-20T19:24:47Z</time>
      </trkpt>
      <trkpt lat="45.20982" lon="4.76736">
        <ele>274.5</ele>
        <time>2019-01-20T19:24:51Z</time>
      </trkpt>
      <trkpt lat="45.20981" lon="4.76734">
        <ele>273.7</ele>
        <time>2019-01-20T19:24:53Z</time>
      </trkpt>
      <trkpt lat="45.20977" lon="4.76738">
        <ele>273.2</ele>
        <time>2019-01-20T19:24:57Z</time>
      </trkpt>
      <trkpt lat="45.20976" lon="4.76737">
        <ele>272.1</ele>
        <time>2019-01-20T19:24:58Z</time>
      </trkpt>
      <trkpt lat="45.20981" lon="4.76723">
        <ele>271.4</ele>
        <time>2019-01-20T19:25:07Z</time>
      </trkpt>
      <trkpt lat="45.20984" lon="4.76713">
        <ele>270.4</ele>
        <time>2019-01-20T19:25:13Z</time>
      </trkpt>
      <trkpt lat="45.20984" lon="4.7671">
        <ele>269.8</ele>
        <time>2019-01-20T19:25:15Z</time>
      </trkpt>
      <trkpt lat="45.20977" lon="4.76715">
        <ele>267.7</ele>
        <time>2019-01-20T19:25:22Z</time>
      </trkpt>
      <trkpt lat="45.2097" lon="4.76722">
        <ele>266.4</ele>
        <time>2019-01-20T19:25:28Z</time>
      </trkpt>
      <trkpt lat="45.20966" lon="4.7673">
        <ele>266.5</ele>
        <time>2019-01-20T19:25:34Z</time>
      </trkpt>
      <trkpt lat="45.20961" lon="4.76736">
        <ele>266</ele>
        <time>2019-01-20T19:25:39Z</time>
      </trkpt>
      <trkpt lat="45.2096" lon="4.76736">
        <ele>265.5</ele>
        <time>2019-01-20T19:25:40Z</time>
      </trkpt>
      <trkpt lat="45.2096" lon="4.7673">
        <ele>263.9</ele>
        <time>2019-01-20T19:25:44Z</time>
      </trkpt>
      <trkpt lat="45.20961" lon="4.76722">
        <ele>262.4</ele>
        <time>2019-01-20T19:25:48Z</time>
      </trkpt>
      <trkpt lat="45.20961" lon="4.76716">
        <ele>260.8</ele>
        <time>2019-01-20T19:25:52Z</time>
      </trkpt>
      <trkpt lat="45.20957" lon="4.76714">
        <ele>259.1</ele>
        <time>2019-01-20T19:25:55Z</time>
      </trkpt>
      <trkpt lat="45.20953" lon="4.76721">
        <ele>259.4</ele>
        <time>2019-01-20T19:26:00Z</time>
      </trkpt>
      <trkpt lat="45.2095" lon="4.76732">
        <ele>260.4</ele>
        <time>2019-01-20T19:26:06Z</time>
      </trkpt>
      <trkpt lat="45.20947" lon="4.76745">
        <ele>262.6</ele>
        <time>2019-01-20T19:26:14Z</time>
      </trkpt>
      <trkpt lat="45.20944" lon="4.76754">
        <ele>263.1</ele>
        <time>2019-01-20T19:26:20Z</time>
      </trkpt>
      <trkpt lat="45.20943" lon="4.76764">
        <ele>263.3</ele>
        <time>2019-01-20T19:26:25Z</time>
      </trkpt>
      <trkpt lat="45.20942" lon="4.76767">
        <ele>263</ele>
        <time>2019-01-20T19:26:27Z</time>
      </trkpt>
      <trkpt lat="45.20937" lon="4.76761">
        <ele>260.6</ele>
        <time>2019-01-20T19:26:33Z</time>
      </trkpt>
      <trkpt lat="45.20932" lon="4.76755">
        <ele>258.4</ele>
        <time>2019-01-20T19:26:38Z</time>
      </trkpt>
      <trkpt lat="45.20929" lon="4.76743">
        <ele>255.2</ele>
        <time>2019-01-20T19:26:45Z</time>
      </trkpt>
      <trkpt lat="45.20926" lon="4.76737">
        <ele>251.6</ele>
        <time>2019-01-20T19:26:50Z</time>
      </trkpt>
      <trkpt lat="45.20922" lon="4.7674">
        <ele>251.1</ele>
        <time>2019-01-20T19:26:53Z</time>
      </trkpt>
      <trkpt lat="45.20922" lon="4.76758">
        <ele>254.4</ele>
        <time>2019-01-20T19:27:03Z</time>
      </trkpt>
      <trkpt lat="45.20923" lon="4.76768">
        <ele>255.3</ele>
        <time>2019-01-20T19:27:09Z</time>
      </trkpt>
      <trkpt lat="45.20914" lon="4.76765">
        <ele>251.1</ele>
        <time>2019-01-20T19:27:17Z</time>
      </trkpt>
      <trkpt lat="45.20908" lon="4.76756">
        <ele>247.6</ele>
        <time>2019-01-20T19:27:24Z</time>
      </trkpt>
      <trkpt lat="45.20912" lon="4.76734">
        <ele>245.1</ele>
        <time>2019-01-20T19:27:37Z</time>
      </trkpt>
      <trkpt lat="45.20916" lon="4.76712">
        <ele>240.4</ele>
        <time>2019-01-20T19:27:50Z</time>
      </trkpt>
      <trkpt lat="45.20927" lon="4.7669">
        <ele>239.4</ele>
        <time>2019-01-20T19:28:05Z</time>
      </trkpt>
      <trkpt lat="45.20936" lon="4.76669">
        <ele>237.7</ele>
        <time>2019-01-20T19:28:19Z</time>
      </trkpt>
      <trkpt lat="45.20947" lon="4.76652">
        <ele>239.3</ele>
        <time>2019-01-20T19:28:32Z</time>
      </trkpt>
      <trkpt lat="45.20963" lon="4.76622">
        <ele>241.7</ele>
        <time>2019-01-20T19:28:53Z</time>
      </trkpt>
      <trkpt lat="45.20976" lon="4.76603">
        <ele>246.9</ele>
        <time>2019-01-20T19:29:08Z</time>
      </trkpt>
      <trkpt lat="45.20959" lon="4.76618">
        <ele>238.1</ele>
        <time>2019-01-20T19:29:24Z</time>
      </trkpt>
      <trkpt lat="45.20937" lon="4.76643">
        <ele>231.3</ele>
        <time>2019-01-20T19:29:46Z</time>
      </trkpt>
      <trkpt lat="45.20918" lon="4.76664">
        <ele>227.7</ele>
        <time>2019-01-20T19:30:06Z</time>
      </trkpt>
      <trkpt lat="45.20904" lon="4.76689">
        <ele>227.8</ele>
        <time>2019-01-20T19:30:24Z</time>
      </trkpt>
      <trkpt lat="45.20892" lon="4.76705">
        <ele>226.3</ele>
        <time>2019-01-20T19:30:37Z</time>
      </trkpt>
      <trkpt lat="45.20873" lon="4.76733">
        <ele>224.6</ele>
        <time>2019-01-20T19:30:59Z</time>
      </trkpt>
      <trkpt lat="45.20867" lon="4.76749">
        <ele>225.7</ele>
        <time>2019-01-20T19:31:09Z</time>
      </trkpt>
      <trkpt lat="45.20867" lon="4.76778">
        <ele>226.4</ele>
        <time>2019-01-20T19:31:25Z</time>
      </trkpt>
      <trkpt lat="45.2088" lon="4.768">
        <ele>234.2</ele>
        <time>2019-01-20T19:31:42Z</time>
      </trkpt>
      <trkpt lat="45.20895" lon="4.7689">
        <ele>239.6</ele>
        <time>2019-01-20T19:32:34Z</time>
      </trkpt>
      <trkpt lat="45.20904" lon="4.76954">
        <ele>237.2</ele>
        <time>2019-01-20T19:33:11Z</time>
      </trkpt>
      <trkpt lat="45.20914" lon="4.77011">
        <ele>232.5</ele>
        <time>2019-01-20T19:33:44Z</time>
      </trkpt>
      <trkpt lat="45.2092" lon="4.7706">
        <ele>225.6</ele>
        <time>2019-01-20T19:34:12Z</time>
      </trkpt>
      <trkpt lat="45.20927" lon="4.77096">
        <ele>221.8</ele>
        <time>2019-01-20T19:34:33Z</time>
      </trkpt>
      <trkpt lat="45.2093" lon="4.77155">
        <ele>211.8</ele>
        <time>2019-01-20T19:35:06Z</time>
      </trkpt>
      <trkpt lat="45.20948" lon="4.77169">
        <ele>216.2</ele>
        <time>2019-01-20T19:35:23Z</time>
      </trkpt>
      <trkpt lat="45.20958" lon="4.77201">
        <ele>221.8</ele>
        <time>2019-01-20T19:35:42Z</time>
      </trkpt>
      <trkpt lat="45.20959" lon="4.77219">
        <ele>223.1</ele>
        <time>2019-01-20T19:35:52Z</time>
      </trkpt>
      <trkpt lat="45.20952" lon="4.77239">
        <ele>221</ele>
        <time>2019-01-20T19:36:05Z</time>
      </trkpt>
      <trkpt lat="45.20959" lon="4.77269">
        <ele>224.4</ele>
        <time>2019-01-20T19:36:23Z</time>
      </trkpt>
      <trkpt lat="45.20968" lon="4.77301">
        <ele>228.4</ele>
        <time>2019-01-20T19:36:42Z</time>
      </trkpt>
      <trkpt lat="45.20978" lon="4.7733">
        <ele>234.2</ele>
        <time>2019-01-20T19:37:01Z</time>
      </trkpt>
      <trkpt lat="45.20973" lon="4.77356">
        <ele>233.2</ele>
        <time>2019-01-20T19:37:16Z</time>
      </trkpt>
      <trkpt lat="45.20965" lon="4.7739">
        <ele>231.7</ele>
        <time>2019-01-20T19:37:36Z</time>
      </trkpt>
      <trkpt lat="45.20955" lon="4.77443">
        <ele>231.9</ele>
        <time>2019-01-20T19:38:07Z</time>
      </trkpt>
      <trkpt lat="45.20955" lon="4.77502">
        <ele>239.6</ele>
        <time>2019-01-20T19:38:41Z</time>
      </trkpt>
      <trkpt lat="45.20947" lon="4.77562">
        <ele>233.8</ele>
        <time>2019-01-20T19:39:15Z</time>
      </trkpt>
      <trkpt lat="45.20932" lon="4.77575">
        <ele>226.7</ele>
        <time>2019-01-20T19:39:29Z</time>
      </trkpt>
      <trkpt lat="45.20903" lon="4.77575">
        <ele>213.4</ele>
        <time>2019-01-20T19:39:52Z</time>
      </trkpt>
      <trkpt lat="45.20886" lon="4.77581">
        <ele>204.9</ele>
        <time>2019-01-20T19:40:06Z</time>
      </trkpt>
      <trkpt lat="45.20878" lon="4.77635">
        <ele>208.7</ele>
        <time>2019-01-20T19:40:37Z</time>
      </trkpt>
      <trkpt lat="45.20887" lon="4.77709">
        <ele>215</ele>
        <time>2019-01-20T19:41:20Z</time>
      </trkpt>
      <trkpt lat="45.20911" lon="4.7776">
        <ele>222.9</ele>
        <time>2019-01-20T19:41:54Z</time>
      </trkpt>
      <trkpt lat="45.20929" lon="4.77819">
        <ele>213.8</ele>
        <time>2019-01-20T19:42:31Z</time>
      </trkpt>
      <trkpt lat="45.20983" lon="4.77877">
        <ele>228.4</ele>
        <time>2019-01-20T19:43:25Z</time>
      </trkpt>
      <trkpt lat="45.21025" lon="4.7796">
        <ele>235.1</ele>
        <time>2019-01-20T19:44:22Z</time>
      </trkpt>
      <trkpt lat="45.2105" lon="4.78038">
        <ele>236.4</ele>
        <time>2019-01-20T19:45:11Z</time>
      </trkpt>
      <trkpt lat="45.21061" lon="4.78087">
        <ele>235</ele>
        <time>2019-01-20T19:45:40Z</time>
      </trkpt>
      <trkpt lat="45.21068" lon="4.78136">
        <ele>234.4</ele>
        <time>2019-01-20T19:46:08Z</time>
      </trkpt>
      <trkpt lat="45.21071" lon="4.78176">
        <ele>231.6</ele>
        <time>2019-01-20T19:46:31Z</time>
      </trkpt>
      <trkpt lat="45.21074" lon="4.78278">
        <ele>224.9</ele>
        <time>2019-01-20T19:47:29Z</time>
      </trkpt>
      <trkpt lat="45.21044" lon="4.78312">
        <ele>211.2</ele>
        <time>2019-01-20T19:47:59Z</time>
      </trkpt>
      <trkpt lat="45.21025" lon="4.78353">
        <ele>205.8</ele>
        <time>2019-01-20T19:48:27Z</time>
      </trkpt>
      <trkpt lat="45.21004" lon="4.78393">
        <ele>199.4</ele>
        <time>2019-01-20T19:48:55Z</time>
      </trkpt>
      <trkpt lat="45.21017" lon="4.78446">
        <ele>206.2</ele>
        <time>2019-01-20T19:49:27Z</time>
      </trkpt>
      <trkpt lat="45.21018" lon="4.78448">
        <ele>206.2</ele>
        <time>2019-01-20T19:49:28Z</time>
      </trkpt>
      <trkpt lat="45.21032" lon="4.78485">
        <ele>208.7</ele>
        <time>2019-01-20T19:49:52Z</time>
      </trkpt>
      <trkpt lat="45.21041" lon="4.78498">
        <ele>210.7</ele>
        <time>2019-01-20T19:50:02Z</time>
      </trkpt>
      <trkpt lat="45.21054" lon="4.78516">
        <ele>215</ele>
        <time>2019-01-20T19:50:17Z</time>
      </trkpt>
      <trkpt lat="45.21062" lon="4.78531">
        <ele>216.9</ele>
        <time>2019-01-20T19:50:27Z</time>
      </trkpt>
      <trkpt lat="45.21063" lon="4.78549">
        <ele>216.2</ele>
        <time>2019-01-20T19:50:37Z</time>
      </trkpt>
      <trkpt lat="45.21099" lon="4.78579">
        <ele>223.2</ele>
        <time>2019-01-20T19:51:10Z</time>
      </trkpt>
      <trkpt lat="45.21119" lon="4.78595">
        <ele>230.2</ele>
        <time>2019-01-20T19:51:29Z</time>
      </trkpt>
      <trkpt lat="45.21142" lon="4.78616">
        <ele>237.1</ele>
        <time>2019-01-20T19:51:51Z</time>
      </trkpt>
      <trkpt lat="45.21163" lon="4.78633">
        <ele>240.6</ele>
        <time>2019-01-20T19:52:10Z</time>
      </trkpt>
      <trkpt lat="45.21185" lon="4.78643">
        <ele>246.1</ele>
        <time>2019-01-20T19:52:29Z</time>
      </trkpt>
      <trkpt lat="45.21201" lon="4.78658">
        <ele>249.2</ele>
        <time>2019-01-20T19:52:44Z</time>
      </trkpt>
      <trkpt lat="45.21225" lon="4.7867">
        <ele>255</ele>
        <time>2019-01-20T19:53:04Z</time>
      </trkpt>
      <trkpt lat="45.21249" lon="4.78686">
        <ele>262.1</ele>
        <time>2019-01-20T19:53:25Z</time>
      </trkpt>
      <trkpt lat="45.21263" lon="4.78694">
        <ele>268.2</ele>
        <time>2019-01-20T19:53:38Z</time>
      </trkpt>
      <trkpt lat="45.21279" lon="4.78687">
        <ele>274.5</ele>
        <time>2019-01-20T19:53:51Z</time>
      </trkpt>
      <trkpt lat="45.21284" lon="4.78676">
        <ele>276.5</ele>
        <time>2019-01-20T19:53:58Z</time>
      </trkpt>
      <trkpt lat="45.21292" lon="4.78673">
        <ele>280.3</ele>
        <time>2019-01-20T19:54:05Z</time>
      </trkpt>
      <trkpt lat="45.21299" lon="4.78695">
        <ele>283</ele>
        <time>2019-01-20T19:54:19Z</time>
      </trkpt>
      <trkpt lat="45.21307" lon="4.78697">
        <ele>286.2</ele>
        <time>2019-01-20T19:54:25Z</time>
      </trkpt>
      <trkpt lat="45.21313" lon="4.78699">
        <ele>288.8</ele>
        <time>2019-01-20T19:54:30Z</time>
      </trkpt>
      <trkpt lat="45.21312" lon="4.78722">
        <ele>288.3</ele>
        <time>2019-01-20T19:54:44Z</time>
      </trkpt>
      <trkpt lat="45.21276" lon="4.78728">
        <ele>273.7</ele>
        <time>2019-01-20T19:55:13Z</time>
      </trkpt>
      <trkpt lat="45.21299" lon="4.78752">
        <ele>283.2</ele>
        <time>2019-01-20T19:55:37Z</time>
      </trkpt>
      <trkpt lat="45.2132" lon="4.78767">
        <ele>291</ele>
        <time>2019-01-20T19:55:55Z</time>
      </trkpt>
      <trkpt lat="45.21347" lon="4.78804">
        <ele>298.9</ele>
        <time>2019-01-20T19:56:25Z</time>
      </trkpt>
      <trkpt lat="45.21355" lon="4.78836">
        <ele>300.3</ele>
        <time>2019-01-20T19:56:44Z</time>
      </trkpt>
      <trkpt lat="45.21392" lon="4.78878">
        <ele>311.6</ele>
        <time>2019-01-20T19:57:22Z</time>
      </trkpt>
      <trkpt lat="45.21392" lon="4.78878">
        <ele>311.6</ele>
        <time>2019-01-20T19:57:22Z</time>
      </trkpt>
      <trkpt lat="45.21415" lon="4.78904">
        <ele>315.6</ele>
        <time>2019-01-20T19:57:46Z</time>
      </trkpt>
      <trkpt lat="45.21407" lon="4.78918">
        <ele>313.3</ele>
        <time>2019-01-20T19:57:56Z</time>
      </trkpt>
      <trkpt lat="45.21387" lon="4.78924">
        <ele>310.1</ele>
        <time>2019-01-20T19:58:13Z</time>
      </trkpt>
      <trkpt lat="45.21387" lon="4.78924">
        <ele>310.1</ele>
        <time>2019-01-20T19:58:13Z</time>
      </trkpt>
      <trkpt lat="45.21357" lon="4.78916">
        <ele>304.2</ele>
        <time>2019-01-20T19:58:37Z</time>
      </trkpt>
      <trkpt lat="45.21366" lon="4.78941">
        <ele>308.1</ele>
        <time>2019-01-20T19:58:53Z</time>
      </trkpt>
      <trkpt lat="45.21378" lon="4.78957">
        <ele>311</ele>
        <time>2019-01-20T19:59:07Z</time>
      </trkpt>
      <trkpt lat="45.21406" lon="4.78985">
        <ele>314.4</ele>
        <time>2019-01-20T19:59:34Z</time>
      </trkpt>
      <trkpt lat="45.21406" lon="4.78985">
        <ele>314.4</ele>
        <time>2019-01-20T19:59:34Z</time>
      </trkpt>
      <trkpt lat="45.21404" lon="4.78999">
        <ele>314.7</ele>
        <time>2019-01-20T19:59:42Z</time>
      </trkpt>
      <trkpt lat="45.2136" lon="4.78987">
        <ele>312.2</ele>
        <time>2019-01-20T20:00:18Z</time>
      </trkpt>
      <trkpt lat="45.2136" lon="4.78987">
        <ele>312.2</ele>
        <time>2019-01-20T20:00:18Z</time>
      </trkpt>
      <trkpt lat="45.21323" lon="4.78985">
        <ele>311.8</ele>
        <time>2019-01-20T20:00:48Z</time>
      </trkpt>
      <trkpt lat="45.21288" lon="4.78994">
        <ele>316.7</ele>
        <time>2019-01-20T20:01:16Z</time>
      </trkpt>
      <trkpt lat="45.21248" lon="4.78994">
        <ele>320.8</ele>
        <time>2019-01-20T20:01:48Z</time>
      </trkpt>
      <trkpt lat="45.21211" lon="4.79003">
        <ele>323.9</ele>
        <time>2019-01-20T20:02:19Z</time>
      </trkpt>
      <trkpt lat="45.2118" lon="4.79007">
        <ele>326.1</ele>
        <time>2019-01-20T20:02:43Z</time>
      </trkpt>
      <trkpt lat="45.21143" lon="4.79009">
        <ele>328.6</ele>
        <time>2019-01-20T20:03:13Z</time>
      </trkpt>
      <trkpt lat="45.21096" lon="4.78997">
        <ele>330.9</ele>
        <time>2019-01-20T20:03:51Z</time>
      </trkpt>
      <trkpt lat="45.21087" lon="4.78985">
        <ele>329.7</ele>
        <time>2019-01-20T20:04:01Z</time>
      </trkpt>
      <trkpt lat="45.21056" lon="4.78977">
        <ele>329.4</ele>
        <time>2019-01-20T20:04:26Z</time>
      </trkpt>
      <trkpt lat="45.21021" lon="4.78966">
        <ele>327.7</ele>
        <time>2019-01-20T20:04:55Z</time>
      </trkpt>
      <trkpt lat="45.21012" lon="4.78941">
        <ele>320.5</ele>
        <time>2019-01-20T20:05:11Z</time>
      </trkpt>
      <trkpt lat="45.21" lon="4.78928">
        <ele>316.5</ele>
        <time>2019-01-20T20:05:23Z</time>
      </trkpt>
      <trkpt lat="45.20962" lon="4.78905">
        <ele>314.4</ele>
        <time>2019-01-20T20:05:56Z</time>
      </trkpt>
      <trkpt lat="45.20938" lon="4.78889">
        <ele>313.1</ele>
        <time>2019-01-20T20:06:17Z</time>
      </trkpt>
      <trkpt lat="45.20907" lon="4.78868">
        <ele>310.9</ele>
        <time>2019-01-20T20:06:45Z</time>
      </trkpt>
      <trkpt lat="45.20889" lon="4.78846">
        <ele>307.8</ele>
        <time>2019-01-20T20:07:04Z</time>
      </trkpt>
      <trkpt lat="45.20876" lon="4.78838">
        <ele>308.6</ele>
        <time>2019-01-20T20:07:15Z</time>
      </trkpt>
      <trkpt lat="45.20851" lon="4.7884">
        <ele>314.1</ele>
        <time>2019-01-20T20:07:35Z</time>
      </trkpt>
      <trkpt lat="45.20825" lon="4.78839">
        <ele>317.6</ele>
        <time>2019-01-20T20:07:56Z</time>
      </trkpt>
      <trkpt lat="45.20796" lon="4.78839">
        <ele>317.5</ele>
        <time>2019-01-20T20:08:19Z</time>
      </trkpt>
      <trkpt lat="45.20796" lon="4.78829">
        <ele>316.1</ele>
        <time>2019-01-20T20:08:25Z</time>
      </trkpt>
      <trkpt lat="45.2081" lon="4.78791">
        <ele>305.3</ele>
        <time>2019-01-20T20:08:49Z</time>
      </trkpt>
      <trkpt lat="45.2081" lon="4.7877">
        <ele>299.5</ele>
        <time>2019-01-20T20:09:01Z</time>
      </trkpt>
      <trkpt lat="45.20797" lon="4.78752">
        <ele>296.4</ele>
        <time>2019-01-20T20:09:15Z</time>
      </trkpt>
      <trkpt lat="45.20786" lon="4.78734">
        <ele>289.6</ele>
        <time>2019-01-20T20:09:29Z</time>
      </trkpt>
      <trkpt lat="45.20775" lon="4.78728">
        <ele>288.9</ele>
        <time>2019-01-20T20:09:38Z</time>
      </trkpt>
      <trkpt lat="45.20775" lon="4.78716">
        <ele>283.7</ele>
        <time>2019-01-20T20:09:45Z</time>
      </trkpt>
      <trkpt lat="45.20762" lon="4.78709">
        <ele>282.5</ele>
        <time>2019-01-20T20:09:56Z</time>
      </trkpt>
      <trkpt lat="45.20756" lon="4.78694">
        <ele>277.4</ele>
        <time>2019-01-20T20:10:06Z</time>
      </trkpt>
      <trkpt lat="45.20746" lon="4.78667">
        <ele>266.8</ele>
        <time>2019-01-20T20:10:23Z</time>
      </trkpt>
      <trkpt lat="45.2074" lon="4.78649">
        <ele>256.8</ele>
        <time>2019-01-20T20:10:34Z</time>
      </trkpt>
      <trkpt lat="45.2074" lon="4.78637">
        <ele>250.6</ele>
        <time>2019-01-20T20:10:41Z</time>
      </trkpt>
      <trkpt lat="45.20729" lon="4.78622">
        <ele>243.5</ele>
        <time>2019-01-20T20:10:53Z</time>
      </trkpt>
      <trkpt lat="45.20716" lon="4.78604">
        <ele>234.8</ele>
        <time>2019-01-20T20:11:08Z</time>
      </trkpt>
      <trkpt lat="45.20719" lon="4.78583">
        <ele>225</ele>
        <time>2019-01-20T20:11:20Z</time>
      </trkpt>
      <trkpt lat="45.20719" lon="4.78568">
        <ele>217.2</ele>
        <time>2019-01-20T20:11:29Z</time>
      </trkpt>
      <trkpt lat="45.20712" lon="4.78556">
        <ele>212.4</ele>
        <time>2019-01-20T20:11:37Z</time>
      </trkpt>
      <trkpt lat="45.20696" lon="4.78544">
        <ele>208.2</ele>
        <time>2019-01-20T20:11:52Z</time>
      </trkpt>
      <trkpt lat="45.20687" lon="4.78532">
        <ele>203.8</ele>
        <time>2019-01-20T20:12:02Z</time>
      </trkpt>
      <trkpt lat="45.20674" lon="4.78519">
        <ele>199.6</ele>
        <time>2019-01-20T20:12:14Z</time>
      </trkpt>
      <trkpt lat="45.20651" lon="4.78514">
        <ele>197.2</ele>
        <time>2019-01-20T20:12:33Z</time>
      </trkpt>
      <trkpt lat="45.20627" lon="4.78507">
        <ele>193.5</ele>
        <time>2019-01-20T20:12:53Z</time>
      </trkpt>
      <trkpt lat="45.20604" lon="4.78505">
        <ele>192</ele>
        <time>2019-01-20T20:13:11Z</time>
      </trkpt>
      <trkpt lat="45.20573" lon="4.78508">
        <ele>189.5</ele>
        <time>2019-01-20T20:13:36Z</time>
      </trkpt>
      <trkpt lat="45.20556" lon="4.785">
        <ele>185.1</ele>
        <time>2019-01-20T20:13:50Z</time>
      </trkpt>
      <trkpt lat="45.20539" lon="4.78498">
        <ele>180.8</ele>
        <time>2019-01-20T20:14:04Z</time>
      </trkpt>
      <trkpt lat="45.20521" lon="4.78504">
        <ele>177.3</ele>
        <time>2019-01-20T20:14:18Z</time>
      </trkpt>
      <trkpt lat="45.20515" lon="4.78508">
        <ele>175.4</ele>
        <time>2019-01-20T20:14:24Z</time>
      </trkpt>
      <trkpt lat="45.20506" lon="4.78492">
        <ele>172.9</ele>
        <time>2019-01-20T20:14:35Z</time>
      </trkpt>
      <trkpt lat="45.2052" lon="4.78464">
        <ele>169.5</ele>
        <time>2019-01-20T20:14:55Z</time>
      </trkpt>
      <trkpt lat="45.205" lon="4.78472">
        <ele>167.8</ele>
        <time>2019-01-20T20:15:12Z</time>
      </trkpt>
      <trkpt lat="45.20487" lon="4.78478">
        <ele>166.2</ele>
        <time>2019-01-20T20:15:23Z</time>
      </trkpt>
      <trkpt lat="45.20487" lon="4.78479">
        <ele>166.3</ele>
        <time>2019-01-20T20:15:23Z</time>
      </trkpt>
      <trkpt lat="45.20495" lon="4.78521">
        <ele>168.9</ele>
        <time>2019-01-20T20:15:48Z</time>
      </trkpt>
      <trkpt lat="45.2053" lon="4.78556">
        <ele>176.6</ele>
        <time>2019-01-20T20:16:22Z</time>
      </trkpt>
      <trkpt lat="45.20561" lon="4.78575">
        <ele>189.1</ele>
        <time>2019-01-20T20:16:49Z</time>
      </trkpt>
      <trkpt lat="45.20599" lon="4.78589">
        <ele>206.4</ele>
        <time>2019-01-20T20:17:20Z</time>
      </trkpt>
      <trkpt lat="45.20614" lon="4.786">
        <ele>213.8</ele>
        <time>2019-01-20T20:17:34Z</time>
      </trkpt>
      <trkpt lat="45.20625" lon="4.78637">
        <ele>225.7</ele>
        <time>2019-01-20T20:17:57Z</time>
      </trkpt>
      <trkpt lat="45.20622" lon="4.78658">
        <ele>227.5</ele>
        <time>2019-01-20T20:18:09Z</time>
      </trkpt>
      <trkpt lat="45.20592" lon="4.7867">
        <ele>207.5</ele>
        <time>2019-01-20T20:18:33Z</time>
      </trkpt>
      <trkpt lat="45.20562" lon="4.7869">
        <ele>190.6</ele>
        <time>2019-01-20T20:19:00Z</time>
      </trkpt>
      <trkpt lat="45.20542" lon="4.78731">
        <ele>182.2</ele>
        <time>2019-01-20T20:19:28Z</time>
      </trkpt>
      <trkpt lat="45.20518" lon="4.78767">
        <ele>171.9</ele>
        <time>2019-01-20T20:19:56Z</time>
      </trkpt>
      <trkpt lat="45.20456" lon="4.78792">
        <ele>162.3</ele>
        <time>2019-01-20T20:20:47Z</time>
      </trkpt>
      <trkpt lat="45.20404" lon="4.788">
        <ele>159.4</ele>
        <time>2019-01-20T20:21:29Z</time>
      </trkpt>
      <trkpt lat="45.20374" lon="4.78807">
        <ele>160.1</ele>
        <time>2019-01-20T20:21:53Z</time>
      </trkpt>
      <trkpt lat="45.20343" lon="4.78823">
        <ele>156.5</ele>
        <time>2019-01-20T20:22:20Z</time>
      </trkpt>
      <trkpt lat="45.2032" lon="4.78846">
        <ele>154.6</ele>
        <time>2019-01-20T20:22:43Z</time>
      </trkpt>
      <trkpt lat="45.20305" lon="4.78866">
        <ele>155.2</ele>
        <time>2019-01-20T20:22:59Z</time>
      </trkpt>
      <trkpt lat="45.20294" lon="4.78899">
        <ele>153.7</ele>
        <time>2019-01-20T20:23:20Z</time>
      </trkpt>
      <trkpt lat="45.20285" lon="4.78931">
        <ele>152.4</ele>
        <time>2019-01-20T20:23:39Z</time>
      </trkpt>
      <trkpt lat="45.20265" lon="4.78985">
        <ele>149.7</ele>
        <time>2019-01-20T20:24:14Z</time>
      </trkpt>
      <trkpt lat="45.20253" lon="4.79031">
        <ele>145</ele>
        <time>2019-01-20T20:24:41Z</time>
      </trkpt>
      <trkpt lat="45.20258" lon="4.79076">
        <ele>144.3</ele>
        <time>2019-01-20T20:25:07Z</time>
      </trkpt>
      <trkpt lat="45.20274" lon="4.79096">
        <ele>146.5</ele>
        <time>2019-01-20T20:25:24Z</time>
      </trkpt>
    </trkseg>
  </trk>
</gpx>